FR8177 / EI-GJZ 7700 Squawk Report (22nd of July, 2018)

Aircraft B738 Reg No. EI-GJZ Age 5 months old
Model 737 Jet engines 2 First flight 17-05-18
Registered 25-05-18 Rollout N/A Delivered 25-05-18
Construction No. 44840 Line No. 6964 Series 800
ADSHEX 4CAF8D Airline name Ryanair Owner N/A
Airfield based Dublin~Co Dublin~EI First tracked 2018-05-29 19:10:00

Flight history for EI-GJZ

Route Flight No Date Playback
Stansted (STN) - Lisboa (LIS) FR1886 2018-10-21 12:32:00
Entzheim (SXB) - Stansted (STN) FR7118 2018-10-21 10:48:00
Stansted (STN) - Entzheim (SXB) FR7117 2018-10-21 08:53:00
Dublin (DUB) - Stansted (STN) FR272 2018-10-20 20:26:00
Son Sant Joan (PMI) - Dublin (DUB) FR9998 2018-10-20 17:42:00
Bournemouth (BOH) - Son Sant Joan (PMI) FR5942 2018-10-20 15:26:00
Son Sant Joan (PMI) - Bournemouth (BOH) FR5943 2018-10-20 10:28:00
Frankfurt Hahn (HHN) - Son Sant Joan (PMI) FR9866 2018-10-20 07:54:00
Lisboa (LIS) - Frankfurt Hahn (HHN) FR1787 2018-10-19 19:20:00
Frankfurt Hahn (HHN) - Lisboa (LIS) FR1786 2018-10-19 15:43:00
Pula (PUY) - Frankfurt Hahn (HHN) FR4582 2018-10-19 11:21:00
Frankfurt Hahn (HHN) - Pula (PUY) FR4581 2018-10-19 09:38:00
Stansted (STN) - Frankfurt Hahn (HHN) FR752 2018-10-19 07:49:00
Frankfurt Hahn (HHN) - Stansted (STN) FR753 2018-10-19 06:53:00
Menara (RAK) - Frankfurt Hahn (HHN) FR5709 2018-10-19 04:44:00
Frankfurt Hahn (HHN) - Menara (RAK) FR5708 2018-10-18 19:17:00
El Aroui Airport (NDR) - Frankfurt Hahn (HHN) FR5008 2018-10-18 14:08:00
Frankfurt Hahn (HHN) - El Aroui Airport (NDR) FR5009 2018-10-18 09:14:00
Son Sant Joan (PMI) - Frankfurt Hahn (HHN) FR9833 2018-10-17 21:38:00
Frankfurt Hahn (HHN) - Son Sant Joan (PMI) FR9832 2018-10-17 19:55:00
Time Lat Lon Altitude Heading Speed Vertical Rate
2018-07-22 20:00:53 GMT 50.443909 4.394748 1,050 77 146 -704
2018-07-22 20:00:47 GMT 50.443039 4.388243 1,175 80 147 -1152
2018-07-22 20:00:33 GMT 50.441254 4.373498 1,400 80 147 -1152
2018-07-22 20:00:22 GMT 50.440002 4.362166 1,600 79 151 -1088
2018-07-22 20:00:11 GMT 50.438004 4.348128 1,775 76 165 -896
2018-07-22 20:00:01 GMT 50.435997 4.335962 1,925 75 174 -896
2018-07-22 19:59:56 GMT 50.434937 4.329625 2,025 75 178 -1024
2018-07-22 19:59:44 GMT 50.432648 4.316254 2,175 75 185 -1024
2018-07-22 19:59:37 GMT 50.431000 4.306062 2,325 75 186 -1024
2018-07-22 19:59:34 GMT 50.430134 4.301147 2,375 74 186 -896
2018-07-22 19:59:26 GMT 50.428501 4.291868 2,475 74 189 -1024
2018-07-22 19:59:23 GMT 50.427570 4.286450 2,550 74 189 -1088
2018-07-22 19:59:15 GMT 50.426102 4.278307 2,675 74 190 -1088
2018-07-22 19:59:12 GMT 50.425049 4.272381 2,750 74 191 -960
2018-07-22 19:59:05 GMT 50.423615 4.264477 2,825 74 194 -640
2018-07-22 19:59:01 GMT 50.422302 4.257419 2,900 73 197 -1152
2018-07-22 19:58:55 GMT 50.420975 4.250119 3,000 74 199 -1216
2018-07-22 19:58:50 GMT 50.419704 4.242504 3,100 77 203 -1216
2018-07-22 19:58:45 GMT 50.418587 4.234784 3,200 77 205 -1152
2018-07-22 19:58:39 GMT 50.417542 4.227062 3,300 77 210 -960
2018-07-22 19:58:34 GMT 50.416447 4.219418 3,400 77 215 -1088
2018-07-22 19:58:27 GMT 50.415096 4.210139 3,525 76 217 -1344
2018-07-22 19:58:23 GMT 50.414165 4.203681 3,625 77 220 -1408
2018-07-22 19:58:16 GMT 50.412598 4.192874 3,775 77 223 -1536
2018-07-22 19:58:13 GMT 50.411819 4.187526 3,875 77 224 -1728
2018-07-22 19:58:07 GMT 50.410217 4.176323 4,125 77 223 -2240
2018-07-22 19:58:03 GMT 50.409302 4.170034 4,250 77 223 -2240
2018-07-22 19:57:55 GMT 50.407516 4.157892 4,525 77 222 -1984
2018-07-22 19:57:51 GMT 50.406784 4.152904 4,625 77 224 -1536
2018-07-22 19:57:44 GMT 50.405087 4.141029 4,775 77 228 -896
2018-07-22 19:57:41 GMT 50.404495 4.137003 4,850 77 230 -768
2018-07-22 19:57:37 GMT 50.403534 4.130353 4,875 77 231 -640
2018-07-22 19:57:34 GMT 50.402573 4.123921 4,900 77 238 -384
2018-07-22 19:57:30 GMT 50.401783 4.118314 4,925 77 241 -384
2018-07-22 19:57:26 GMT 50.400898 4.111856 4,950 77 246 -576
2018-07-22 19:57:23 GMT 50.400013 4.105472 4,975 77 249 -704
2018-07-22 19:57:20 GMT 50.399414 4.100864 5,025 78 250 -704
2018-07-22 19:57:16 GMT 50.398315 4.092624 5,075 78 259 -832
2018-07-22 19:57:10 GMT 50.396851 4.081710 5,150 78 257 -768
2018-07-22 19:57:04 GMT 50.395638 4.072587 5,225 78 260 -832
2018-07-22 19:57:00 GMT 50.394707 4.065832 5,275 77 262 -896
2018-07-22 19:56:56 GMT 50.393265 4.055440 5,350 77 266 -1152
2018-07-22 19:56:53 GMT 50.392891 4.052842 5,375 77 266 -1152
2018-07-22 19:56:48 GMT 50.391399 4.042226 5,500 77 268 -1088
2018-07-22 19:56:45 GMT 50.390717 4.037331 5,525 77 269 -896
2018-07-22 19:56:39 GMT 50.388794 4.023960 5,650 77 271 -768
2018-07-22 19:56:34 GMT 50.387630 4.016023 5,700 77 273 -960
2018-07-22 19:56:31 GMT 50.386780 4.010082 5,750 77 274 -1088
2018-07-22 19:56:28 GMT 50.385773 4.003071 5,825 77 279 -1024
2018-07-22 19:56:24 GMT 50.384583 3.994542 5,875 77 275 -1024
2018-07-22 19:56:20 GMT 50.383759 3.989049 5,925 77 276 -1088
2018-07-22 19:56:16 GMT 50.382385 3.979219 6,025 77 278 -1024
2018-07-22 19:56:13 GMT 50.381859 3.975492 6,050 77 279 -1088
2018-07-22 19:56:10 GMT 50.381020 3.969702 6,100 77 279 -1024
2018-07-22 19:56:07 GMT 50.380005 3.962956 6,200 77 281 -1088
2018-07-22 19:56:03 GMT 50.378815 3.954861 6,250 77 281 -1088
2018-07-22 19:55:59 GMT 50.377762 3.947489 6,300 76 283 -1024
2018-07-22 19:55:56 GMT 50.376877 3.941642 6,350 76 283 -1088
2018-07-22 19:55:53 GMT 50.375946 3.935332 6,425 76 284 -1344
2018-07-22 19:55:48 GMT 50.374466 3.925299 6,525 76 284 -1280
2018-07-22 19:55:44 GMT 50.373093 3.916120 6,625 77 285 -1152
2018-07-22 19:55:41 GMT 50.372360 3.911356 6,675 77 285 -1152
2018-07-22 19:55:38 GMT 50.371475 3.905120 6,750 77 285 -1792
2018-07-22 19:55:35 GMT 50.370312 3.897103 6,875 77 286 -1792
2018-07-22 19:55:32 GMT 50.369614 3.892352 7,000 77 286 -1920
2018-07-22 19:55:29 GMT 50.368744 3.886269 7,050 77 286 -1856
2018-07-22 19:55:26 GMT 50.367874 3.880414 7,175 77 286 -1792
2018-07-22 19:55:22 GMT 50.366501 3.871018 7,300 77 287 -1728
2018-07-22 19:55:19 GMT 50.365612 3.864738 7,350 77 288 -1792
2018-07-22 19:55:15 GMT 50.364624 3.857864 7,475 77 288 -1856
2018-07-22 19:55:11 GMT 50.363617 3.850347 7,575 77 289 -1856
2018-07-22 19:55:08 GMT 50.362747 3.844058 7,675 77 289 -1856
2018-07-22 19:55:03 GMT 50.361469 3.834674 7,825 78 290 -1920
2018-07-22 19:55:00 GMT 50.360630 3.828438 7,950 78 290 -2048
2018-07-22 19:54:54 GMT 50.358955 3.815819 8,175 78 291 -1792
2018-07-22 19:54:50 GMT 50.357742 3.806688 8,375 78 293 -1792
2018-07-22 19:54:44 GMT 50.356201 3.795126 8,425 78 293 -1792
2018-07-22 19:54:40 GMT 50.354717 3.783825 8,575 78 293 -1792
2018-07-22 19:54:33 GMT 50.353226 3.772286 8,750 78 297 -1472
2018-07-22 19:54:29 GMT 50.351715 3.761155 8,850 78 298 -1664
2018-07-22 19:54:20 GMT 50.349503 3.745373 9,075 77 300 -1792
2018-07-22 19:54:17 GMT 50.348236 3.736580 9,150 76 304 -896
2018-07-22 19:54:12 GMT 50.346817 3.727690 9,200 75 307 -768
2018-07-22 19:54:08 GMT 50.345444 3.719667 9,250 74 312 -832
2018-07-22 19:54:05 GMT 50.344254 3.712873 9,300 73 314 -832
2018-07-22 19:54:02 GMT 50.342926 3.706007 9,350 69 318 -896
2018-07-22 19:53:58 GMT 50.340706 3.696825 9,475 46 337 -832
2018-07-22 19:53:55 GMT 50.338669 3.690322 9,450 57 325 -896
2018-07-22 19:53:52 GMT 50.336235 3.684057 9,500 55 326 -832
2018-07-22 19:53:48 GMT 50.332699 3.676560 9,550 50 330 -768
2018-07-22 19:53:44 GMT 50.327774 3.667843 9,600 47 334 -768
2018-07-22 19:53:41 GMT 50.325344 3.663792 10,875 46 340 -768
2018-07-22 19:53:37 GMT 50.320587 3.655918 9,700 46 345 -768
2018-07-22 19:53:29 GMT 50.312943 3.643269 9,775 46 355 -640
2018-07-22 19:53:22 GMT 50.303467 3.627657 9,850 46 376 -1664
2018-07-22 19:53:18 GMT 50.298763 3.619847 9,925 46 377 -1856
2018-07-22 19:53:15 GMT 50.295227 3.613996 10,000 46 376 -1664
2018-07-22 19:53:11 GMT 50.291016 3.606985 10,125 46 379 -2816
2018-07-22 19:53:05 GMT 50.284241 3.595782 10,400 46 381 -3776
2018-07-22 19:52:59 GMT 50.276596 3.582989 10,800 46 382 -3712
2018-07-22 19:52:54 GMT 50.271149 3.573954 11,375 46 387 -3776
2018-07-22 19:52:49 GMT 50.264786 3.563401 11,625 46 386 -3776
2018-07-22 19:52:43 GMT 50.257919 3.551981 12,575 46 389 -3712
2018-07-22 19:52:39 GMT 50.252472 3.542874 12,750 46 389 -3648
2018-07-22 19:52:36 GMT 50.249416 3.537820 12,750 46 389 -3648
2018-07-22 19:52:31 GMT 50.242722 3.526900 13,450 46 391 -4288
2018-07-22 19:52:28 GMT 50.238693 3.520395 12,825 45 391 -4288
2018-07-22 19:52:22 GMT 50.231552 3.508831 13,450 45 411 -3456
2018-07-22 19:52:17 GMT 50.224323 3.497215 13,900 46 392 -4224
2018-07-22 19:52:12 GMT 50.218781 3.488087 14,250 46 406 -1664
2018-07-22 19:52:09 GMT 50.215481 3.482740 14,250 46 406 -1664
2018-07-22 19:52:06 GMT 50.210033 3.473758 14,225 46 402 -1728
2018-07-22 19:52:01 GMT 50.205425 3.466261 14,425 45 410 -2816
2018-07-22 19:51:55 GMT 50.195847 3.450863 15,075 46 420 -4160
2018-07-22 19:51:50 GMT 50.190353 3.442262 14,925 44 413 -4160
2018-07-22 19:51:44 GMT 50.180786 3.427373 16,225 46 426 -4480
2018-07-22 19:51:40 GMT 50.176117 3.419856 15,675 46 417 -3904
2018-07-22 19:51:32 GMT 50.165451 3.402365 16,225 46 418 -4480
2018-07-22 19:51:29 GMT 50.162521 3.397522 16,400 46 418 -4544
2018-07-22 19:51:23 GMT 50.153732 3.383066 16,875 46 421 -3648
2018-07-22 19:51:19 GMT 50.148769 3.374955 17,075 46 424 -3456
2018-07-22 19:51:12 GMT 50.139088 3.359070 17,425 46 425 -3776
2018-07-22 19:51:09 GMT 50.135456 3.353057 17,775 46 426 -4544
2018-07-22 19:51:03 GMT 50.126518 3.338508 18,325 46 440 -4160
2018-07-22 19:50:59 GMT 50.121349 3.330119 18,550 46 428 -4416
2018-07-22 19:50:55 GMT 50.114925 3.319578 18,850 46 430 -4160
2018-07-22 19:50:52 GMT 50.112762 3.316064 18,975 46 431 -4416
2018-07-22 19:50:49 GMT 50.107388 3.307330 19,450 46 431 -4544
2018-07-22 19:50:46 GMT 50.104065 3.301898 19,450 46 431 -4544
2018-07-22 19:50:43 GMT 50.100174 3.295609 21,000 46 440 -4160
2018-07-22 19:50:40 GMT 50.095917 3.288671 20,275 46 437 -4352
2018-07-22 19:50:37 GMT 50.090767 3.280310 20,125 46 437 -4096
2018-07-22 19:50:32 GMT 50.085228 3.271402 21,050 46 454 -3712
2018-07-22 19:50:27 GMT 50.077873 3.259376 20,775 46 439 -4416
2018-07-22 19:50:24 GMT 50.073914 3.252918 21,075 46 444 -3840
2018-07-22 19:50:21 GMT 50.068188 3.243639 21,250 46 442 -3968
2018-07-22 19:50:18 GMT 50.064651 3.237849 21,525 46 444 -3840
2018-07-22 19:50:14 GMT 50.059250 3.229015 21,825 46 445 -4032
2018-07-22 19:50:10 GMT 50.053524 3.219588 21,950 46 446 -4224
2018-07-22 19:50:06 GMT 50.047707 3.210086 22,500 46 450 -3840
2018-07-22 19:50:03 GMT 50.041946 3.200563 22,500 46 450 -3840
2018-07-22 19:50:00 GMT 50.039108 3.195865 23,075 46 453 0
2018-07-22 19:49:55 GMT 50.031647 3.183586 22,950 46 456 -3392
2018-07-22 19:49:52 GMT 50.027115 3.176133 23,125 46 462 -4288
2018-07-22 19:49:49 GMT 50.021172 3.166438 23,375 46 461 -3712
2018-07-22 19:49:45 GMT 50.017166 3.159831 23,575 46 463 -4480
2018-07-22 19:49:42 GMT 50.012745 3.152557 24,300 46 457 -7040
2018-07-22 19:49:39 GMT 50.006744 3.142668 24,300 46 457 -7040
2018-07-22 19:49:36 GMT 50.004318 3.138675 24,650 46 456 -6784
2018-07-22 19:49:32 GMT 49.995712 3.124598 25,400 46 454 -6400
2018-07-22 19:49:28 GMT 49.991913 3.118383 25,400 46 454 -5824
2018-07-22 19:49:24 GMT 49.986603 3.109781 26,800 46 454 -5376
2018-07-22 19:49:20 GMT 49.980392 3.099629 26,150 46 453 -5632
2018-07-22 19:49:16 GMT 49.974792 3.090411 26,800 46 451 -6016
2018-07-22 19:49:13 GMT 49.971634 3.085207 26,750 46 450 -5760
2018-07-22 19:49:09 GMT 49.964283 3.073128 27,250 46 449 -5440
2018-07-22 19:49:05 GMT 49.959351 3.065037 27,800 46 448 -5696
2018-07-22 19:49:00 GMT 49.952694 3.054051 28,050 46 444 -6592
2018-07-22 19:48:57 GMT 49.946918 3.044475 28,425 46 442 -6528
2018-07-22 19:48:53 GMT 49.941879 3.036057 28,825 46 439 -6272
2018-07-22 19:48:50 GMT 49.937798 3.029406 29,125 46 439 -6208
2018-07-22 19:48:45 GMT 49.932220 3.020156 29,675 46 436 -5376
2018-07-22 19:48:42 GMT 49.927135 3.011739 32,000 46 422 -3072
2018-07-22 19:48:37 GMT 49.918709 2.997931 30,200 46 437 -3200
2018-07-22 19:48:32 GMT 49.913177 2.988932 30,700 46 435 -4160
2018-07-22 19:48:26 GMT 49.905167 2.975849 31,175 46 432 -4224
2018-07-22 19:48:22 GMT 49.897995 2.964082 31,175 46 432 -4224
2018-07-22 19:48:19 GMT 49.896011 2.960888 31,475 46 425 -1088
2018-07-22 19:48:14 GMT 49.887939 2.947751 31,675 46 427 -4032
2018-07-22 19:48:11 GMT 49.884476 2.942095 31,850 46 425 -3968
2018-07-22 19:48:05 GMT 49.876858 2.929786 32,225 46 425 -3840
2018-07-22 19:48:01 GMT 49.870102 2.918894 32,525 46 423 -3648
2018-07-22 19:47:53 GMT 49.858936 2.900910 33,050 46 422 -3008
2018-07-22 19:47:49 GMT 49.855042 2.894681 33,275 46 425 -1088
2018-07-22 19:47:46 GMT 49.850510 2.887380 33,675 46 424 -1856
2018-07-22 19:47:43 GMT 49.847443 2.882466 33,575 46 425 -1024
2018-07-22 19:47:39 GMT 49.840782 2.871737 33,450 46 425 -1024
2018-07-22 19:47:36 GMT 49.836914 2.865480 33,750 46 425 -1088
2018-07-22 19:47:33 GMT 49.833023 2.859192 33,550 46 425 -1088
2018-07-22 19:47:30 GMT 49.828770 2.852288 33,675 46 425 -1088
2018-07-22 19:47:25 GMT 49.822487 2.842119 33,675 46 425 -448
2018-07-22 19:47:21 GMT 49.815922 2.831503 33,750 46 425 -1152
2018-07-22 19:47:18 GMT 49.811829 2.824860 33,875 46 425 -1088
2018-07-22 19:47:13 GMT 49.804516 2.813020 33,900 46 425 -1024
2018-07-22 19:47:08 GMT 49.799164 2.804334 34,000 46 425 -256
2018-07-22 19:47:05 GMT 49.795254 2.798025 34,000 46 426 -64
2018-07-22 19:47:02 GMT 49.790863 2.791033 34,000 46 426 0
2018-07-22 19:46:59 GMT 49.785324 2.782071 34,000 46 426 0
2018-07-22 19:46:56 GMT 49.781658 2.776126 34,000 46 426 0
2018-07-22 19:46:53 GMT 49.778030 2.770262 34,000 46 425 0
2018-07-22 19:46:50 GMT 49.773926 2.763640 34,000 46 425 0
2018-07-22 19:46:46 GMT 49.768753 2.755328 34,000 46 425 0
2018-07-22 19:46:42 GMT 49.764389 2.748364 34,000 46 425 0
2018-07-22 19:46:39 GMT 49.759781 2.740940 34,000 46 425 0
2018-07-22 19:46:36 GMT 49.755032 2.733369 34,000 46 425 0
2018-07-22 19:46:32 GMT 49.749847 2.724971 34,000 46 425 0
2018-07-22 19:46:28 GMT 49.746235 2.719190 34,000 46 426 0
2018-07-22 19:46:25 GMT 49.740326 2.709792 34,000 46 426 0
2018-07-22 19:46:22 GMT 49.736084 2.702934 34,000 46 426 0
2018-07-22 19:46:19 GMT 49.731491 2.695481 33,975 46 427 0
2018-07-22 19:46:14 GMT 49.724579 2.684495 34,000 46 427 0
2018-07-22 19:46:11 GMT 49.720367 2.677628 33,975 46 426 0
2018-07-22 19:46:08 GMT 49.716766 2.671905 33,975 46 426 0
2018-07-22 19:46:05 GMT 49.712528 2.665150 34,000 46 426 0
2018-07-22 19:46:02 GMT 49.709610 2.660426 33,975 46 426 0
2018-07-22 19:45:59 GMT 49.705536 2.653921 33,975 46 426 0
2018-07-22 19:45:56 GMT 49.700958 2.646549 33,975 46 426 0
2018-07-22 19:45:53 GMT 49.695118 2.637313 34,000 46 426 0
2018-07-22 19:45:49 GMT 49.690975 2.630706 33,975 46 426 0
2018-07-22 19:45:46 GMT 49.687042 2.624431 33,975 46 426 0
2018-07-22 19:45:41 GMT 49.681091 2.614818 33,975 46 427 0
2018-07-22 19:45:37 GMT 49.675369 2.605711 33,975 46 427 0
2018-07-22 19:45:34 GMT 49.671749 2.599974 33,975 46 427 0
2018-07-22 19:45:31 GMT 49.666351 2.591289 33,975 46 427 0
2018-07-22 19:45:27 GMT 49.660904 2.582510 34,000 46 427 0
2018-07-22 19:45:23 GMT 49.654385 2.572137 33,975 46 427 0
2018-07-22 19:45:20 GMT 49.650570 2.565976 33,975 46 427 0
2018-07-22 19:45:17 GMT 49.645981 2.558730 34,000 46 427 0
2018-07-22 19:45:11 GMT 49.640030 2.549190 34,000 46 427 0
2018-07-22 19:45:08 GMT 49.634308 2.540010 34,000 46 427 0
2018-07-22 19:45:05 GMT 49.629822 2.532855 34,000 46 427 0
2018-07-22 19:45:02 GMT 49.626022 2.526783 34,000 46 427 0
2018-07-22 19:44:58 GMT 49.620575 2.518037 34,000 46 427 0
2018-07-22 19:44:54 GMT 49.615173 2.509436 33,975 46 427 0
2018-07-22 19:44:51 GMT 49.611931 2.504289 34,000 46 427 0
2018-07-22 19:44:48 GMT 49.607414 2.497088 33,975 46 427 0
2018-07-22 19:44:44 GMT 49.602573 2.489368 34,000 46 427 0
2018-07-22 19:44:41 GMT 49.597687 2.481609 34,000 45 427 0
2018-07-22 19:44:37 GMT 49.592796 2.473780 34,000 45 427 0
2018-07-22 19:44:33 GMT 49.586243 2.463323 34,000 45 427 0
2018-07-22 19:44:30 GMT 49.584141 2.459972 34,000 45 427 0
2018-07-22 19:44:27 GMT 49.578178 2.450471 33,975 45 427 0
2018-07-22 19:44:24 GMT 49.575531 2.446265 34,000 45 427 0
2018-07-22 19:44:20 GMT 49.568207 2.434628 34,000 45 427 0
2018-07-22 19:44:16 GMT 49.563446 2.427111 34,000 45 427 0
2018-07-22 19:44:12 GMT 49.558674 2.419516 34,000 45 427 0
2018-07-22 19:44:09 GMT 49.554108 2.412222 34,000 45 427 0
2018-07-22 19:44:06 GMT 49.549458 2.404818 34,000 45 427 0
2018-07-22 19:44:03 GMT 49.546059 2.399473 33,975 45 427 0
2018-07-22 19:43:59 GMT 49.540752 2.391011 34,000 45 427 0
2018-07-22 19:43:54 GMT 49.532558 2.377946 34,000 45 427 0
2018-07-22 19:43:51 GMT 49.528976 2.372324 34,000 45 427 0
2018-07-22 19:43:48 GMT 49.524216 2.364735 34,000 45 427 0
2018-07-22 19:43:45 GMT 49.520645 2.359097 34,000 45 427 0
2018-07-22 19:43:41 GMT 49.515701 2.351291 34,000 45 427 0
2018-07-22 19:43:38 GMT 49.511627 2.344858 34,000 45 427 0
2018-07-22 19:43:34 GMT 49.506683 2.336908 34,000 45 427 0
2018-07-22 19:43:31 GMT 49.502472 2.330330 34,000 45 427 0
2018-07-22 19:43:28 GMT 49.498947 2.324722 34,000 45 427 0
2018-07-22 19:43:25 GMT 49.492950 2.315152 34,000 45 427 0
2018-07-22 19:43:20 GMT 49.487228 2.306117 34,000 45 427 0
2018-07-22 19:43:17 GMT 49.483200 2.299757 34,000 45 427 0
2018-07-22 19:43:14 GMT 49.478977 2.293025 34,000 45 427 0
2018-07-22 19:43:11 GMT 49.473862 2.284867 34,000 45 426 0
2018-07-22 19:43:07 GMT 49.469154 2.277436 34,000 45 426 0
2018-07-22 19:43:02 GMT 49.463287 2.268157 34,000 45 426 64
2018-07-22 19:42:59 GMT 49.459099 2.261550 34,000 45 426 0
2018-07-22 19:42:52 GMT 49.448364 2.244608 34,000 45 427 0
2018-07-22 19:42:49 GMT 49.444382 2.238320 34,000 45 426 0
2018-07-22 19:42:45 GMT 49.437653 2.227695 33,975 45 426 64
2018-07-22 19:42:42 GMT 49.434799 2.223173 33,975 45 427 0
2018-07-22 19:42:39 GMT 49.430565 2.216492 33,975 45 427 0
2018-07-22 19:42:36 GMT 49.427856 2.212227 33,975 45 427 0
2018-07-22 19:42:33 GMT 49.421253 2.201819 33,975 45 427 0
2018-07-22 19:42:30 GMT 49.418785 2.197916 33,975 45 427 0
2018-07-22 19:42:25 GMT 49.410233 2.184519 34,000 45 427 0
2018-07-22 19:42:21 GMT 49.404961 2.176233 33,975 45 427 0
2018-07-22 19:42:16 GMT 49.399933 2.168282 33,975 45 427 0
2018-07-22 19:42:13 GMT 49.394253 2.159392 33,975 45 427 0
2018-07-22 19:42:10 GMT 49.389587 2.152123 33,975 45 427 0
2018-07-22 19:42:06 GMT 49.384106 2.143563 34,000 45 427 0
2018-07-22 19:42:01 GMT 49.378601 2.135010 33,975 45 427 0
2018-07-22 19:41:58 GMT 49.372837 2.125999 33,975 45 427 0
2018-07-22 19:41:54 GMT 49.368927 2.119855 33,975 45 427 0
2018-07-22 19:41:50 GMT 49.363266 2.110995 34,000 45 427 0
2018-07-22 19:41:47 GMT 49.357635 2.102192 34,000 45 427 0
2018-07-22 19:41:43 GMT 49.354496 2.097232 34,000 45 427 0
2018-07-22 19:41:40 GMT 49.348957 2.088559 34,000 45 427 64
2018-07-22 19:41:37 GMT 49.345882 2.083788 34,000 45 427 0
2018-07-22 19:41:34 GMT 49.341156 2.076416 34,000 45 426 0
2018-07-22 19:41:31 GMT 49.335457 2.067453 33,975 45 427 0
2018-07-22 19:41:27 GMT 49.332432 2.062755 34,000 45 427 -64
2018-07-22 19:41:24 GMT 49.327587 2.055166 34,000 45 427 0
2018-07-22 19:41:20 GMT 49.321518 2.045640 33,975 45 427 0
2018-07-22 19:41:16 GMT 49.317215 2.038879 34,000 45 427 0
2018-07-22 19:41:12 GMT 49.311493 2.029935 34,000 45 427 0
2018-07-22 19:41:08 GMT 49.305897 2.021123 34,000 45 427 0
2018-07-22 19:41:05 GMT 49.301334 2.013967 34,000 45 427 0
2018-07-22 19:41:01 GMT 49.295929 2.005498 33,975 45 427 0
2018-07-22 19:40:58 GMT 49.290161 1.996476 34,000 45 427 0
2018-07-22 19:40:55 GMT 49.287182 1.991850 33,975 45 427 0
2018-07-22 19:40:52 GMT 49.282791 1.985075 34,000 45 427 0
2018-07-22 19:40:49 GMT 49.278801 1.978768 34,000 45 427 0
2018-07-22 19:40:46 GMT 49.274567 1.972263 34,000 45 427 0
2018-07-22 19:40:43 GMT 49.271622 1.967609 34,000 45 427 0
2018-07-22 19:40:38 GMT 49.261951 1.952531 34,000 45 427 0
2018-07-22 19:40:34 GMT 49.258530 1.947256 34,000 45 427 0
2018-07-22 19:40:31 GMT 49.253899 1.939954 34,000 45 427 0
2018-07-22 19:40:26 GMT 49.247334 1.929691 34,000 45 427 0
2018-07-22 19:40:23 GMT 49.243881 1.924298 34,000 45 427 0
2018-07-22 19:40:18 GMT 49.236069 1.912127 34,000 45 427 0
2018-07-22 19:40:15 GMT 49.230621 1.903670 34,000 45 427 0
2018-07-22 19:40:12 GMT 49.228134 1.899790 34,000 45 427 0
2018-07-22 19:40:07 GMT 49.221817 1.890001 34,000 45 427 0
2018-07-22 19:40:04 GMT 49.217560 1.883381 34,000 45 427 0
2018-07-22 19:39:58 GMT 49.207157 1.867170 34,000 45 426 0
2018-07-22 19:39:54 GMT 49.201721 1.858732 33,975 45 426 0
2018-07-22 19:39:51 GMT 49.199104 1.854666 34,000 45 426 0
2018-07-22 19:39:47 GMT 49.192215 1.844041 33,975 45 426 0
2018-07-22 19:39:43 GMT 49.186798 1.835562 34,000 45 426 0
2018-07-22 19:39:39 GMT 49.182392 1.828718 34,000 45 426 0
2018-07-22 19:39:35 GMT 49.176773 1.820068 34,000 45 426 0
2018-07-22 19:39:32 GMT 49.172333 1.813096 34,000 45 426 0
2018-07-22 19:39:26 GMT 49.164825 1.801476 34,000 45 426 0
2018-07-22 19:39:22 GMT 49.159332 1.793025 33,975 45 427 0
2018-07-22 19:39:19 GMT 49.155437 1.786941 34,000 45 427 0
2018-07-22 19:39:16 GMT 49.149902 1.778306 33,975 45 427 0
2018-07-22 19:39:12 GMT 49.145004 1.770700 34,000 45 427 0
2018-07-22 19:39:09 GMT 49.140427 1.763658 33,975 45 427 0
2018-07-22 19:39:06 GMT 49.137589 1.759221 33,975 45 427 0
2018-07-22 19:39:02 GMT 49.130402 1.748164 34,000 45 427 0
2018-07-22 19:38:58 GMT 49.126236 1.741685 34,000 45 427 0
2018-07-22 19:38:55 GMT 49.121876 1.734900 34,000 45 427 0
2018-07-22 19:38:52 GMT 49.117447 1.728093 34,000 45 427 0
2018-07-22 19:38:49 GMT 49.114845 1.724058 33,975 45 427 0
2018-07-22 19:38:46 GMT 49.108421 1.714084 33,975 45 427 0
2018-07-22 19:38:43 GMT 49.104996 1.708797 33,975 45 427 0
2018-07-22 19:38:40 GMT 49.100273 1.701508 34,000 45 427 0
2018-07-22 19:38:35 GMT 49.094330 1.692317 33,975 45 427 0
2018-07-22 19:38:32 GMT 49.090218 1.685968 34,000 45 427 0
2018-07-22 19:38:28 GMT 49.084625 1.677317 34,000 45 427 0
2018-07-22 19:38:25 GMT 49.079697 1.669705 34,000 45 427 0
2018-07-22 19:38:22 GMT 49.074875 1.662246 34,000 45 427 0
2018-07-22 19:38:18 GMT 49.071396 1.656964 33,975 45 427 0
2018-07-22 19:38:14 GMT 49.065453 1.647732 33,975 45 427 0
2018-07-22 19:38:11 GMT 49.059906 1.639216 33,975 45 427 0
2018-07-22 19:38:07 GMT 49.054279 1.630602 34,000 45 427 0
2018-07-22 19:38:03 GMT 49.050156 1.624286 34,000 45 427 0
2018-07-22 19:38:00 GMT 49.044041 1.614846 34,000 45 427 0
2018-07-22 19:37:57 GMT 49.041851 1.611449 34,000 45 427 0
2018-07-22 19:37:54 GMT 49.037704 1.605060 34,000 45 428 0
2018-07-22 19:37:51 GMT 49.031662 1.595764 33,975 45 428 0
2018-07-22 19:37:48 GMT 49.028957 1.591644 33,975 45 427 0
2018-07-22 19:37:45 GMT 49.024395 1.584561 34,000 45 427 0
2018-07-22 19:37:42 GMT 49.018715 1.575815 34,000 45 427 0
2018-07-22 19:37:39 GMT 49.015228 1.570482 33,975 45 427 0
2018-07-22 19:37:35 GMT 49.009369 1.561467 33,975 45 427 0
2018-07-22 19:37:31 GMT 49.004238 1.553626 33,975 45 427 0
2018-07-22 19:37:27 GMT 48.999985 1.547100 34,000 45 427 0
2018-07-22 19:37:23 GMT 48.994400 1.538508 34,000 45 427 0
2018-07-22 19:37:19 GMT 48.988907 1.530057 34,000 45 427 0
2018-07-22 19:37:16 GMT 48.983849 1.522329 34,000 45 427 0
2018-07-22 19:37:13 GMT 48.980450 1.517053 34,000 45 428 0
2018-07-22 19:37:10 GMT 48.975235 1.509102 34,000 45 428 0
2018-07-22 19:37:06 GMT 48.970440 1.501802 34,000 45 428 0
2018-07-22 19:37:03 GMT 48.966251 1.495369 34,000 45 428 0
2018-07-22 19:36:59 GMT 48.960663 1.486840 34,000 45 427 0
2018-07-22 19:36:56 GMT 48.955536 1.478999 34,000 45 427 0
2018-07-22 19:36:53 GMT 48.951958 1.473541 34,000 45 427 0
2018-07-22 19:36:49 GMT 48.946930 1.465807 34,000 45 427 0
2018-07-22 19:36:46 GMT 48.943268 1.460196 34,000 45 427 0
2018-07-22 19:36:43 GMT 48.937435 1.451279 34,000 45 427 0
2018-07-22 19:36:40 GMT 48.934937 1.447449 34,000 45 427 0
2018-07-22 19:36:37 GMT 48.930080 1.440004 34,000 45 427 0
2018-07-22 19:36:32 GMT 48.923515 1.429957 34,000 45 427 0
2018-07-22 19:36:28 GMT 48.917091 1.420127 34,000 45 427 0
2018-07-22 19:36:22 GMT 48.908798 1.407447 33,975 45 427 0
2018-07-22 19:36:19 GMT 48.906013 1.403142 34,000 45 427 0
2018-07-22 19:36:16 GMT 48.902344 1.397588 33,975 45 428 0
2018-07-22 19:36:13 GMT 48.895908 1.387747 33,975 45 427 0
2018-07-22 19:36:10 GMT 48.893234 1.383644 33,975 45 427 0
2018-07-22 19:36:07 GMT 48.887695 1.375122 33,975 45 428 0
2018-07-22 19:36:03 GMT 48.881973 1.366389 33,975 45 427 0
2018-07-22 19:36:00 GMT 48.877151 1.359052 33,975 45 427 0
2018-07-22 19:35:56 GMT 48.872124 1.351463 33,975 45 427 0
2018-07-22 19:35:51 GMT 48.866302 1.342645 33,975 45 427 0
2018-07-22 19:35:47 GMT 48.861416 1.335128 34,000 45 427 0
2018-07-22 19:35:44 GMT 48.856388 1.327539 34,000 45 427 0
2018-07-22 19:35:41 GMT 48.852036 1.320965 34,000 45 427 0
2018-07-22 19:35:36 GMT 48.845123 1.310409 34,000 45 427 0
2018-07-22 19:35:32 GMT 48.839447 1.301809 34,000 45 427 0
2018-07-22 19:35:29 GMT 48.835602 1.295964 34,000 45 427 0
2018-07-22 19:35:25 GMT 48.829285 1.286316 34,000 45 427 0
2018-07-22 19:35:22 GMT 48.824799 1.279555 34,000 45 427 0
2018-07-22 19:35:19 GMT 48.821365 1.274344 33,975 45 428 0
2018-07-22 19:35:12 GMT 48.810719 1.258151 34,000 45 427 0
2018-07-22 19:35:08 GMT 48.806076 1.251103 33,975 45 427 0
2018-07-22 19:35:03 GMT 48.799118 1.240540 33,975 45 427 0
2018-07-22 19:34:59 GMT 48.794220 1.233074 34,000 45 428 0
2018-07-22 19:34:55 GMT 48.788654 1.224686 33,975 45 428 0
2018-07-22 19:34:50 GMT 48.779388 1.210592 34,000 45 428 0
2018-07-22 19:34:47 GMT 48.777435 1.207629 34,000 45 428 0
2018-07-22 19:34:44 GMT 48.772079 1.199606 34,000 45 428 0
2018-07-22 19:34:40 GMT 48.767761 1.193003 34,000 44 427 0
2018-07-22 19:34:37 GMT 48.763687 1.186946 34,000 44 427 0
2018-07-22 19:34:34 GMT 48.759232 1.180163 34,000 44 427 0
2018-07-22 19:34:31 GMT 48.754810 1.173513 34,000 44 427 0
2018-07-22 19:34:28 GMT 48.748627 1.164128 34,000 44 427 0
2018-07-22 19:34:24 GMT 48.744507 1.157931 33,975 44 427 0
2018-07-22 19:34:19 GMT 48.737549 1.147437 33,975 45 427 0
2018-07-22 19:34:16 GMT 48.731861 1.138964 33,975 44 427 0
2018-07-22 19:34:13 GMT 48.729721 1.135676 33,975 44 427 0
2018-07-22 19:34:10 GMT 48.723434 1.126171 34,000 44 427 0
2018-07-22 19:34:07 GMT 48.720886 1.122366 34,000 44 427 0
2018-07-22 19:34:03 GMT 48.715668 1.114478 34,000 44 427 0
2018-07-22 19:33:59 GMT 48.709049 1.104487 34,000 44 427 0
2018-07-22 19:33:56 GMT 48.704163 1.097115 34,000 45 427 0
2018-07-22 19:33:51 GMT 48.698410 1.088492 34,000 45 427 0
2018-07-22 19:33:48 GMT 48.694061 1.081942 34,000 45 427 0
2018-07-22 19:33:45 GMT 48.690010 1.075793 34,000 45 427 0
2018-07-22 19:33:40 GMT 48.683258 1.065603 34,000 45 427 0
2018-07-22 19:33:36 GMT 48.676414 1.055338 34,000 45 427 0
2018-07-22 19:33:33 GMT 48.673599 1.051096 34,000 45 427 0
2018-07-22 19:33:29 GMT 48.667236 1.041518 34,000 45 427 0
2018-07-22 19:33:26 GMT 48.662125 1.033871 34,000 45 427 0
2018-07-22 19:33:22 GMT 48.657562 1.026933 34,000 45 427 0
2018-07-22 19:33:19 GMT 48.653458 1.020813 34,000 45 427 0
2018-07-22 19:33:14 GMT 48.645786 1.009152 34,000 44 427 0
2018-07-22 19:33:06 GMT 48.634937 0.992889 34,000 44 427 0
2018-07-22 19:33:02 GMT 48.630192 0.985806 34,000 44 427 0
2018-07-22 19:32:57 GMT 48.621902 0.973374 34,000 44 427 0
2018-07-22 19:32:54 GMT 48.619034 0.969050 34,000 45 427 0
2018-07-22 19:32:50 GMT 48.613384 0.960509 34,000 45 427 0
2018-07-22 19:32:45 GMT 48.606819 0.950679 34,000 44 427 -960
2018-07-22 19:32:42 GMT 48.602165 0.943668 34,000 45 427 0
2018-07-22 19:32:39 GMT 48.596924 0.935739 34,000 44 427 0
2018-07-22 19:32:35 GMT 48.591339 0.927359 34,000 44 427 0
2018-07-22 19:32:32 GMT 48.586246 0.919671 34,000 44 427 0
2018-07-22 19:32:27 GMT 48.581314 0.912288 33,975 44 427 64
2018-07-22 19:32:23 GMT 48.574997 0.902851 33,975 44 427 64
2018-07-22 19:32:20 GMT 48.570465 0.896109 33,975 44 427 64
2018-07-22 19:32:17 GMT 48.567623 0.891844 33,975 44 427 64
2018-07-22 19:32:14 GMT 48.562363 0.883977 33,975 44 427 0
2018-07-22 19:32:11 GMT 48.558872 0.878689 34,000 44 427 -960
2018-07-22 19:32:08 GMT 48.554729 0.872546 33,975 44 427 -960
2018-07-22 19:32:03 GMT 48.546490 0.860186 33,975 44 427 -960
2018-07-22 19:32:00 GMT 48.543961 0.856441 33,975 44 428 64
2018-07-22 19:31:57 GMT 48.538761 0.848694 33,975 44 428 64
2018-07-22 19:31:54 GMT 48.532791 0.839750 33,975 44 428 64
2018-07-22 19:31:51 GMT 48.530663 0.836551 33,975 44 428 64
2018-07-22 19:31:48 GMT 48.526291 0.829961 33,975 44 428 64
2018-07-22 19:31:44 GMT 48.521675 0.823035 34,050 44 427 -960
2018-07-22 19:31:40 GMT 48.514507 0.812265 34,025 44 427 -896
2018-07-22 19:31:36 GMT 48.507710 0.802074 34,075 44 427 -960
2018-07-22 19:31:33 GMT 48.506058 0.799678 34,175 44 427 -960
2018-07-22 19:31:28 GMT 48.498779 0.788692 34,175 44 427 -960
2018-07-22 19:31:23 GMT 48.491501 0.777776 34,275 44 427 -960
2018-07-22 19:31:20 GMT 48.485504 0.768826 34,325 44 427 -960
2018-07-22 19:31:15 GMT 48.478409 0.758197 34,400 44 427 -960
2018-07-22 19:31:12 GMT 48.475868 0.754443 34,475 44 426 -960
2018-07-22 19:31:09 GMT 48.471497 0.747845 34,550 44 426 -960
2018-07-22 19:31:04 GMT 48.463673 0.736156 34,575 44 426 -960
2018-07-22 19:30:59 GMT 48.456436 0.725379 35,100 42 424 -896
2018-07-22 19:30:53 GMT 48.449429 0.714979 34,850 41 424 -960
2018-07-22 19:30:50 GMT 48.443939 0.706787 34,800 44 425 -960
2018-07-22 19:30:47 GMT 48.441376 0.702980 34,825 44 425 -960
2018-07-22 19:30:43 GMT 48.435276 0.694018 34,925 43 425 -960
2018-07-22 19:30:38 GMT 48.428329 0.683758 34,975 44 425 -960
2018-07-22 19:30:34 GMT 48.422058 0.674462 35,275 43 425 -960
2018-07-22 19:30:29 GMT 48.414700 0.663661 35,125 44 425 -960
2018-07-22 19:30:26 GMT 48.411163 0.658405 35,200 44 425 -960
2018-07-22 19:30:23 GMT 48.407684 0.653334 35,300 44 425 -960
2018-07-22 19:30:19 GMT 48.401897 0.644869 35,275 42 425 -960
2018-07-22 19:30:14 GMT 48.394917 0.635183 35,350 41 424 -960
2018-07-22 19:30:11 GMT 48.389236 0.627488 35,425 41 424 -1024
2018-07-22 19:30:08 GMT 48.386490 0.623836 35,500 41 424 -1024
2018-07-22 19:30:04 GMT 48.379852 0.614953 35,525 41 424 -1024
2018-07-22 19:29:59 GMT 48.372757 0.605375 35,625 42 424 -1024
2018-07-22 19:29:56 GMT 48.366440 0.596783 35,675 42 423 -1088
2018-07-22 19:29:53 GMT 48.363865 0.593262 35,750 42 423 -1088
2018-07-22 19:29:45 GMT 48.350784 0.575374 35,900 42 424 -960
2018-07-22 19:29:42 GMT 48.347809 0.571289 35,900 42 425 -832
2018-07-22 19:29:37 GMT 48.340122 0.560447 35,975 43 425 -320
2018-07-22 19:29:34 GMT 48.337006 0.556111 35,975 44 425 0
2018-07-22 19:29:31 GMT 48.332886 0.550091 36,000 44 425 0
2018-07-22 19:29:25 GMT 48.324619 0.538041 36,000 44 425 0
2018-07-22 19:29:22 GMT 48.318832 0.529527 36,000 44 425 0
2018-07-22 19:29:19 GMT 48.316334 0.525826 36,000 44 425 0
2018-07-22 19:29:13 GMT 48.306656 0.511639 35,975 44 426 0
2018-07-22 19:29:10 GMT 48.303066 0.506383 35,975 44 426 0
2018-07-22 19:29:04 GMT 48.293655 0.492483 35,975 44 425 0
2018-07-22 19:29:00 GMT 48.286972 0.482694 36,000 44 425 0
2018-07-22 19:28:57 GMT 48.283051 0.476893 36,000 44 425 0
2018-07-22 19:28:51 GMT 48.275414 0.465690 36,000 44 425 0
2018-07-22 19:28:47 GMT 48.270947 0.459113 35,975 44 425 0
2018-07-22 19:28:44 GMT 48.265869 0.451637 35,975 44 426 0
2018-07-22 19:28:40 GMT 48.260422 0.443679 35,975 44 426 0
2018-07-22 19:28:37 GMT 48.255295 0.436214 35,975 44 426 0
2018-07-22 19:28:33 GMT 48.250488 0.429101 35,975 44 426 0
2018-07-22 19:28:30 GMT 48.245808 0.422323 35,975 44 426 0
2018-07-22 19:28:26 GMT 48.239731 0.413396 35,975 44 425 0
2018-07-22 19:28:21 GMT 48.232544 0.402902 35,975 44 425 0
2018-07-22 19:28:18 GMT 48.229660 0.398607 35,975 44 425 0
2018-07-22 19:28:13 GMT 48.223137 0.389003 35,975 44 425 0
2018-07-22 19:28:10 GMT 48.217552 0.380835 36,000 44 425 0
2018-07-22 19:28:05 GMT 48.211716 0.372268 35,975 44 425 0
2018-07-22 19:28:02 GMT 48.207367 0.365859 36,000 44 425 0
2018-07-22 19:27:57 GMT 48.198418 0.352719 36,000 44 425 0
2018-07-22 19:27:51 GMT 48.192307 0.343816 36,000 44 425 0
2018-07-22 19:27:47 GMT 48.185196 0.333421 35,975 44 425 0
2018-07-22 19:27:44 GMT 48.180916 0.327132 35,975 44 425 0
2018-07-22 19:27:41 GMT 48.178169 0.323085 35,975 44 425 0
2018-07-22 19:27:38 GMT 48.173904 0.316843 36,000 44 425 0
2018-07-22 19:27:34 GMT 48.168228 0.308603 35,975 44 425 0
2018-07-22 19:27:29 GMT 48.161682 0.299096 36,000 44 425 0
2018-07-22 19:27:26 GMT 48.155777 0.290504 36,000 44 425 0
2018-07-22 19:27:23 GMT 48.152237 0.285363 36,000 44 424 0
2018-07-22 19:27:19 GMT 48.145813 0.275996 36,000 44 424 0
2018-07-22 19:27:15 GMT 48.141346 0.269517 36,000 44 424 0
2018-07-22 19:27:12 GMT 48.137295 0.263601 36,000 44 424 0
2018-07-22 19:27:08 GMT 48.131332 0.254951 36,000 44 424 0
2018-07-22 19:27:04 GMT 48.124603 0.245132 35,975 44 423 0
2018-07-22 19:27:01 GMT 48.120575 0.239296 35,975 44 424 0
2018-07-22 19:26:57 GMT 48.115463 0.231840 35,975 44 424 0
2018-07-22 19:26:54 GMT 48.112717 0.227896 35,975 44 424 0
2018-07-22 19:26:51 GMT 48.107361 0.220079 36,000 44 423 0
2018-07-22 19:26:48 GMT 48.103271 0.214165 35,975 44 423 0
2018-07-22 19:26:45 GMT 48.099869 0.209233 36,000 44 424 0
2018-07-22 19:26:41 GMT 48.093723 0.200360 36,000 44 423 0
2018-07-22 19:26:38 GMT 48.089581 0.194303 36,000 44 423 0
2018-07-22 19:26:35 GMT 48.083679 0.185738 36,000 44 424 0
2018-07-22 19:26:32 GMT 48.079651 0.179832 36,000 44 424 0
2018-07-22 19:26:29 GMT 48.076218 0.174820 36,000 44 423 0
2018-07-22 19:26:26 GMT 48.072006 0.168709 36,000 44 423 -64
2018-07-22 19:26:23 GMT 48.067337 0.161911 36,000 44 423 -64
2018-07-22 19:26:20 GMT 48.063995 0.157036 36,000 44 423 -64
2018-07-22 19:26:17 GMT 48.058090 0.148384 36,000 44 423 0
2018-07-22 19:26:14 GMT 48.055481 0.144608 36,000 44 423 0
2018-07-22 19:26:11 GMT 48.050476 0.137329 36,000 44 422 0
2018-07-22 19:26:08 GMT 48.047215 0.132540 36,000 44 422 0
2018-07-22 19:26:05 GMT 48.043167 0.126686 36,000 44 422 0
2018-07-22 19:26:02 GMT 48.037491 0.118446 36,000 44 422 0
2018-07-22 19:25:59 GMT 48.034836 0.114601 36,025 44 420 0
2018-07-22 19:25:55 GMT 48.027760 0.104300 36,000 44 422 0
2018-07-22 19:25:50 GMT 48.020912 0.094370 36,025 43 416 0
2018-07-22 19:25:46 GMT 48.016159 0.087547 36,000 44 422 0
2018-07-22 19:25:43 GMT 48.013142 0.083102 36,000 44 422 -64
2018-07-22 19:25:39 GMT 48.005997 0.072853 36,025 44 421 0
2018-07-22 19:25:36 GMT 48.002712 0.068101 36,025 44 420 0
2018-07-22 19:25:33 GMT 47.999081 0.062819 36,025 44 420 0
2018-07-22 19:25:29 GMT 47.991028 0.051199 36,000 44 408 0
2018-07-22 19:25:26 GMT 47.988190 0.047185 36,000 43 417 0
2018-07-22 19:25:23 GMT 47.984619 0.042023 36,000 43 416 0
2018-07-22 19:25:17 GMT 47.974182 0.027122 36,000 43 413 0
2018-07-22 19:25:14 GMT 47.972031 0.024033 36,025 43 410 0
2018-07-22 19:25:11 GMT 47.966915 0.016620 36,000 44 411 0
2018-07-22 19:25:06 GMT 47.961281 0.008592 36,000 43 410 0
2018-07-22 19:25:03 GMT 47.955879 0.000845 36,000 44 410 0
2018-07-22 19:24:59 GMT 47.951878 -0.004930 36,000 44 408 0
2018-07-22 19:24:55 GMT 47.946762 -0.012291 36,000 44 408 0
2018-07-22 19:24:52 GMT 47.941910 -0.019295 36,000 44 405 0
2018-07-22 19:24:46 GMT 47.934036 -0.030693 36,000 44 404 64
2018-07-22 19:24:43 GMT 47.928974 -0.037959 36,000 44 403 0
2018-07-22 19:24:39 GMT 47.923946 -0.045283 36,000 44 403 0
2018-07-22 19:24:34 GMT 47.918079 -0.053734 36,000 44 403 0
2018-07-22 19:24:31 GMT 47.914169 -0.059395 36,000 44 403 0
2018-07-22 19:24:28 GMT 47.909142 -0.066763 36,000 44 403 0
2018-07-22 19:24:24 GMT 47.903229 -0.075214 36,000 44 403 0
2018-07-22 19:24:20 GMT 47.899979 -0.079926 36,000 44 403 0
2018-07-22 19:24:13 GMT 47.889587 -0.094963 36,000 38 401 0
2018-07-22 19:24:10 GMT 47.885651 -0.100662 36,000 44 403 0
2018-07-22 19:24:03 GMT 47.876278 -0.114018 36,000 38 401 0
2018-07-22 19:24:00 GMT 47.870644 -0.121554 36,000 39 401 0
2018-07-22 19:23:53 GMT 47.861565 -0.132751 36,000 38 401 0
2018-07-22 19:23:49 GMT 47.856770 -0.138385 36,000 38 401 0
2018-07-22 19:23:45 GMT 47.851463 -0.144442 36,000 38 401 0
2018-07-22 19:23:42 GMT 47.846329 -0.150513 36,000 38 401 0
2018-07-22 19:23:38 GMT 47.841293 -0.156349 36,000 38 401 0
2018-07-22 19:23:34 GMT 47.834198 -0.164589 36,000 38 401 0
2018-07-22 19:23:31 GMT 47.830490 -0.168846 36,000 38 401 0
2018-07-22 19:23:27 GMT 47.824093 -0.176345 36,000 38 401 0
2018-07-22 19:23:23 GMT 47.817806 -0.183598 36,000 38 401 0
2018-07-22 19:23:19 GMT 47.811813 -0.190613 36,000 38 401 0
2018-07-22 19:23:16 GMT 47.808655 -0.194252 36,000 38 401 0
2018-07-22 19:23:12 GMT 47.802864 -0.200993 36,000 38 401 0
2018-07-22 19:23:09 GMT 47.796906 -0.207895 36,000 38 401 0
2018-07-22 19:23:06 GMT 47.793777 -0.211555 36,000 37 401 0
2018-07-22 19:23:03 GMT 47.788834 -0.217255 36,000 38 401 0
2018-07-22 19:23:00 GMT 47.784027 -0.222885 36,000 38 401 0
2018-07-22 19:22:55 GMT 47.777588 -0.230361 36,000 37 401 0
2018-07-22 19:22:52 GMT 47.773087 -0.235519 36,000 37 401 0
2018-07-22 19:22:46 GMT 47.765247 -0.244587 36,000 37 401 0
2018-07-22 19:22:43 GMT 47.760223 -0.250351 36,000 37 401 0
2018-07-22 19:22:38 GMT 47.753220 -0.258453 36,000 37 401 0
2018-07-22 19:22:35 GMT 47.748119 -0.264376 36,000 37 402 0
2018-07-22 19:22:32 GMT 47.743603 -0.269588 36,000 37 401 0
2018-07-22 19:22:28 GMT 47.737793 -0.276237 36,000 37 402 0
2018-07-22 19:22:25 GMT 47.733456 -0.281208 36,000 37 402 0
2018-07-22 19:22:22 GMT 47.727264 -0.288321 36,000 37 402 0
2018-07-22 19:22:18 GMT 47.724060 -0.292030 36,000 37 402 0
2018-07-22 19:22:15 GMT 47.718201 -0.298691 36,000 37 402 0
2018-07-22 19:22:12 GMT 47.714600 -0.302828 36,000 37 402 0
2018-07-22 19:22:09 GMT 47.709503 -0.308647 36,000 37 402 0
2018-07-22 19:22:04 GMT 47.702545 -0.316632 36,000 37 402 0
2018-07-22 19:21:59 GMT 47.694992 -0.325264 38,000 37 403 0
2018-07-22 19:21:53 GMT 47.687439 -0.333916 36,000 37 402 0
2018-07-22 19:21:49 GMT 47.681686 -0.340506 36,000 37 402 0
2018-07-22 19:21:46 GMT 47.675171 -0.347992 36,000 37 402 0
2018-07-22 19:21:43 GMT 47.672333 -0.351288 36,000 37 402 0
2018-07-22 19:21:39 GMT 47.666279 -0.358253 36,000 37 402 0
2018-07-22 19:21:36 GMT 47.659790 -0.365707 36,000 37 402 0
2018-07-22 19:21:33 GMT 47.657135 -0.368797 36,000 37 402 0
2018-07-22 19:21:30 GMT 47.652546 -0.374028 36,000 37 402 0
2018-07-22 19:21:27 GMT 47.647705 -0.379578 36,000 37 402 0
2018-07-22 19:21:24 GMT 47.643097 -0.384874 36,000 37 402 0
2018-07-22 19:21:21 GMT 47.640060 -0.388435 36,000 37 402 0
2018-07-22 19:21:18 GMT 47.634384 -0.394958 36,000 37 402 0
2018-07-22 19:21:15 GMT 47.630806 -0.399029 36,000 37 402 0
2018-07-22 19:21:12 GMT 47.627106 -0.403336 36,000 37 403 0
2018-07-22 19:21:09 GMT 47.622894 -0.408184 36,000 37 403 0
2018-07-22 19:21:05 GMT 47.616001 -0.416072 36,000 37 402 0
2018-07-22 19:21:02 GMT 47.611160 -0.421636 36,000 37 403 0
2018-07-22 19:20:59 GMT 47.608383 -0.424828 36,000 37 403 0
2018-07-22 19:20:55 GMT 47.601852 -0.432340 36,000 37 403 0
2018-07-22 19:20:52 GMT 47.597351 -0.437462 36,000 37 403 0
2018-07-22 19:20:49 GMT 47.592632 -0.442904 36,000 37 404 0
2018-07-22 19:20:44 GMT 47.585312 -0.451332 36,000 37 404 0
2018-07-22 19:20:41 GMT 47.580460 -0.456894 36,000 37 403 0
2018-07-22 19:20:38 GMT 47.576900 -0.461003 36,000 37 403 0
2018-07-22 19:20:35 GMT 47.571671 -0.466988 36,000 37 404 0
2018-07-22 19:20:32 GMT 47.566452 -0.472961 36,000 37 404 0
2018-07-22 19:20:29 GMT 47.564053 -0.475722 36,000 37 403 0
2018-07-22 19:20:25 GMT 47.556931 -0.483948 36,000 37 404 0
2018-07-22 19:20:21 GMT 47.549881 -0.491982 36,000 37 403 0
2018-07-22 19:20:17 GMT 47.545761 -0.496719 36,000 37 403 0
2018-07-22 19:20:14 GMT 47.540730 -0.502484 36,000 37 404 0
2018-07-22 19:20:10 GMT 47.535236 -0.508752 36,000 37 403 0
2018-07-22 19:20:07 GMT 47.531342 -0.513199 36,000 37 404 0
2018-07-22 19:20:03 GMT 47.525131 -0.520301 36,000 37 403 0
2018-07-22 19:20:00 GMT 47.520630 -0.525421 36,000 37 404 0
2018-07-22 19:19:57 GMT 47.516556 -0.530022 36,000 37 404 0
2018-07-22 19:19:50 GMT 47.505066 -0.543137 36,000 37 404 0
2018-07-22 19:19:47 GMT 47.502228 -0.546364 36,000 37 404 0
2018-07-22 19:19:44 GMT 47.496918 -0.552406 36,000 37 404 0
2018-07-22 19:19:41 GMT 47.492249 -0.557762 36,000 37 404 0
2018-07-22 19:19:37 GMT 47.486588 -0.564176 36,000 37 404 0
2018-07-22 19:19:34 GMT 47.482121 -0.569247 36,000 37 404 0
2018-07-22 19:19:31 GMT 47.477325 -0.574669 36,000 37 404 0
2018-07-22 19:19:28 GMT 47.472763 -0.579881 36,000 37 404 0
2018-07-22 19:19:24 GMT 47.468246 -0.585022 36,000 37 404 0
2018-07-22 19:19:21 GMT 47.461578 -0.592644 36,000 37 404 0
2018-07-22 19:19:18 GMT 47.457214 -0.597558 36,000 37 404 0
2018-07-22 19:19:14 GMT 47.453110 -0.602188 36,000 37 404 0
2018-07-22 19:19:10 GMT 47.445480 -0.610868 36,000 37 404 0
2018-07-22 19:19:06 GMT 47.440781 -0.616291 36,000 37 404 0
2018-07-22 19:19:03 GMT 47.437012 -0.620587 36,000 37 404 0
2018-07-22 19:18:59 GMT 47.429935 -0.628615 36,000 37 404 0
2018-07-22 19:18:55 GMT 47.424671 -0.634601 36,000 37 404 0
2018-07-22 19:18:51 GMT 47.419327 -0.640640 36,000 37 404 0
2018-07-22 19:18:46 GMT 47.411407 -0.649635 36,000 37 405 0
2018-07-22 19:18:43 GMT 47.407242 -0.654373 36,000 37 405 0
2018-07-22 19:18:40 GMT 47.402527 -0.659729 36,000 37 405 0
2018-07-22 19:18:36 GMT 47.397034 -0.665977 36,000 37 405 0
2018-07-22 19:18:33 GMT 47.391586 -0.672089 36,000 37 405 0
2018-07-22 19:18:25 GMT 47.380821 -0.684321 36,000 37 405 0
2018-07-22 19:18:22 GMT 47.376297 -0.689461 36,000 37 404 0
2018-07-22 19:18:15 GMT 47.364994 -0.702209 36,000 37 403 0
2018-07-22 19:18:12 GMT 47.360550 -0.707245 36,000 37 403 0
2018-07-22 19:18:06 GMT 47.350517 -0.718619 36,000 37 403 0
2018-07-22 19:18:02 GMT 47.346313 -0.723381 36,000 37 403 0
2018-07-22 19:17:59 GMT 47.341064 -0.729323 36,000 37 403 0
2018-07-22 19:17:55 GMT 47.335106 -0.736084 36,000 37 403 0
2018-07-22 19:17:51 GMT 47.330612 -0.741096 36,000 37 403 0
2018-07-22 19:17:47 GMT 47.324661 -0.747894 36,000 37 403 0
2018-07-22 19:17:44 GMT 47.319855 -0.753319 36,000 37 403 0
2018-07-22 19:17:41 GMT 47.314545 -0.759293 36,000 37 403 0
2018-07-22 19:17:38 GMT 47.311066 -0.763275 36,000 37 403 0
2018-07-22 19:17:33 GMT 47.303329 -0.771996 36,000 37 403 0
2018-07-22 19:17:30 GMT 47.298798 -0.777145 36,000 37 403 0
2018-07-22 19:17:27 GMT 47.294815 -0.781609 36,000 37 403 0
2018-07-22 19:17:23 GMT 47.288231 -0.789044 36,000 37 403 0
2018-07-22 19:17:19 GMT 47.283199 -0.794748 36,000 37 403 0
2018-07-22 19:17:16 GMT 47.278702 -0.799805 36,000 37 403 0
2018-07-22 19:17:13 GMT 47.271702 -0.807706 36,000 37 403 0
2018-07-22 19:17:09 GMT 47.267654 -0.812284 36,000 37 403 0
2018-07-22 19:17:06 GMT 47.262253 -0.818411 36,000 37 403 0
2018-07-22 19:17:02 GMT 47.257004 -0.824387 36,000 37 403 0
2018-07-22 19:16:59 GMT 47.252563 -0.829399 36,000 37 403 0
2018-07-22 19:16:55 GMT 47.245560 -0.837296 36,000 37 403 0
2018-07-22 19:16:51 GMT 47.241676 -0.841722 36,000 37 403 0
2018-07-22 19:16:48 GMT 47.236542 -0.847527 36,000 37 403 0
2018-07-22 19:16:43 GMT 47.229294 -0.855666 36,000 37 403 0
2018-07-22 19:16:40 GMT 47.225555 -0.859818 36,000 37 403 0
2018-07-22 19:16:36 GMT 47.218681 -0.867568 36,000 37 403 0
2018-07-22 19:16:33 GMT 47.213886 -0.872920 36,000 37 403 0
2018-07-22 19:16:30 GMT 47.210022 -0.877286 36,000 37 403 0
2018-07-22 19:16:26 GMT 47.204041 -0.883987 36,000 37 403 0
2018-07-22 19:16:22 GMT 47.197998 -0.890785 36,000 37 403 0
2018-07-22 19:16:19 GMT 47.193649 -0.895660 36,000 37 403 0
2018-07-22 19:16:14 GMT 47.187103 -0.902939 36,000 37 403 0
2018-07-22 19:16:11 GMT 47.181061 -0.909737 36,000 37 403 0
2018-07-22 19:16:07 GMT 47.175758 -0.915598 36,000 37 403 0
2018-07-22 19:16:04 GMT 47.172318 -0.919487 36,000 37 402 0
2018-07-22 19:15:59 GMT 47.164352 -0.928345 36,000 37 402 0
2018-07-22 19:15:56 GMT 47.160461 -0.932739 36,000 37 403 0
2018-07-22 19:15:53 GMT 47.155602 -0.938204 36,000 37 403 0
2018-07-22 19:15:49 GMT 47.149597 -0.944965 36,000 37 403 0
2018-07-22 19:15:45 GMT 47.143776 -0.951444 36,000 37 403 0
2018-07-22 19:15:42 GMT 47.138626 -0.957253 36,000 37 403 0
2018-07-22 19:15:37 GMT 47.131626 -0.965107 36,000 37 402 0
2018-07-22 19:15:32 GMT 47.124737 -0.972853 36,000 37 402 0
2018-07-22 19:15:29 GMT 47.119080 -0.979156 36,000 37 402 0
2018-07-22 19:15:26 GMT 47.116123 -0.982431 36,000 37 402 0
2018-07-22 19:15:23 GMT 47.111050 -0.988206 36,000 37 402 0
2018-07-22 19:15:20 GMT 47.107361 -0.992340 36,000 37 402 0
2018-07-22 19:15:16 GMT 47.099739 -1.000883 36,000 37 402 0
2018-07-22 19:15:11 GMT 47.093445 -1.007927 36,000 37 402 0
2018-07-22 19:15:07 GMT 47.086166 -1.016167 36,000 37 402 0
2018-07-22 19:15:02 GMT 47.078751 -1.024475 36,000 37 402 0
2018-07-22 19:14:58 GMT 47.074413 -1.029334 36,000 37 402 0
2018-07-22 19:14:53 GMT 47.067432 -1.037152 36,000 37 402 0
2018-07-22 19:14:50 GMT 47.062042 -1.043221 36,000 37 402 0
2018-07-22 19:14:45 GMT 47.055000 -1.051025 36,000 37 402 0
2018-07-22 19:14:42 GMT 47.051285 -1.055168 36,000 37 402 0
2018-07-22 19:14:39 GMT 47.046021 -1.061073 36,000 37 402 0
2018-07-22 19:14:35 GMT 47.040024 -1.067734 36,000 37 402 0
2018-07-22 19:14:32 GMT 47.035961 -1.072294 36,000 37 402 0
2018-07-22 19:14:28 GMT 47.029861 -1.079063 36,000 37 402 0
2018-07-22 19:14:25 GMT 47.025421 -1.084007 36,000 37 401 0
2018-07-22 19:14:21 GMT 47.019562 -1.090530 36,000 37 401 0
2018-07-22 19:14:17 GMT 47.013290 -1.097466 36,000 37 401 0
2018-07-22 19:14:14 GMT 47.009262 -1.101929 36,000 37 401 0
2018-07-22 19:14:11 GMT 47.003330 -1.108492 36,000 37 401 0
2018-07-22 19:14:07 GMT 46.999001 -1.113352 36,000 37 401 0
2018-07-22 19:14:03 GMT 46.991638 -1.121498 36,000 37 401 0
2018-07-22 19:13:59 GMT 46.987175 -1.126451 36,000 37 401 0
2018-07-22 19:13:56 GMT 46.982567 -1.131592 36,000 37 402 0
2018-07-22 19:13:51 GMT 46.975067 -1.139900 36,000 37 402 0
2018-07-22 19:13:48 GMT 46.970627 -1.144844 36,000 37 402 0
2018-07-22 19:13:44 GMT 46.964645 -1.151522 36,000 37 402 0
2018-07-22 19:13:41 GMT 46.961105 -1.155487 36,000 37 402 0
2018-07-22 19:13:35 GMT 46.951748 -1.165889 36,000 37 402 0
2018-07-22 19:13:29 GMT 46.943115 -1.175468 36,000 37 402 0
2018-07-22 19:13:25 GMT 46.936203 -1.183159 36,000 37 402 0
2018-07-22 19:13:20 GMT 46.929264 -1.190819 36,000 37 402 0
2018-07-22 19:13:14 GMT 46.921143 -1.199844 36,000 37 404 0
2018-07-22 19:13:10 GMT 46.914276 -1.207397 36,000 37 403 0
2018-07-22 19:13:03 GMT 46.904663 -1.218040 36,000 37 403 0
2018-07-22 19:12:58 GMT 46.897236 -1.226314 36,000 37 403 0
2018-07-22 19:12:54 GMT 46.888687 -1.235756 36,000 37 403 0
2018-07-22 19:12:46 GMT 46.879593 -1.245821 36,000 37 403 0
2018-07-22 19:12:41 GMT 46.871120 -1.255188 36,000 37 403 0
2018-07-22 19:12:38 GMT 46.867676 -1.258965 36,000 37 402 0
2018-07-22 19:12:35 GMT 46.860855 -1.266509 36,000 37 403 0
2018-07-22 19:12:31 GMT 46.857101 -1.270663 36,000 37 403 0
2018-07-22 19:12:27 GMT 46.850418 -1.278032 36,000 37 404 0
2018-07-22 19:12:23 GMT 46.844212 -1.284920 36,000 37 404 0
2018-07-22 19:12:20 GMT 46.840164 -1.289353 36,000 37 404 0
2018-07-22 19:12:17 GMT 46.835449 -1.294578 36,000 37 404 0
2018-07-22 19:12:14 GMT 46.831055 -1.299401 36,000 37 404 0
2018-07-22 19:12:11 GMT 46.827209 -1.303689 36,000 37 404 0
2018-07-22 19:12:05 GMT 46.817818 -1.314102 36,000 37 404 0
2018-07-22 19:12:02 GMT 46.813522 -1.318828 36,000 37 404 0
2018-07-22 19:11:58 GMT 46.806061 -1.327068 36,000 37 404 0
2018-07-22 19:11:55 GMT 46.803635 -1.329748 36,000 37 404 0
2018-07-22 19:11:52 GMT 46.799335 -1.334496 36,000 37 404 0
2018-07-22 19:11:49 GMT 46.795010 -1.339302 36,000 37 404 0
2018-07-22 19:11:46 GMT 46.789536 -1.345356 36,000 37 404 0
2018-07-22 19:11:41 GMT 46.781693 -1.353928 36,000 37 404 0
2018-07-22 19:11:36 GMT 46.775436 -1.360831 36,000 37 404 0
2018-07-22 19:11:32 GMT 46.769394 -1.367530 36,000 37 404 0
2018-07-22 19:11:29 GMT 46.763863 -1.373566 36,000 37 404 0
2018-07-22 19:11:25 GMT 46.757355 -1.380727 36,000 37 404 0
2018-07-22 19:11:21 GMT 46.753006 -1.385483 36,000 37 404 0
2018-07-22 19:11:18 GMT 46.747383 -1.391693 36,000 37 404 0
2018-07-22 19:11:15 GMT 46.743347 -1.396135 36,000 37 404 0
2018-07-22 19:11:10 GMT 46.736206 -1.403972 36,000 37 404 0
2018-07-22 19:11:05 GMT 46.726501 -1.414557 36,000 37 404 0
2018-07-22 19:11:00 GMT 46.720802 -1.420876 36,000 37 404 0
2018-07-22 19:10:56 GMT 46.714600 -1.427687 36,000 37 404 0
2018-07-22 19:10:51 GMT 46.705399 -1.437735 36,000 37 404 0
2018-07-22 19:10:48 GMT 46.704025 -1.439276 36,000 37 404 0
2018-07-22 19:10:45 GMT 46.699539 -1.444166 36,000 37 404 0
2018-07-22 19:10:38 GMT 46.688774 -1.455963 36,000 37 404 0
2018-07-22 19:10:35 GMT 46.683746 -1.461525 36,000 37 404 0
2018-07-22 19:10:31 GMT 46.678349 -1.467361 36,000 37 404 0
2018-07-22 19:10:27 GMT 46.672028 -1.474379 36,000 37 404 0
2018-07-22 19:10:24 GMT 46.668060 -1.478691 36,000 37 404 0
2018-07-22 19:10:17 GMT 46.656700 -1.491119 36,000 37 404 0
2018-07-22 19:10:14 GMT 46.652416 -1.495857 36,000 36 405 0
2018-07-22 19:10:11 GMT 46.648647 -1.499977 36,000 36 405 0
2018-07-22 19:10:04 GMT 46.638126 -1.511513 36,000 36 405 0
2018-07-22 19:09:59 GMT 46.630630 -1.519753 36,000 36 405 0
2018-07-22 19:09:55 GMT 46.624535 -1.526413 36,000 36 405 0
2018-07-22 19:09:52 GMT 46.619457 -1.531975 36,000 36 405 0
2018-07-22 19:09:49 GMT 46.613594 -1.538361 36,000 36 405 0
2018-07-22 19:09:43 GMT 46.605541 -1.547150 36,000 36 405 0
2018-07-22 19:09:39 GMT 46.598557 -1.554766 36,000 36 405 0
2018-07-22 19:09:35 GMT 46.594414 -1.559303 36,000 36 405 0
2018-07-22 19:09:32 GMT 46.589897 -1.564178 36,000 36 405 0
2018-07-22 19:09:29 GMT 46.585289 -1.569191 36,000 36 405 0
2018-07-22 19:09:25 GMT 46.576862 -1.578392 36,000 36 405 0
2018-07-22 19:09:21 GMT 46.572510 -1.583170 36,000 36 405 0
2018-07-22 19:09:16 GMT 46.565739 -1.590546 36,000 36 405 0
2018-07-22 19:09:10 GMT 46.557358 -1.599717 36,000 36 405 0
2018-07-22 19:09:05 GMT 46.547653 -1.610234 36,000 36 405 0
2018-07-22 19:09:00 GMT 46.541245 -1.617268 36,000 36 405 0
2018-07-22 19:08:49 GMT 46.525375 -1.634491 36,000 36 405 0
2018-07-22 19:08:42 GMT 46.514671 -1.646164 36,000 36 405 0
2018-07-22 19:08:38 GMT 46.509247 -1.652036 36,000 36 405 0
2018-07-22 19:08:30 GMT 46.496155 -1.666237 36,000 36 405 0
2018-07-22 19:08:27 GMT 46.492401 -1.670324 36,000 36 405 0
2018-07-22 19:08:21 GMT 46.483246 -1.680222 36,000 36 405 0
2018-07-22 19:08:16 GMT 46.475147 -1.689079 36,000 36 405 0
2018-07-22 19:08:08 GMT 46.463509 -1.701714 36,000 36 405 0
2018-07-22 19:08:04 GMT 46.457737 -1.708031 36,000 36 405 64
2018-07-22 19:07:56 GMT 46.445526 -1.721236 36,000 36 405 0
2018-07-22 19:07:53 GMT 46.440929 -1.726227 36,000 36 405 0
2018-07-22 19:07:46 GMT 46.430145 -1.737917 36,000 36 405 0
2018-07-22 19:07:42 GMT 46.425522 -1.742912 36,000 36 405 0
2018-07-22 19:07:34 GMT 46.412933 -1.756540 36,000 36 406 0
2018-07-22 19:07:31 GMT 46.408676 -1.761095 36,000 36 405 0
2018-07-22 19:07:24 GMT 46.398617 -1.772026 36,000 36 405 0
2018-07-22 19:07:20 GMT 46.392380 -1.778780 36,000 36 405 0
2018-07-22 19:07:17 GMT 46.387939 -1.783604 36,000 36 405 0
2018-07-22 19:07:14 GMT 46.382694 -1.789261 36,000 36 405 0
2018-07-22 19:07:11 GMT 46.378693 -1.793518 36,000 36 405 0
2018-07-22 19:07:08 GMT 46.372871 -1.799835 36,000 36 405 0
2018-07-22 19:07:03 GMT 46.365051 -1.808281 36,000 36 405 0
2018-07-22 19:06:59 GMT 46.359791 -1.813980 36,000 36 405 0
2018-07-22 19:06:54 GMT 46.352325 -1.822056 36,000 36 405 0
2018-07-22 19:06:51 GMT 46.347977 -1.826745 36,000 36 406 0
2018-07-22 19:06:46 GMT 46.338749 -1.836708 36,000 36 406 0
2018-07-22 19:06:41 GMT 46.333210 -1.842613 36,000 36 406 0
2018-07-22 19:06:37 GMT 46.327240 -1.849053 36,000 36 406 0
2018-07-22 19:06:30 GMT 46.317078 -1.859972 36,000 36 406 0
2018-07-22 19:06:24 GMT 46.307877 -1.869886 36,000 36 406 0
2018-07-22 19:06:17 GMT 46.297039 -1.881477 36,000 36 406 0
2018-07-22 19:06:13 GMT 46.289497 -1.889580 36,000 36 406 0
2018-07-22 19:06:08 GMT 46.283306 -1.896240 36,000 36 406 0
2018-07-22 19:06:04 GMT 46.277481 -1.902510 36,000 36 406 0
2018-07-22 19:06:00 GMT 46.272041 -1.908394 36,000 36 406 0
2018-07-22 19:05:52 GMT 46.258850 -1.922540 36,000 36 406 0
2018-07-22 19:05:49 GMT 46.255096 -1.926560 36,000 36 406 0
2018-07-22 19:05:45 GMT 46.248550 -1.933594 36,000 36 406 0
2018-07-22 19:05:40 GMT 46.239670 -1.943173 36,000 36 406 0
2018-07-22 19:05:31 GMT 46.228546 -1.955097 36,000 36 406 0
2018-07-22 19:05:28 GMT 46.223465 -1.960591 36,000 36 406 0
2018-07-22 19:05:21 GMT 46.212406 -1.972458 36,000 36 406 0
2018-07-22 19:05:18 GMT 46.208405 -1.976735 36,000 36 406 0
2018-07-22 19:05:10 GMT 46.196301 -1.989761 36,000 36 406 0
2018-07-22 19:05:07 GMT 46.191238 -1.995157 36,000 36 406 0
2018-07-22 19:05:00 GMT 46.179123 -2.008095 36,000 36 406 0
2018-07-22 19:04:56 GMT 46.176048 -2.011459 36,000 36 406 0
2018-07-22 19:04:50 GMT 46.165855 -2.022308 36,000 36 406 0
2018-07-22 19:04:46 GMT 46.160362 -2.028282 36,000 36 406 0
2018-07-22 19:04:39 GMT 46.148258 -2.041191 36,000 36 406 0
2018-07-22 19:04:35 GMT 46.143860 -2.045869 36,000 36 406 0
2018-07-22 19:04:26 GMT 46.121117 -2.070168 36,000 36 406 0
2018-07-22 19:04:15 GMT 46.112915 -2.078962 36,000 36 406 0
2018-07-22 19:04:07 GMT 46.099937 -2.092758 36,000 36 406 0
2018-07-22 19:04:04 GMT 46.096909 -2.095985 36,000 36 406 0
2018-07-22 19:03:53 GMT 46.080414 -2.113528 36,000 36 406 0
2018-07-22 19:03:45 GMT 46.068100 -2.126658 36,000 36 406 0
2018-07-22 19:03:40 GMT 46.059357 -2.136037 36,000 36 406 0
2018-07-22 19:03:34 GMT 46.051804 -2.144076 36,000 36 406 0
2018-07-22 19:03:31 GMT 46.047520 -2.148651 36,000 36 406 0
2018-07-22 19:03:26 GMT 46.039650 -2.157028 36,000 36 406 0
2018-07-22 19:03:20 GMT 46.030525 -2.166710 36,000 36 406 0
2018-07-22 19:03:12 GMT 46.018799 -2.179178 36,000 36 406 0
2018-07-22 19:03:09 GMT 46.014542 -2.183734 36,000 36 406 0
2018-07-22 19:03:05 GMT 46.008499 -2.190165 36,000 36 406 0
2018-07-22 19:02:59 GMT 45.998245 -2.201017 36,000 36 406 0
2018-07-22 19:02:55 GMT 45.993256 -2.206376 36,000 36 406 0
2018-07-22 19:02:51 GMT 45.987122 -2.212874 36,000 36 406 0
2018-07-22 19:02:48 GMT 45.981834 -2.218483 36,000 36 406 0
2018-07-22 19:02:45 GMT 45.978149 -2.222387 36,000 36 406 0
2018-07-22 19:02:40 GMT 45.970287 -2.230705 36,000 36 406 0
2018-07-22 19:02:36 GMT 45.964191 -2.237160 36,000 36 406 0
2018-07-22 19:02:33 GMT 45.959488 -2.242172 36,000 36 406 0
2018-07-22 19:02:29 GMT 45.953251 -2.248764 36,000 36 406 0
2018-07-22 19:02:25 GMT 45.947250 -2.255145 36,000 36 406 0
2018-07-22 19:02:20 GMT 45.940075 -2.262703 36,000 36 406 0
2018-07-22 19:02:16 GMT 45.933929 -2.269226 36,000 36 406 0
2018-07-22 19:02:13 GMT 45.930115 -2.273277 36,000 36 406 0
2018-07-22 19:02:09 GMT 45.923225 -2.280624 36,000 36 406 0
2018-07-22 19:02:05 GMT 45.917080 -2.287148 36,000 36 406 0
2018-07-22 19:02:02 GMT 45.912888 -2.291542 36,000 36 406 0
2018-07-22 19:01:55 GMT 45.901978 -2.303177 36,000 36 406 0
2018-07-22 19:01:51 GMT 45.896439 -2.309005 36,000 36 406 0
2018-07-22 19:01:47 GMT 45.890259 -2.315503 36,000 36 406 0
2018-07-22 19:01:43 GMT 45.884865 -2.321205 36,000 36 407 0
2018-07-22 19:01:40 GMT 45.879929 -2.326424 36,000 36 407 0
2018-07-22 19:01:35 GMT 45.872589 -2.334193 36,000 36 407 0
2018-07-22 19:01:29 GMT 45.863266 -2.343933 36,000 36 407 0
2018-07-22 19:01:24 GMT 45.856094 -2.351486 36,000 36 407 0
2018-07-22 19:01:18 GMT 45.846691 -2.361374 36,000 36 407 0
2018-07-22 19:01:14 GMT 45.839802 -2.368652 36,000 36 407 0
2018-07-22 19:01:07 GMT 45.830338 -2.378540 36,000 36 407 0
2018-07-22 19:01:01 GMT 45.820587 -2.388856 36,000 36 407 0
2018-07-22 19:00:56 GMT 45.812393 -2.397431 36,000 36 407 0
2018-07-22 19:00:46 GMT 45.798229 -2.412254 36,000 36 407 0
2018-07-22 19:00:41 GMT 45.790783 -2.420151 36,000 36 407 0
2018-07-22 19:00:35 GMT 45.781006 -2.430382 36,000 36 407 0
2018-07-22 19:00:31 GMT 45.775421 -2.436287 36,000 36 407 0
2018-07-22 19:00:24 GMT 45.763962 -2.448276 36,000 36 407 0
2018-07-22 19:00:21 GMT 45.760384 -2.452011 36,000 36 407 0
2018-07-22 19:00:15 GMT 45.751511 -2.461339 36,000 36 407 0
2018-07-22 19:00:11 GMT 45.744781 -2.468373 36,000 36 407 0
2018-07-22 19:00:02 GMT 45.731415 -2.482441 36,000 36 407 0
2018-07-22 18:59:59 GMT 45.726727 -2.487373 36,000 36 407 0
2018-07-22 18:59:52 GMT 45.715622 -2.498988 36,000 36 407 0
2018-07-22 18:59:48 GMT 45.709595 -2.505363 36,000 36 407 0
2018-07-22 18:59:42 GMT 45.700516 -2.514864 36,000 36 407 0
2018-07-22 18:59:39 GMT 45.696030 -2.519554 36,000 36 407 0
2018-07-22 18:59:35 GMT 45.689999 -2.525894 36,000 36 407 0
2018-07-22 18:59:29 GMT 45.680969 -2.535363 36,000 36 407 0
2018-07-22 18:59:21 GMT 45.668335 -2.548627 36,000 36 407 0
2018-07-22 18:59:18 GMT 45.665230 -2.551918 36,000 36 407 0
2018-07-22 18:59:13 GMT 45.657318 -2.560226 36,000 36 407 0
2018-07-22 18:59:08 GMT 45.649246 -2.568657 36,000 36 407 0
2018-07-22 18:59:04 GMT 45.643158 -2.575088 36,000 36 407 0
2018-07-22 18:58:56 GMT 45.631390 -2.587418 36,000 36 407 0
2018-07-22 18:58:53 GMT 45.626686 -2.592293 36,000 36 407 0
2018-07-22 18:58:45 GMT 45.614731 -2.604765 36,000 36 407 0
2018-07-22 18:58:41 GMT 45.607590 -2.612267 36,000 36 407 0
2018-07-22 18:58:32 GMT 45.592712 -2.627742 36,000 36 407 0
2018-07-22 18:58:29 GMT 45.590191 -2.630333 36,000 36 407 0
2018-07-22 18:58:21 GMT 45.577835 -2.643217 36,000 36 408 0
2018-07-22 18:58:16 GMT 45.570099 -2.651189 36,000 36 408 0
2018-07-22 18:58:11 GMT 45.561977 -2.659584 36,000 36 408 0
2018-07-22 18:58:07 GMT 45.556160 -2.665627 36,000 36 408 0
2018-07-22 18:57:59 GMT 45.544693 -2.677591 36,000 36 408 0
2018-07-22 18:57:53 GMT 45.535629 -2.686961 36,000 36 408 0
2018-07-22 18:57:49 GMT 45.529346 -2.693526 36,000 36 408 0
2018-07-22 18:57:43 GMT 45.517365 -2.705972 36,000 36 408 0
2018-07-22 18:57:38 GMT 45.512329 -2.711138 36,000 36 408 0
2018-07-22 18:57:27 GMT 45.496216 -2.727879 36,000 36 408 0
2018-07-22 18:57:17 GMT 45.479599 -2.745078 36,000 36 408 0
2018-07-22 18:57:06 GMT 45.462570 -2.762735 36,000 36 408 0
2018-07-22 18:56:55 GMT 45.447086 -2.778804 36,000 36 407 0
2018-07-22 18:56:45 GMT 45.430981 -2.795485 36,000 36 408 0
2018-07-22 18:56:34 GMT 45.415421 -2.811650 36,000 36 408 0
2018-07-22 18:56:29 GMT 45.407425 -2.819869 36,000 36 408 0
2018-07-22 18:56:22 GMT 45.394913 -2.832772 36,000 36 408 0
2018-07-22 18:56:12 GMT 45.380814 -2.847355 36,000 35 407 0
2018-07-22 18:56:01 GMT 45.364830 -2.863747 36,000 35 407 0
2018-07-22 18:55:51 GMT 45.348072 -2.881031 36,000 36 408 0
2018-07-22 18:55:41 GMT 45.333500 -2.896036 36,000 36 408 0
2018-07-22 18:55:35 GMT 45.325356 -2.904477 36,000 36 408 0
2018-07-22 18:55:29 GMT 45.315903 -2.914258 36,000 36 408 0
2018-07-22 18:55:19 GMT 45.298820 -2.931876 36,000 36 408 0
2018-07-22 18:55:09 GMT 45.283272 -2.947886 36,000 35 408 0
2018-07-22 18:54:57 GMT 45.266605 -2.964969 36,000 35 408 0
2018-07-22 18:54:44 GMT 45.246643 -2.985469 36,000 35 408 0
2018-07-22 18:54:41 GMT 45.240677 -2.991497 36,000 35 408 0
2018-07-22 18:54:33 GMT 45.230026 -3.002407 36,000 35 408 0
2018-07-22 18:54:24 GMT 45.215771 -3.017020 36,000 35 408 0
2018-07-22 18:54:13 GMT 45.200134 -3.033011 36,000 35 408 0
2018-07-22 18:54:01 GMT 45.181320 -3.052324 36,000 35 409 0
2018-07-22 18:53:54 GMT 45.169777 -3.064114 36,000 35 409 0
2018-07-22 18:53:49 GMT 45.162048 -3.072052 36,000 35 409 0
2018-07-22 18:53:39 GMT 45.147572 -3.086890 36,000 35 409 0
2018-07-22 18:53:30 GMT 45.133621 -3.101153 36,000 35 410 0
2018-07-22 18:53:18 GMT 45.115402 -3.119849 36,000 35 409 0
2018-07-22 18:53:07 GMT 45.097641 -3.137970 36,000 35 409 0
2018-07-22 18:52:57 GMT 45.083561 -3.152339 36,000 35 410 0
2018-07-22 18:52:46 GMT 45.066757 -3.169355 36,000 35 409 0
2018-07-22 18:52:36 GMT 45.051041 -3.185316 36,000 35 410 0
2018-07-22 18:52:24 GMT 45.032726 -3.203921 36,000 35 411 0
2018-07-22 18:52:14 GMT 45.016991 -3.219798 36,000 35 411 0
2018-07-22 18:52:04 GMT 45.001163 -3.235876 36,000 35 411 0
2018-07-22 18:51:53 GMT 44.984528 -3.252738 36,000 35 411 0
2018-07-22 18:51:49 GMT 44.975700 -3.261667 36,000 35 411 0
2018-07-22 18:51:41 GMT 44.965530 -3.271964 36,000 35 411 0
2018-07-22 18:51:31 GMT 44.949600 -3.288116 36,000 35 411 0
2018-07-22 18:51:21 GMT 44.935432 -3.302463 36,000 35 411 0
2018-07-22 18:51:11 GMT 44.919044 -3.319144 36,000 35 411 0
2018-07-22 18:51:05 GMT 44.909130 -3.329192 36,000 35 411 0
2018-07-22 18:50:59 GMT 44.900574 -3.337817 36,000 35 411 0
2018-07-22 18:50:50 GMT 44.886600 -3.352036 36,000 35 411 0
2018-07-22 18:50:39 GMT 44.870499 -3.368290 36,000 35 412 0
2018-07-22 18:50:27 GMT 44.851547 -3.387386 36,000 35 412 0
2018-07-22 18:50:17 GMT 44.835571 -3.403473 36,000 35 412 0
2018-07-22 18:50:03 GMT 44.814259 -3.424921 36,000 35 412 0
2018-07-22 18:49:55 GMT 44.801456 -3.437850 36,000 35 412 0
2018-07-22 18:49:44 GMT 44.784622 -3.454742 36,000 35 412 0
2018-07-22 18:49:34 GMT 44.768829 -3.470699 36,000 35 412 0
2018-07-22 18:49:21 GMT 44.749420 -3.490186 36,000 35 412 0
2018-07-22 18:49:11 GMT 44.734371 -3.505309 36,000 35 412 0
2018-07-22 18:48:59 GMT 44.715752 -3.523999 36,000 35 412 0
2018-07-22 18:48:50 GMT 44.701599 -3.538134 36,000 35 412 0
2018-07-22 18:48:38 GMT 44.682449 -3.557281 36,000 35 412 0
2018-07-22 18:48:26 GMT 44.664173 -3.575514 36,000 35 412 0
2018-07-22 18:48:17 GMT 44.649834 -3.589850 36,000 35 412 0
2018-07-22 18:47:43 GMT 44.596939 -3.642687 36,000 35 412 0
2018-07-22 18:47:33 GMT 44.581169 -3.658447 36,000 35 413 0
2018-07-22 18:47:21 GMT 44.563614 -3.675908 36,000 35 413 0
2018-07-22 18:47:10 GMT 44.546173 -3.693237 36,000 35 413 0
2018-07-22 18:46:58 GMT 44.527039 -3.712333 36,000 35 413 0
2018-07-22 18:46:44 GMT 44.505753 -3.733521 36,000 35 413 0
2018-07-22 18:46:39 GMT 44.498337 -3.740845 36,000 35 414 0
2018-07-22 18:46:28 GMT 44.480209 -3.758894 36,000 35 414 0
2018-07-22 18:46:18 GMT 44.464184 -3.774809 36,000 35 414 0
2018-07-22 18:46:05 GMT 44.443863 -3.794926 36,000 35 415 0
2018-07-22 18:45:55 GMT 44.429501 -3.809107 36,000 35 415 0
2018-07-22 18:45:45 GMT 44.413742 -3.824681 36,000 35 415 0
2018-07-22 18:45:31 GMT 44.391953 -3.846196 36,000 35 415 0
2018-07-22 18:45:23 GMT 44.379318 -3.858686 36,000 35 415 0
2018-07-22 18:45:19 GMT 44.370575 -3.867318 36,000 35 415 0
2018-07-22 18:45:11 GMT 44.360550 -3.877258 36,000 35 415 0
2018-07-22 18:45:05 GMT 44.349289 -3.888310 36,000 35 415 0
2018-07-22 18:45:02 GMT 44.346268 -3.891371 36,000 35 416 0
2018-07-22 18:44:56 GMT 44.336536 -3.900883 36,000 35 416 0
2018-07-22 18:44:33 GMT 44.299995 -3.936991 36,000 35 416 0
2018-07-22 18:44:25 GMT 44.287983 -3.948848 36,000 35 416 0
2018-07-22 18:43:44 GMT 44.222717 -4.013024 36,000 35 417 0
2018-07-22 18:43:39 GMT 44.214943 -4.020661 36,000 35 418 0
2018-07-22 18:43:23 GMT 44.187836 -4.047312 36,000 35 418 0
2018-07-22 18:43:06 GMT 44.162247 -4.072462 36,000 35 418 0
2018-07-22 18:42:56 GMT 44.146957 -4.087489 36,000 35 418 0
2018-07-22 18:42:36 GMT 44.114483 -4.117650 36,000 32 417 0
2018-07-22 18:41:31 GMT 44.000153 -4.190303 36,000 23 415 0
2018-07-22 18:41:08 GMT 43.961197 -4.214215 36,000 23 415 0
2018-07-22 18:41:04 GMT 43.954807 -4.218096 36,000 23 415 0
2018-07-22 18:40:53 GMT 43.934875 -4.230311 36,000 23 415 0
2018-07-22 18:40:44 GMT 43.917007 -4.241311 36,000 23 415 0
2018-07-22 18:40:34 GMT 43.898201 -4.252821 36,000 23 415 0
2018-07-22 18:40:22 GMT 43.877792 -4.265250 36,000 23 415 -64
2018-07-22 18:40:06 GMT 43.851654 -4.281283 36,000 23 414 0
2018-07-22 18:40:00 GMT 43.839157 -4.288884 36,000 23 415 0
2018-07-22 18:39:46 GMT 43.817551 -4.302042 36,000 23 414 0
2018-07-22 18:39:10 GMT 43.753693 -4.340877 36,000 23 414 0
2018-07-22 18:39:01 GMT 43.737762 -4.350522 36,000 23 413 0
2018-07-22 18:38:35 GMT 43.690155 -4.379329 36,000 23 414 0
2018-07-22 18:38:32 GMT 43.685989 -4.381884 36,000 23 413 0
2018-07-22 18:37:54 GMT 43.620392 -4.421486 36,000 23 414 0
2018-07-22 18:37:37 GMT 43.590214 -4.439654 36,000 23 415 0
2018-07-22 18:37:24 GMT 43.565956 -4.454368 36,000 23 415 0
2018-07-22 18:37:14 GMT 43.548130 -4.465158 36,000 23 415 0
2018-07-22 18:37:05 GMT 43.534023 -4.473659 36,000 23 415 0
2018-07-22 18:36:52 GMT 43.512379 -4.486738 36,000 23 415 0
2018-07-22 18:36:43 GMT 43.494919 -4.497266 36,000 23 415 0
2018-07-22 18:36:29 GMT 43.469238 -4.512762 36,000 23 416 0
2018-07-22 18:36:20 GMT 43.453163 -4.522378 36,000 23 416 0
2018-07-22 18:35:02 GMT 43.317993 -4.603463 36,000 23 417 0
2018-07-22 18:34:59 GMT 43.312912 -4.606529 36,000 23 417 0
2018-07-22 18:34:25 GMT 43.251114 -4.643384 36,000 23 417 0
2018-07-22 18:34:19 GMT 43.241211 -4.649244 36,000 23 417 0
2018-07-22 18:34:09 GMT 43.223568 -4.659838 36,000 23 417 0
2018-07-22 18:33:33 GMT 43.158253 -4.698748 36,000 23 417 0
2018-07-22 18:29:02 GMT 42.676765 -4.982619 36,000 23 420 0
2018-07-22 18:28:59 GMT 42.674156 -4.984152 36,000 23 420 0
2018-07-22 18:27:37 GMT 42.516495 -5.075996 36,000 23 422 0
2018-07-22 18:26:55 GMT 42.450798 -5.114136 36,000 23 423 0
2018-07-22 18:23:54 GMT 42.120209 -5.304836 36,000 23 428 0
2018-07-22 18:23:51 GMT 42.114552 -5.308121 36,000 23 428 0
2018-07-22 18:23:41 GMT 42.096443 -5.318469 36,000 23 429 0
2018-07-22 18:23:28 GMT 42.073120 -5.331818 36,000 23 429 0
2018-07-22 18:23:16 GMT 42.053604 -5.342914 36,000 22 430 0
2018-07-22 18:23:07 GMT 42.034012 -5.354087 36,000 22 430 0
2018-07-22 18:22:55 GMT 42.012451 -5.366322 36,000 23 430 0
2018-07-22 18:22:40 GMT 41.985836 -5.381512 36,000 23 431 0
2018-07-22 18:22:32 GMT 41.969261 -5.390966 36,000 23 431 0
2018-07-22 18:22:19 GMT 41.945984 -5.404212 36,000 23 432 0
2018-07-22 18:22:06 GMT 41.920757 -5.418559 36,000 23 432 0
2018-07-22 18:21:51 GMT 41.894222 -5.433697 36,000 23 432 0
2018-07-22 18:21:43 GMT 41.879185 -5.442256 36,000 23 433 0
2018-07-22 18:21:33 GMT 41.860611 -5.452902 36,000 23 433 0
2018-07-22 18:21:21 GMT 41.838272 -5.465636 36,000 23 434 0
2018-07-22 18:21:10 GMT 41.816711 -5.477898 36,000 23 434 0
2018-07-22 18:20:58 GMT 41.794876 -5.490354 36,000 23 434 0
2018-07-22 18:20:44 GMT 41.769241 -5.504899 36,000 22 435 0
2018-07-22 18:20:30 GMT 41.742783 -5.519881 36,000 22 435 0
2018-07-22 18:20:25 GMT 41.735962 -5.523751 36,000 22 436 0
2018-07-22 18:20:10 GMT 41.707489 -5.539856 36,000 22 436 0
2018-07-22 18:20:03 GMT 41.699478 -5.544413 36,000 22 436 0
2018-07-22 18:19:59 GMT 41.689346 -5.550076 36,000 22 436 0
2018-07-22 18:19:49 GMT 41.671143 -5.560393 36,000 22 437 0
2018-07-22 18:19:38 GMT 41.651405 -5.571537 36,000 22 437 0
2018-07-22 18:19:34 GMT 41.644821 -5.575249 36,000 22 437 0
2018-07-22 18:19:28 GMT 41.631134 -5.582990 36,000 22 437 0
2018-07-22 18:19:24 GMT 41.624496 -5.586735 36,000 22 437 0
2018-07-22 18:19:12 GMT 41.604172 -5.598283 36,000 23 438 0
2018-07-22 18:18:59 GMT 41.580460 -5.611650 36,000 23 437 0
2018-07-22 18:18:51 GMT 41.562515 -5.622129 36,000 25 437 64
2018-07-22 18:18:43 GMT 41.546150 -5.633431 36,000 29 438 0
2018-07-22 18:18:39 GMT 41.543545 -5.635411 36,000 29 438 0
2018-07-22 18:18:36 GMT 41.537769 -5.639947 36,000 31 438 0
2018-07-22 18:18:31 GMT 41.526215 -5.649782 36,000 34 437 0
2018-07-22 18:18:27 GMT 41.522873 -5.652849 36,000 36 438 0
2018-07-22 18:18:20 GMT 41.509514 -5.666135 36,000 38 438 -64
2018-07-22 18:18:09 GMT 41.489731 -5.689045 36,000 42 439 0
2018-07-22 18:17:55 GMT 41.469013 -5.714232 36,000 42 440 0
2018-07-22 18:17:47 GMT 41.461304 -5.723565 36,000 42 441 0
2018-07-22 18:17:40 GMT 41.446667 -5.741187 36,000 42 441 0
2018-07-22 18:17:34 GMT 41.436752 -5.753131 36,000 42 441 -64
2018-07-22 18:17:22 GMT 41.419899 -5.773443 36,000 42 442 0
2018-07-22 18:17:15 GMT 41.411682 -5.783428 36,000 42 442 0
2018-07-22 18:17:07 GMT 41.400101 -5.797410 36,000 42 442 0
2018-07-22 18:17:04 GMT 41.394577 -5.804103 36,000 42 442 0
2018-07-22 18:17:00 GMT 41.385040 -5.815613 36,000 42 442 0
2018-07-22 18:16:53 GMT 41.378841 -5.823128 36,000 42 442 0
2018-07-22 18:16:48 GMT 41.366646 -5.837798 36,000 42 443 0
2018-07-22 18:16:41 GMT 41.361107 -5.844477 36,000 42 443 0
2018-07-22 18:16:31 GMT 41.346359 -5.862366 36,000 42 443 0
2018-07-22 18:16:20 GMT 41.329170 -5.883054 36,000 42 443 0
2018-07-22 18:16:10 GMT 41.312595 -5.903029 36,000 42 443 64
2018-07-22 18:15:58 GMT 41.296768 -5.922130 36,000 42 443 0
2018-07-22 18:15:47 GMT 41.279732 -5.942605 36,000 42 443 0
2018-07-22 18:15:37 GMT 41.262974 -5.962767 36,000 42 443 0
2018-07-22 18:15:25 GMT 41.245979 -5.983242 36,000 42 443 0
2018-07-22 18:15:15 GMT 41.230270 -6.002197 36,000 42 443 0
2018-07-22 18:15:05 GMT 41.214001 -6.021819 36,000 42 443 0
2018-07-22 18:14:53 GMT 41.198227 -6.040894 36,000 42 443 0
2018-07-22 18:14:42 GMT 41.177132 -6.066388 36,000 42 443 0
2018-07-22 18:14:32 GMT 41.166321 -6.079468 36,000 42 443 0
2018-07-22 18:14:21 GMT 41.149200 -6.100098 36,000 42 443 0
2018-07-22 18:14:10 GMT 41.133137 -6.119322 36,000 42 444 0
2018-07-22 18:14:04 GMT 41.121593 -6.133118 36,000 41 443 0
2018-07-22 18:14:00 GMT 41.116844 -6.138736 36,000 41 444 0
2018-07-22 18:13:49 GMT 41.100357 -6.158386 36,000 41 444 0
2018-07-22 18:13:44 GMT 41.089100 -6.171757 36,000 41 444 0
2018-07-22 18:13:37 GMT 41.082413 -6.179626 36,000 41 444 0
2018-07-22 18:13:32 GMT 41.070435 -6.193855 36,000 41 444 0
2018-07-22 18:13:27 GMT 41.066475 -6.198536 36,000 41 444 0
2018-07-22 18:13:14 GMT 41.046570 -6.222107 36,000 41 445 0
2018-07-22 18:13:05 GMT 41.033192 -6.237862 36,000 41 445 0
2018-07-22 18:12:55 GMT 41.015873 -6.258399 36,000 41 446 64
2018-07-22 18:12:43 GMT 40.997864 -6.278625 36,000 38 447 -64
2018-07-22 18:12:33 GMT 40.980789 -6.295593 36,000 34 447 -64
2018-07-22 18:12:22 GMT 40.961517 -6.312195 36,000 31 447 0
2018-07-22 18:12:10 GMT 40.942135 -6.327875 36,000 31 448 0
2018-07-22 18:12:00 GMT 40.923935 -6.342590 36,000 31 449 0
2018-07-22 18:11:46 GMT 40.899773 -6.362145 36,000 31 449 -64
2018-07-22 18:11:38 GMT 40.884567 -6.374512 36,000 31 448 64
2018-07-22 18:11:29 GMT 40.868629 -6.387364 36,000 31 448 0
2018-07-22 18:11:26 GMT 40.864902 -6.390360 36,000 31 448 0
2018-07-22 18:11:17 GMT 40.847542 -6.404280 36,000 31 448 0
2018-07-22 18:11:06 GMT 40.826660 -6.421021 36,000 31 448 64
2018-07-22 18:10:55 GMT 40.808296 -6.435741 36,000 31 448 0
2018-07-22 18:10:45 GMT 40.791138 -6.449524 36,000 31 448 0
2018-07-22 18:10:34 GMT 40.771893 -6.464955 36,000 31 448 0
2018-07-22 18:10:28 GMT 40.760769 -6.473819 36,000 31 448 0
2018-07-22 18:10:23 GMT 40.752014 -6.480810 36,000 31 447 0
2018-07-22 18:10:12 GMT 40.732498 -6.496399 36,000 31 447 0
2018-07-22 18:10:03 GMT 40.715057 -6.510315 36,000 31 448 0
2018-07-22 18:09:55 GMT 40.699905 -6.522461 36,000 31 447 0
2018-07-22 18:09:52 GMT 40.697365 -6.524506 36,000 31 447 0
2018-07-22 18:09:48 GMT 40.691162 -6.529419 36,000 31 447 0
2018-07-22 18:09:41 GMT 40.677521 -6.540405 36,000 31 447 0
2018-07-22 18:09:30 GMT 40.657841 -6.556154 36,000 31 447 0
2018-07-22 18:09:19 GMT 40.640030 -6.570435 36,000 31 446 64
2018-07-22 18:09:13 GMT 40.628586 -6.579529 36,000 31 446 64
2018-07-22 18:09:09 GMT 40.622223 -6.584595 36,000 31 446 0
2018-07-22 18:08:59 GMT 40.604351 -6.598913 36,000 31 446 0
2018-07-22 18:08:52 GMT 40.590942 -6.609587 36,000 31 446 0
2018-07-22 18:08:47 GMT 40.580429 -6.617981 36,000 31 446 0
2018-07-22 18:08:38 GMT 40.567108 -6.628626 36,000 31 446 64
2018-07-22 18:08:35 GMT 40.559647 -6.634521 36,000 31 447 0
2018-07-22 18:08:28 GMT 40.548580 -6.643358 36,000 31 446 0
2018-07-22 18:08:24 GMT 40.539825 -6.650330 36,000 31 446 0
2018-07-22 18:08:20 GMT 40.535408 -6.653845 36,000 31 446 64
2018-07-22 18:08:17 GMT 40.528015 -6.659729 36,000 31 446 -64
2018-07-22 18:08:14 GMT 40.521721 -6.664769 36,000 31 447 0
2018-07-22 18:08:07 GMT 40.508423 -6.675354 36,000 31 447 0
2018-07-22 18:08:02 GMT 40.499283 -6.682621 36,000 31 448 0
2018-07-22 18:07:55 GMT 40.490250 -6.689819 36,000 31 447 0
2018-07-22 18:07:50 GMT 40.479401 -6.698425 36,000 31 448 0
2018-07-22 18:07:44 GMT 40.472260 -6.704041 36,000 31 448 0
2018-07-22 18:07:40 GMT 40.461182 -6.712769 36,000 31 448 0
2018-07-22 18:07:34 GMT 40.453537 -6.718811 36,000 31 448 0
2018-07-22 18:07:28 GMT 40.439232 -6.730125 36,000 31 449 64
2018-07-22 18:07:22 GMT 40.432663 -6.735352 36,000 31 449 0
2018-07-22 18:07:13 GMT 40.416321 -6.748291 36,000 31 450 0
2018-07-22 18:07:03 GMT 40.397003 -6.763550 36,000 31 450 0
2018-07-22 18:06:52 GMT 40.378620 -6.778065 36,000 31 450 0
2018-07-22 18:06:42 GMT 40.359253 -6.793421 36,000 31 450 0
2018-07-22 18:06:29 GMT 40.338455 -6.809814 36,000 31 450 0
2018-07-22 18:06:20 GMT 40.321609 -6.823120 36,000 31 450 -64
2018-07-22 18:06:09 GMT 40.301422 -6.838989 36,000 31 450 0
2018-07-22 18:06:06 GMT 40.292545 -6.846043 36,000 31 450 0
2018-07-22 18:05:59 GMT 40.283886 -6.852847 36,000 31 451 -64
2018-07-22 18:05:48 GMT 40.262787 -6.869507 36,000 31 451 0
2018-07-22 18:05:44 GMT 40.257351 -6.873821 36,000 31 451 64
2018-07-22 18:05:41 GMT 40.252762 -6.877441 36,000 31 451 0
2018-07-22 18:05:37 GMT 40.245155 -6.883434 36,000 31 450 64
2018-07-22 18:05:30 GMT 40.230560 -6.894958 36,000 31 450 0
2018-07-22 18:05:26 GMT 40.225845 -6.898621 36,000 31 450 0
2018-07-22 18:05:19 GMT 40.212708 -6.908997 36,000 31 450 0
2018-07-22 18:05:14 GMT 40.203724 -6.916081 36,000 31 450 0
2018-07-22 18:05:08 GMT 40.192108 -6.925232 36,000 31 449 0
2018-07-22 18:05:05 GMT 40.187660 -6.928690 36,000 31 449 0
2018-07-22 18:04:57 GMT 40.174255 -6.939270 36,000 31 448 0
2018-07-22 18:04:53 GMT 40.167068 -6.944885 36,000 31 448 0
2018-07-22 18:04:50 GMT 40.161686 -6.949102 36,000 31 448 0
2018-07-22 18:04:46 GMT 40.153957 -6.955157 36,000 31 448 0
2018-07-22 18:04:42 GMT 40.147659 -6.960144 36,000 31 448 0
2018-07-22 18:04:34 GMT 40.131546 -6.972717 36,000 31 448 0
2018-07-22 18:04:31 GMT 40.127796 -6.975694 36,000 31 448 0
2018-07-22 18:04:23 GMT 40.113831 -6.986618 36,000 31 448 0
2018-07-22 18:04:20 GMT 40.108429 -6.990845 36,000 31 448 0
2018-07-22 18:04:13 GMT 40.094193 -7.001953 36,000 31 448 0
2018-07-22 18:04:10 GMT 40.090805 -7.004639 36,000 30 447 0
2018-07-22 18:04:04 GMT 40.080139 -7.012939 36,000 30 448 0
2018-07-22 18:04:00 GMT 40.072998 -7.018494 36,000 30 448 0
2018-07-22 18:03:55 GMT 40.062065 -7.027005 36,000 30 447 64
2018-07-22 18:03:50 GMT 40.054291 -7.033060 36,000 30 447 0
2018-07-22 18:03:41 GMT 40.038025 -7.045776 36,000 30 446 0
2018-07-22 18:03:38 GMT 40.033623 -7.049228 36,000 30 446 0
2018-07-22 18:03:34 GMT 40.024429 -7.056396 36,000 30 446 0
2018-07-22 18:03:30 GMT 40.019142 -7.060526 36,000 31 445 0
2018-07-22 18:03:27 GMT 40.014210 -7.064334 36,000 31 445 0
2018-07-22 18:03:23 GMT 40.006622 -7.070326 36,000 30 445 0
2018-07-22 18:03:19 GMT 39.999344 -7.075989 36,000 30 445 0
2018-07-22 18:03:12 GMT 39.988541 -7.084412 36,000 30 445 0
2018-07-22 18:03:07 GMT 39.979156 -7.091736 36,000 30 445 0
2018-07-22 18:03:02 GMT 39.969040 -7.099609 36,000 30 445 -64
2018-07-22 18:02:55 GMT 39.956360 -7.109558 36,000 30 445 0
2018-07-22 18:02:52 GMT 39.951279 -7.113464 36,000 30 445 0
2018-07-22 18:02:44 GMT 39.938049 -7.123779 36,000 30 446 0
2018-07-22 18:02:40 GMT 39.931767 -7.128629 36,000 30 446 0
2018-07-22 18:02:35 GMT 39.921753 -7.136456 36,000 30 446 0
2018-07-22 18:02:31 GMT 39.914635 -7.141968 36,000 30 446 0
2018-07-22 18:02:24 GMT 39.902065 -7.151733 36,000 30 446 0
2018-07-22 18:02:20 GMT 39.896027 -7.156399 36,000 30 446 0
2018-07-22 18:02:13 GMT 39.883163 -7.166443 36,000 30 447 0
2018-07-22 18:02:10 GMT 39.877670 -7.170715 36,000 30 447 0
2018-07-22 18:02:03 GMT 39.865101 -7.180481 36,000 30 447 0
2018-07-22 18:02:00 GMT 39.857483 -7.186432 36,000 30 448 0
2018-07-22 18:01:52 GMT 39.845596 -7.195618 36,000 30 448 0
2018-07-22 18:01:48 GMT 39.838894 -7.200867 36,000 30 448 0
2018-07-22 18:01:42 GMT 39.828045 -7.209229 36,000 30 448 0
2018-07-22 18:01:38 GMT 39.821594 -7.214256 36,000 30 448 0
2018-07-22 18:01:31 GMT 39.807751 -7.225037 36,000 31 450 0
2018-07-22 18:01:28 GMT 39.802444 -7.229187 36,000 31 450 0
2018-07-22 18:01:21 GMT 39.789963 -7.238856 36,000 30 451 0
2018-07-22 18:01:16 GMT 39.780842 -7.245972 36,000 30 451 0
2018-07-22 18:01:12 GMT 39.775581 -7.250061 36,000 30 451 0
2018-07-22 18:01:09 GMT 39.769684 -7.254678 36,000 30 452 0
2018-07-22 18:01:06 GMT 39.763504 -7.259455 36,000 30 452 0
2018-07-22 18:01:02 GMT 39.757050 -7.264471 36,000 30 452 -64
2018-07-22 18:00:59 GMT 39.751839 -7.268494 36,000 30 452 0
2018-07-22 18:00:56 GMT 39.744534 -7.274231 36,000 31 453 0
2018-07-22 18:00:49 GMT 39.732521 -7.283569 36,000 31 453 0
2018-07-22 18:00:45 GMT 39.725075 -7.289368 36,000 31 453 0
2018-07-22 18:00:41 GMT 39.719582 -7.293640 36,000 31 453 0
2018-07-22 18:00:38 GMT 39.713669 -7.298218 36,000 30 454 0
2018-07-22 18:00:31 GMT 39.701340 -7.307759 36,000 30 455 0
2018-07-22 18:00:27 GMT 39.693184 -7.314087 36,000 30 455 0
2018-07-22 18:00:24 GMT 39.687149 -7.318686 36,000 30 455 0
2018-07-22 18:00:20 GMT 39.681499 -7.323059 36,000 30 455 0
2018-07-22 18:00:16 GMT 39.674473 -7.328491 36,000 30 456 0
2018-07-22 18:00:13 GMT 39.668976 -7.332764 36,000 30 456 0
2018-07-22 18:00:10 GMT 39.663116 -7.337315 36,000 30 457 -64
2018-07-22 18:00:06 GMT 39.655849 -7.342896 36,000 30 456 -64
2018-07-22 18:00:03 GMT 39.648514 -7.348540 36,000 30 456 0
2018-07-22 18:00:00 GMT 39.644211 -7.351943 36,000 30 457 0
2018-07-22 17:59:56 GMT 39.636299 -7.358032 36,000 30 457 0
2018-07-22 17:59:52 GMT 39.629745 -7.363049 36,000 30 457 0
2018-07-22 17:59:49 GMT 39.624939 -7.366760 36,000 30 457 -64
2018-07-22 17:59:45 GMT 39.617119 -7.372803 36,000 30 457 0
2018-07-22 17:59:42 GMT 39.610882 -7.377625 36,000 30 457 0
2018-07-22 17:59:38 GMT 39.605572 -7.381714 36,000 30 458 64
2018-07-22 17:59:34 GMT 39.597107 -7.388246 36,000 30 458 64
2018-07-22 17:59:30 GMT 39.589233 -7.394336 36,000 30 459 -64
2018-07-22 17:59:27 GMT 39.585663 -7.397083 36,000 30 459 0
2018-07-22 17:59:23 GMT 39.576874 -7.403830 36,000 30 459 0
2018-07-22 17:59:20 GMT 39.572102 -7.407471 36,000 30 459 64
2018-07-22 17:59:17 GMT 39.566483 -7.411771 36,000 30 459 64
2018-07-22 17:59:12 GMT 39.555622 -7.420105 36,000 30 460 0
2018-07-22 17:59:08 GMT 39.549408 -7.424907 36,000 30 460 0
2018-07-22 17:59:02 GMT 39.538723 -7.433105 36,000 30 460 0
2018-07-22 17:58:59 GMT 39.534119 -7.436610 36,000 30 462 -64
2018-07-22 17:58:56 GMT 39.528111 -7.441284 36,000 30 460 0
2018-07-22 17:58:50 GMT 39.515167 -7.451233 36,000 30 460 0
2018-07-22 17:58:46 GMT 39.509949 -7.455239 36,000 30 461 0
2018-07-22 17:58:39 GMT 39.496593 -7.465454 36,000 30 461 0
2018-07-22 17:58:35 GMT 39.489120 -7.471181 36,000 30 462 0
2018-07-22 17:58:28 GMT 39.475971 -7.481201 36,000 30 462 -64
2018-07-22 17:58:25 GMT 39.470718 -7.485212 36,000 30 462 -64
2018-07-22 17:58:18 GMT 39.457764 -7.495124 36,000 30 462 64
2018-07-22 17:58:14 GMT 39.450832 -7.500427 36,000 30 463 64
2018-07-22 17:58:07 GMT 39.438263 -7.510071 36,000 30 464 0
2018-07-22 17:58:04 GMT 39.432495 -7.514469 36,000 30 464 0
2018-07-22 17:57:59 GMT 39.421783 -7.522644 36,000 30 464 0
2018-07-22 17:57:56 GMT 39.417782 -7.525757 36,000 30 464 0
2018-07-22 17:57:53 GMT 39.412354 -7.529874 36,000 30 464 0
2018-07-22 17:57:46 GMT 39.398987 -7.540084 36,000 30 464 0
2018-07-22 17:57:43 GMT 39.394318 -7.543640 36,000 30 466 0
2018-07-22 17:57:37 GMT 39.380310 -7.554354 36,000 30 466 0
2018-07-22 17:57:33 GMT 39.375229 -7.558176 36,000 30 466 0
2018-07-22 17:57:24 GMT 39.358845 -7.570740 36,000 30 467 0
2018-07-22 17:57:17 GMT 39.344650 -7.581522 36,000 30 467 0
2018-07-22 17:57:13 GMT 39.338737 -7.586060 36,000 30 468 0
2018-07-22 17:57:10 GMT 39.331970 -7.591254 36,000 30 468 0
2018-07-22 17:57:02 GMT 39.317596 -7.602181 36,000 30 470 -64
2018-07-22 17:56:54 GMT 39.301804 -7.614242 36,000 30 471 -64
2018-07-22 17:56:51 GMT 39.297119 -7.617798 36,000 30 472 0
2018-07-22 17:56:44 GMT 39.282223 -7.629150 36,000 30 473 0
2018-07-22 17:56:41 GMT 39.278412 -7.632035 36,000 30 474 -64
2018-07-22 17:56:38 GMT 39.272770 -7.636353 36,000 30 474 -64
2018-07-22 17:56:33 GMT 39.261749 -7.644693 36,000 30 473 0
2018-07-22 17:56:30 GMT 39.256897 -7.648376 36,000 30 474 -64
2018-07-22 17:56:24 GMT 39.245087 -7.657351 36,000 30 474 0
2018-07-22 17:56:20 GMT 39.238037 -7.662665 36,000 30 474 0
2018-07-22 17:56:13 GMT 39.224636 -7.672852 36,000 30 474 0
2018-07-22 17:56:10 GMT 39.218819 -7.677246 36,000 30 475 0
2018-07-22 17:56:02 GMT 39.203934 -7.688519 36,000 30 476 0
2018-07-22 17:55:59 GMT 39.199219 -7.692139 36,000 30 476 0
2018-07-22 17:55:51 GMT 39.181343 -7.705688 36,000 30 476 0
2018-07-22 17:55:48 GMT 39.178410 -7.707947 36,000 30 476 0
2018-07-22 17:55:38 GMT 39.158066 -7.723389 36,000 30 477 0
2018-07-22 17:55:34 GMT 39.150970 -7.728822 36,000 30 477 0
2018-07-22 17:55:30 GMT 39.142052 -7.735596 36,000 30 477 0
2018-07-22 17:55:27 GMT 39.138050 -7.738586 36,000 30 478 64
2018-07-22 17:55:18 GMT 39.120941 -7.751571 36,000 30 478 0
2018-07-22 17:55:13 GMT 39.109653 -7.760193 36,000 30 478 0
2018-07-22 17:55:07 GMT 39.099735 -7.767700 36,000 30 479 0
2018-07-22 17:55:01 GMT 39.086105 -7.778022 36,000 30 479 0
2018-07-22 17:54:56 GMT 39.078743 -7.783569 36,000 30 479 -64
2018-07-22 17:54:46 GMT 39.057747 -7.799438 36,000 30 479 0
2018-07-22 17:54:36 GMT 39.040009 -7.812866 36,000 30 480 0
2018-07-22 17:54:33 GMT 39.034607 -7.816952 36,000 30 480 0
2018-07-22 17:54:25 GMT 39.017624 -7.829789 36,000 30 480 0
2018-07-22 17:54:19 GMT 39.008030 -7.837036 36,000 30 480 0
2018-07-22 17:54:15 GMT 39.000000 -7.843044 36,000 30 480 0
2018-07-22 17:54:05 GMT 38.979679 -7.858398 36,000 30 480 0
2018-07-22 17:53:55 GMT 38.961895 -7.871826 36,000 30 481 0
2018-07-22 17:53:52 GMT 38.956696 -7.875764 36,000 30 481 0
2018-07-22 17:53:45 GMT 38.941738 -7.887024 36,000 30 481 0
2018-07-22 17:53:42 GMT 38.937927 -7.889855 36,000 30 481 0
2018-07-22 17:53:33 GMT 38.919209 -7.903992 36,000 30 481 0
2018-07-22 17:53:22 GMT 38.898102 -7.919829 36,000 30 481 0
2018-07-22 17:53:11 GMT 38.877171 -7.935608 36,000 30 481 -64
2018-07-22 17:53:01 GMT 38.858223 -7.949829 36,000 30 481 -64
2018-07-22 17:52:51 GMT 38.838951 -7.964355 36,000 30 481 0
2018-07-22 17:52:44 GMT 38.826416 -7.973805 36,000 30 481 0
2018-07-22 17:52:41 GMT 38.817722 -7.980347 36,000 30 481 0
2018-07-22 17:52:32 GMT 38.801468 -7.992613 36,000 30 482 0
2018-07-22 17:52:29 GMT 38.797531 -7.995539 36,000 30 482 0
2018-07-22 17:52:22 GMT 38.780621 -8.008240 36,000 30 482 64
2018-07-22 17:52:18 GMT 38.776108 -8.011660 36,000 30 482 0
2018-07-22 17:52:13 GMT 38.765167 -8.019840 36,000 30 482 0
2018-07-22 17:52:08 GMT 38.756195 -8.026587 36,000 30 482 0
2018-07-22 17:52:01 GMT 38.742874 -8.036559 36,000 30 483 0
2018-07-22 17:51:58 GMT 38.737049 -8.040955 36,000 30 483 0
2018-07-22 17:51:51 GMT 38.723419 -8.051128 36,000 30 483 -64
2018-07-22 17:51:47 GMT 38.714890 -8.057495 36,000 30 483 -64
2018-07-22 17:51:40 GMT 38.702682 -8.066592 36,000 30 482 0
2018-07-22 17:51:36 GMT 38.694920 -8.072449 36,000 30 482 0
2018-07-22 17:51:26 GMT 38.674530 -8.087729 36,000 30 483 0
2018-07-22 17:51:15 GMT 38.653198 -8.103671 36,000 30 483 0
2018-07-22 17:51:05 GMT 38.633282 -8.118530 36,000 30 484 -64
2018-07-22 17:50:56 GMT 38.617550 -8.130249 36,000 30 483 0
2018-07-22 17:50:53 GMT 38.611916 -8.134399 36,000 30 483 0
2018-07-22 17:50:46 GMT 38.597809 -8.144897 36,000 30 483 0
2018-07-22 17:50:42 GMT 38.591171 -8.149825 36,000 30 483 0
2018-07-22 17:50:38 GMT 38.582108 -8.156572 36,000 30 483 0
2018-07-22 17:50:35 GMT 38.574348 -8.162354 36,000 30 482 0
2018-07-22 17:50:32 GMT 38.571507 -8.164490 36,000 30 483 0
2018-07-22 17:50:25 GMT 38.557076 -8.175171 36,000 30 483 64
2018-07-22 17:50:22 GMT 38.550140 -8.180298 36,000 30 483 64
2018-07-22 17:50:16 GMT 38.537567 -8.189651 36,000 30 483 0
2018-07-22 17:50:13 GMT 38.534409 -8.191979 36,000 30 483 0
2018-07-22 17:50:10 GMT 38.529285 -8.195740 36,000 30 483 0
2018-07-22 17:50:03 GMT 38.514404 -8.206787 36,000 30 482 64
2018-07-22 17:50:00 GMT 38.508408 -8.211206 36,000 30 483 0
2018-07-22 17:49:56 GMT 38.501312 -8.216400 36,000 30 483 0
2018-07-22 17:49:52 GMT 38.494045 -8.221741 36,000 30 483 0
2018-07-22 17:49:48 GMT 38.486271 -8.227417 36,000 30 483 0
2018-07-22 17:49:42 GMT 38.474716 -8.235925 36,000 30 482 0
2018-07-22 17:49:39 GMT 38.467045 -8.241577 36,000 30 483 0
2018-07-22 17:49:35 GMT 38.460892 -8.246135 36,000 30 483 0
2018-07-22 17:49:31 GMT 38.454163 -8.251091 36,000 30 483 0
2018-07-22 17:49:28 GMT 38.446655 -8.256653 36,000 30 483 0
2018-07-22 17:49:21 GMT 38.433838 -8.266137 36,000 30 484 0
2018-07-22 17:49:16 GMT 38.424957 -8.272705 36,000 30 484 0
2018-07-22 17:49:10 GMT 38.413605 -8.281128 36,000 30 483 -64
2018-07-22 17:49:06 GMT 38.404953 -8.287548 36,000 30 483 -64
2018-07-22 17:49:00 GMT 38.392563 -8.296708 36,000 30 483 0
2018-07-22 17:48:56 GMT 38.383759 -8.303210 36,000 30 483 64
2018-07-22 17:48:53 GMT 38.378780 -8.306918 36,000 30 483 0
2018-07-22 17:48:49 GMT 38.372452 -8.311625 36,000 30 483 0
2018-07-22 17:48:45 GMT 38.363514 -8.318203 36,000 30 483 0
2018-07-22 17:48:42 GMT 38.358444 -8.321968 36,000 30 483 0
2018-07-22 17:48:39 GMT 38.352722 -8.326176 36,000 30 483 0
2018-07-22 17:48:34 GMT 38.342422 -8.333831 36,000 30 482 0
2018-07-22 17:48:31 GMT 38.337070 -8.337787 36,000 30 482 0
2018-07-22 17:48:28 GMT 38.332184 -8.341370 36,000 30 482 0
2018-07-22 17:48:22 GMT 38.319706 -8.350624 36,000 30 483 0
2018-07-22 17:48:18 GMT 38.311752 -8.356505 36,000 30 483 64
2018-07-22 17:48:12 GMT 38.299667 -8.365504 36,000 30 482 0
2018-07-22 17:48:05 GMT 38.287308 -8.374621 36,000 30 482 0
2018-07-22 17:48:01 GMT 38.278748 -8.380932 36,000 30 483 0
2018-07-22 17:47:55 GMT 38.267384 -8.389315 36,000 30 483 0
2018-07-22 17:47:50 GMT 38.258423 -8.395892 36,000 30 483 0
2018-07-22 17:47:45 GMT 38.249180 -8.402750 36,000 30 482 0
2018-07-22 17:47:41 GMT 38.239635 -8.409736 36,000 30 482 0
2018-07-22 17:47:34 GMT 38.227570 -8.418566 36,000 30 482 0
2018-07-22 17:47:29 GMT 38.215897 -8.427170 36,000 30 483 0
2018-07-22 17:47:24 GMT 38.208542 -8.432544 36,000 30 483 0
2018-07-22 17:47:20 GMT 38.197220 -8.440889 36,000 30 484 -64
2018-07-22 17:47:13 GMT 38.187378 -8.448136 36,000 30 483 0
2018-07-22 17:47:08 GMT 38.177212 -8.455532 36,000 30 483 0
2018-07-22 17:47:03 GMT 38.166504 -8.463446 36,000 30 484 0
2018-07-22 17:46:58 GMT 38.157005 -8.470340 36,000 30 484 -64
2018-07-22 17:46:53 GMT 38.146912 -8.477764 36,000 30 484 0
2018-07-22 17:46:50 GMT 38.139221 -8.483432 36,000 30 484 0
2018-07-22 17:46:47 GMT 38.135559 -8.486120 36,000 30 484 0
2018-07-22 17:46:42 GMT 38.126175 -8.493016 36,000 30 484 0
2018-07-22 17:46:35 GMT 38.113312 -8.502425 36,000 30 485 -64
2018-07-22 17:46:31 GMT 38.105392 -8.508210 36,000 30 485 0
2018-07-22 17:46:26 GMT 38.093323 -8.517031 36,000 30 485 0
2018-07-22 17:46:21 GMT 38.085297 -8.522936 36,000 30 485 0
2018-07-22 17:46:18 GMT 38.077824 -8.528376 36,000 30 485 0
2018-07-22 17:46:14 GMT 38.071957 -8.532675 36,000 30 485 0
2018-07-22 17:46:08 GMT 38.060410 -8.541094 36,000 30 485 64
2018-07-22 17:46:05 GMT 38.052685 -8.546766 36,000 30 485 64
2018-07-22 17:46:00 GMT 38.044601 -8.552681 36,000 30 485 0
2018-07-22 17:45:57 GMT 38.037090 -8.558170 36,000 30 485 0
2018-07-22 17:45:53 GMT 38.031693 -8.562148 36,000 30 485 -64
2018-07-22 17:45:47 GMT 38.019119 -8.571366 36,000 30 485 0
2018-07-22 17:45:43 GMT 38.011414 -8.577050 36,000 30 485 0
2018-07-22 17:45:37 GMT 38.000336 -8.585173 36,000 30 487 0
2018-07-22 17:45:32 GMT 37.990631 -8.592302 36,000 30 487 0
2018-07-22 17:45:27 GMT 37.981064 -8.599373 36,000 30 487 0
2018-07-22 17:45:22 GMT 37.970703 -8.606952 36,000 30 487 0
2018-07-22 17:45:19 GMT 37.964375 -8.611550 36,000 30 487 0
2018-07-22 17:45:15 GMT 37.958042 -8.616207 36,000 30 487 0
2018-07-22 17:45:11 GMT 37.950256 -8.621872 36,000 30 487 0
2018-07-22 17:45:04 GMT 37.935883 -8.632328 36,000 29 488 0
2018-07-22 17:45:01 GMT 37.929878 -8.636687 36,000 29 488 0
2018-07-22 17:44:54 GMT 37.916016 -8.646766 36,000 29 488 0
2018-07-22 17:44:50 GMT 37.907043 -8.653253 36,000 29 488 0
2018-07-22 17:44:43 GMT 37.893894 -8.662779 36,000 29 488 0
2018-07-22 17:44:39 GMT 37.887329 -8.667556 36,000 29 488 0
2018-07-22 17:44:35 GMT 37.878952 -8.673587 36,000 29 488 -64
2018-07-22 17:44:32 GMT 37.873123 -8.677855 36,000 29 488 0
2018-07-22 17:44:29 GMT 37.867310 -8.682063 36,000 29 489 0
2018-07-22 17:44:24 GMT 37.858200 -8.688666 36,000 29 489 0
2018-07-22 17:44:21 GMT 37.852043 -8.693111 36,000 29 489 0
2018-07-22 17:44:18 GMT 37.845806 -8.697649 36,000 29 490 0
2018-07-22 17:44:13 GMT 37.836449 -8.704396 36,000 29 490 0
2018-07-22 17:44:08 GMT 37.825333 -8.712509 36,000 29 490 0
2018-07-22 17:44:04 GMT 37.818108 -8.717711 36,000 29 490 0
2018-07-22 17:44:00 GMT 37.809677 -8.723846 36,000 29 490 0
2018-07-22 17:43:56 GMT 37.803040 -8.728696 36,000 29 490 0
2018-07-22 17:43:53 GMT 37.796879 -8.733176 36,000 29 490 0
2018-07-22 17:43:48 GMT 37.784637 -8.742012 36,000 29 491 0
2018-07-22 17:43:43 GMT 37.777046 -8.747565 36,000 29 491 0
2018-07-22 17:43:36 GMT 37.762756 -8.757954 36,000 29 491 0
2018-07-22 17:43:33 GMT 37.756935 -8.762134 36,000 30 491 0
2018-07-22 17:43:26 GMT 37.741016 -8.773717 36,000 29 491 0
2018-07-22 17:43:22 GMT 37.735569 -8.777658 36,000 29 491 0
2018-07-22 17:43:15 GMT 37.721100 -8.788127 36,000 29 491 0
2018-07-22 17:43:12 GMT 37.715286 -8.792335 36,000 30 491 0
2018-07-22 17:43:04 GMT 37.700134 -8.803321 36,000 29 492 0
2018-07-22 17:43:01 GMT 37.694138 -8.807646 36,000 29 492 0
2018-07-22 17:42:54 GMT 37.679672 -8.818165 36,000 29 492 0
2018-07-22 17:42:51 GMT 37.673767 -8.822431 36,000 29 492 0
2018-07-22 17:42:44 GMT 37.657223 -8.834381 36,000 29 492 0
2018-07-22 17:42:40 GMT 37.652435 -8.837858 36,000 29 492 0
2018-07-22 17:42:32 GMT 37.637192 -8.848844 36,000 29 492 0
2018-07-22 17:42:29 GMT 37.631012 -8.853286 36,000 29 492 0
2018-07-22 17:42:22 GMT 37.617325 -8.863220 36,000 29 492 0
2018-07-22 17:42:19 GMT 37.611786 -8.867221 36,000 29 492 0
2018-07-22 17:42:12 GMT 37.596237 -8.878446 36,000 29 492 0
2018-07-22 17:42:08 GMT 37.589024 -8.883640 36,000 29 492 0
2018-07-22 17:42:01 GMT 37.574265 -8.894328 36,000 29 492 0
2018-07-22 17:41:57 GMT 37.568401 -8.898508 36,000 29 492 0
2018-07-22 17:41:50 GMT 37.552368 -8.910087 36,000 29 492 0
2018-07-22 17:41:47 GMT 37.547592 -8.913554 36,000 29 492 0
2018-07-22 17:41:41 GMT 37.534836 -8.922690 36,000 29 492 0
2018-07-22 17:41:36 GMT 37.526272 -8.928899 36,000 29 492 0
2018-07-22 17:41:30 GMT 37.513329 -8.938214 36,000 29 493 0
2018-07-22 17:41:25 GMT 37.504391 -8.944603 36,000 29 493 0
2018-07-22 17:41:19 GMT 37.492355 -8.953331 36,000 29 493 0
2018-07-22 17:41:14 GMT 37.480682 -8.961688 36,000 29 492 0
2018-07-22 17:41:08 GMT 37.469757 -8.969561 36,000 29 492 0
2018-07-22 17:41:05 GMT 37.463699 -8.973902 36,000 29 492 0
2018-07-22 17:40:57 GMT 37.448902 -8.984547 36,000 29 492 0
2018-07-22 17:40:54 GMT 37.442898 -8.988906 36,000 29 492 0
2018-07-22 17:40:48 GMT 37.428837 -8.999057 36,000 29 492 0
2018-07-22 17:40:43 GMT 37.421482 -9.004371 36,000 29 492 0
2018-07-22 17:40:38 GMT 37.410736 -9.012120 36,000 29 492 0
2018-07-22 17:40:33 GMT 37.400848 -9.019308 36,000 29 492 0
2018-07-22 17:40:28 GMT 37.390015 -9.027120 36,000 29 492 0
2018-07-22 17:40:23 GMT 37.380844 -9.033742 36,000 29 492 0
2018-07-22 17:40:16 GMT 37.366882 -9.043793 36,000 29 492 0
2018-07-22 17:40:12 GMT 37.359924 -9.048761 36,000 29 492 0
2018-07-22 17:40:06 GMT 37.345837 -9.058944 36,000 29 493 0
2018-07-22 17:40:01 GMT 37.338852 -9.063900 36,000 29 493 0
2018-07-22 17:39:55 GMT 37.325684 -9.073363 36,000 29 492 0
2018-07-22 17:39:51 GMT 37.318275 -9.078648 36,000 29 493 0
2018-07-22 17:39:45 GMT 37.304218 -9.088738 36,000 29 492 0
2018-07-22 17:39:40 GMT 37.295792 -9.094751 36,000 29 492 0
2018-07-22 17:39:34 GMT 37.283920 -9.103248 36,000 29 492 0
2018-07-22 17:39:30 GMT 37.275867 -9.108980 36,000 29 492 0
2018-07-22 17:39:23 GMT 37.262466 -9.118535 36,000 29 492 0
2018-07-22 17:39:19 GMT 37.255737 -9.123269 36,000 29 492 0
2018-07-22 17:39:12 GMT 37.240486 -9.134117 36,000 29 493 0
2018-07-22 17:39:07 GMT 37.231174 -9.140744 36,000 29 492 0
2018-07-22 17:38:59 GMT 37.213348 -9.153423 36,000 29 493 0
2018-07-22 17:38:56 GMT 37.209206 -9.156328 36,000 29 493 0
2018-07-22 17:38:52 GMT 37.200451 -9.162538 36,000 29 493 0
2018-07-22 17:38:46 GMT 37.189140 -9.170539 36,000 29 493 0
2018-07-22 17:38:41 GMT 37.179363 -9.177465 36,000 29 493 0
2018-07-22 17:38:36 GMT 37.168991 -9.184804 36,000 29 493 0
2018-07-22 17:38:31 GMT 37.157455 -9.192985 36,000 29 493 0
2018-07-22 17:38:25 GMT 37.147568 -9.199998 36,000 29 492 0
2018-07-22 17:38:19 GMT 37.136261 -9.208004 36,000 29 492 0
2018-07-22 17:38:14 GMT 37.126373 -9.215016 36,000 29 492 0
2018-07-22 17:38:09 GMT 37.115402 -9.222784 36,000 29 493 0
2018-07-22 17:38:04 GMT 37.106232 -9.229275 36,000 29 493 0
2018-07-22 17:37:59 GMT 37.095245 -9.237048 36,000 29 493 0
2018-07-22 17:37:53 GMT 37.085037 -9.244294 36,000 29 493 0
2018-07-22 17:37:48 GMT 37.073410 -9.252518 36,000 29 493 0
2018-07-22 17:37:42 GMT 37.062286 -9.260423 36,000 29 493 0
2018-07-22 17:37:36 GMT 37.050694 -9.268580 36,000 29 493 0
2018-07-22 17:37:32 GMT 37.043243 -9.273894 36,000 29 493 0
2018-07-22 17:37:26 GMT 37.030071 -9.283268 36,000 29 493 0
2018-07-22 17:37:21 GMT 37.021500 -9.289291 36,000 29 493 0
2018-07-22 17:37:15 GMT 37.007725 -9.299091 36,000 29 493 0
2018-07-22 17:37:11 GMT 37.000443 -9.304251 36,000 29 493 0
2018-07-22 17:37:04 GMT 36.986683 -9.314018 36,000 29 493 0
2018-07-22 17:37:00 GMT 36.978725 -9.319630 36,000 29 493 0
2018-07-22 17:36:54 GMT 36.966946 -9.327990 36,000 29 493 0
2018-07-22 17:36:49 GMT 36.957916 -9.334378 36,000 29 493 0
2018-07-22 17:36:43 GMT 36.945099 -9.343405 36,000 29 493 0
2018-07-22 17:36:39 GMT 36.936539 -9.349424 36,000 29 493 0
2018-07-22 17:36:33 GMT 36.924820 -9.357663 36,000 29 493 0
2018-07-22 17:36:28 GMT 36.915436 -9.364267 36,000 29 493 0
2018-07-22 17:36:22 GMT 36.903122 -9.372916 36,000 29 493 0
2018-07-22 17:36:19 GMT 36.898087 -9.376480 36,000 29 493 0
2018-07-22 17:36:16 GMT 36.892136 -9.380652 36,000 29 493 0
2018-07-22 17:36:12 GMT 36.882732 -9.387280 36,000 29 493 0
2018-07-22 17:36:09 GMT 36.877121 -9.391207 36,000 29 493 0
2018-07-22 17:36:05 GMT 36.869511 -9.396595 36,000 29 493 0
2018-07-22 17:36:01 GMT 36.860714 -9.402744 36,000 29 493 0
2018-07-22 17:35:58 GMT 36.855789 -9.406225 36,000 29 493 0
2018-07-22 17:35:54 GMT 36.848049 -9.411660 36,000 29 494 0
2018-07-22 17:35:50 GMT 36.838650 -9.418264 36,000 29 494 0
2018-07-22 17:35:47 GMT 36.834366 -9.421291 36,000 29 494 0
2018-07-22 17:35:44 GMT 36.827103 -9.426328 36,000 29 494 0
2018-07-22 17:35:40 GMT 36.817886 -9.432793 36,000 29 494 0
2018-07-22 17:35:37 GMT 36.813171 -9.436111 36,000 29 494 0
2018-07-22 17:35:33 GMT 36.805984 -9.441147 36,000 29 494 0
2018-07-22 17:35:27 GMT 36.794933 -9.448885 36,000 29 494 0
2018-07-22 17:35:19 GMT 36.775848 -9.462267 36,000 29 496 0
2018-07-22 17:35:16 GMT 36.772636 -9.464488 36,000 29 495 64
2018-07-22 17:35:11 GMT 36.763096 -9.471208 36,000 29 496 0
2018-07-22 17:35:05 GMT 36.751190 -9.479599 36,000 29 496 0
2018-07-22 17:35:01 GMT 36.741959 -9.486052 36,000 29 496 0
2018-07-22 17:34:55 GMT 36.731186 -9.493618 36,000 29 496 0
2018-07-22 17:34:50 GMT 36.719799 -9.501596 36,000 29 496 0
2018-07-22 17:34:45 GMT 36.709991 -9.508553 36,000 29 496 0
2018-07-22 17:34:39 GMT 36.697723 -9.517193 36,000 29 497 0
2018-07-22 17:34:34 GMT 36.689117 -9.523201 36,000 29 499 0
2018-07-22 17:34:28 GMT 36.675522 -9.532757 36,000 29 497 0
2018-07-22 17:34:24 GMT 36.667336 -9.538529 36,000 29 497 0
2018-07-22 17:34:16 GMT 36.652580 -9.548872 36,000 29 497 0
2018-07-22 17:34:13 GMT 36.646545 -9.553127 36,000 29 498 0
2018-07-22 17:34:06 GMT 36.631714 -9.563541 36,000 29 498 0
2018-07-22 17:34:02 GMT 36.624115 -9.568863 36,000 29 499 0
2018-07-22 17:33:55 GMT 36.610474 -9.578362 36,000 29 499 0
2018-07-22 17:33:52 GMT 36.604488 -9.582591 36,000 29 499 0
2018-07-22 17:33:44 GMT 36.588318 -9.593925 36,000 29 499 0
2018-07-22 17:33:41 GMT 36.582565 -9.597902 36,000 29 500 0
2018-07-22 17:33:32 GMT 36.562965 -9.611635 36,000 29 500 0
2018-07-22 17:33:29 GMT 36.556824 -9.615898 36,000 29 500 0
2018-07-22 17:33:23 GMT 36.545975 -9.623508 36,000 29 500 0
2018-07-22 17:33:20 GMT 36.538803 -9.628523 36,000 29 500 0
2018-07-22 17:33:11 GMT 36.518188 -9.642963 36,000 29 501 0
2018-07-22 17:32:59 GMT 36.495651 -9.658736 36,000 29 501 0
2018-07-22 17:32:51 GMT 36.481522 -9.668598 36,000 29 501 0
2018-07-22 17:32:48 GMT 36.475571 -9.672775 36,000 29 501 0
2018-07-22 17:32:41 GMT 36.460373 -9.683361 36,000 29 501 0
2018-07-22 17:32:38 GMT 36.454964 -9.687136 36,000 29 501 0
2018-07-22 17:32:30 GMT 36.438206 -9.698766 36,000 29 501 0
2018-07-22 17:32:27 GMT 36.431168 -9.703674 36,000 29 501 0
2018-07-22 17:32:20 GMT 36.417442 -9.713258 36,000 29 501 0
2018-07-22 17:32:17 GMT 36.409298 -9.718927 36,000 29 501 0
2018-07-22 17:32:08 GMT 36.392990 -9.730282 36,000 29 501 0
2018-07-22 17:32:05 GMT 36.386486 -9.734763 36,000 29 501 0
2018-07-22 17:31:58 GMT 36.374359 -9.743214 36,000 29 501 0
2018-07-22 17:31:55 GMT 36.367027 -9.748321 36,000 29 501 0
2018-07-22 17:31:45 GMT 36.346024 -9.762955 36,000 29 501 0
2018-07-22 17:31:37 GMT 36.330902 -9.773449 36,000 29 501 0
2018-07-22 17:31:33 GMT 36.323219 -9.778825 36,000 29 501 0
2018-07-22 17:31:27 GMT 36.311462 -9.786987 36,000 29 501 0
2018-07-22 17:31:24 GMT 36.301853 -9.793669 36,000 29 501 0
2018-07-22 17:31:16 GMT 36.289101 -9.802610 36,000 29 500 0
2018-07-22 17:31:12 GMT 36.279419 -9.809303 36,000 29 500 0
2018-07-22 17:31:06 GMT 36.268112 -9.817200 36,000 29 500 0
2018-07-22 17:31:01 GMT 36.257675 -9.824465 36,000 29 501 0
2018-07-22 17:30:52 GMT 36.237007 -9.838841 36,000 29 500 0
2018-07-22 17:30:40 GMT 36.216759 -9.852866 36,000 29 500 0
2018-07-22 17:30:34 GMT 36.204803 -9.861145 36,000 29 500 0
2018-07-22 17:30:30 GMT 36.194923 -9.868002 36,000 29 500 0
2018-07-22 17:30:24 GMT 36.183243 -9.876080 36,000 29 500 0
2018-07-22 17:30:19 GMT 36.174133 -9.882317 36,000 29 500 0
2018-07-22 17:30:13 GMT 36.160988 -9.891435 36,000 29 500 0
2018-07-22 17:30:09 GMT 36.152435 -9.897308 36,000 29 500 64
2018-07-22 17:30:02 GMT 36.139160 -9.906464 36,000 29 500 0
2018-07-22 17:29:58 GMT 36.131790 -9.911499 36,000 29 500 0
2018-07-22 17:29:51 GMT 36.117462 -9.921356 36,000 29 500 0
2018-07-22 17:29:47 GMT 36.106335 -9.929011 36,000 29 500 0
2018-07-22 17:29:42 GMT 36.098648 -9.934273 36,000 29 500 0
2018-07-22 17:29:35 GMT 36.083496 -9.944687 36,000 29 500 0
2018-07-22 17:29:25 GMT 36.062576 -9.959106 36,000 29 499 0
2018-07-22 17:29:13 GMT 36.041016 -9.973927 36,000 29 499 0
2018-07-22 17:29:03 GMT 36.018768 -9.989262 36,000 29 499 0
2018-07-22 17:28:53 GMT 36.000687 -10.001678 36,000 29 499 0
2018-07-22 17:28:50 GMT 35.993134 -10.006886 36,000 29 500 0
2018-07-22 17:28:41 GMT 35.973476 -10.020408 36,000 29 500 0
2018-07-22 17:28:33 GMT 35.957153 -10.031605 36,000 29 500 64
2018-07-22 17:28:30 GMT 35.951267 -10.035602 36,000 29 500 64
2018-07-22 17:28:21 GMT 35.935627 -10.046296 36,000 29 500 0
2018-07-22 17:28:18 GMT 35.929825 -10.050201 36,000 29 500 0
2018-07-22 17:28:11 GMT 35.914307 -10.060787 36,000 29 500 0
2018-07-22 17:28:07 GMT 35.907230 -10.065639 36,000 29 500 0
2018-07-22 17:28:00 GMT 35.891876 -10.076065 36,000 29 500 0
2018-07-22 17:27:56 GMT 35.883442 -10.081885 36,000 29 500 0
2018-07-22 17:27:48 GMT 35.866333 -10.093517 36,000 29 500 0
2018-07-22 17:27:44 GMT 35.860912 -10.097195 36,000 29 500 0
2018-07-22 17:27:40 GMT 35.851833 -10.103390 36,000 29 500 0
2018-07-22 17:27:30 GMT 35.830811 -10.117722 36,000 29 500 0
2018-07-22 17:27:23 GMT 35.814919 -10.128576 36,000 29 501 0
2018-07-22 17:27:19 GMT 35.808746 -10.132828 36,000 29 500 0
2018-07-22 17:27:11 GMT 35.794052 -10.142899 36,000 29 500 0
2018-07-22 17:27:06 GMT 35.783730 -10.150023 36,000 29 501 0
2018-07-22 17:27:02 GMT 35.774780 -10.156174 36,000 29 501 0
2018-07-22 17:26:55 GMT 35.761475 -10.165334 36,000 29 501 0
2018-07-22 17:26:51 GMT 35.752396 -10.171566 36,000 29 502 0
2018-07-22 17:26:45 GMT 35.740108 -10.180060 36,000 29 502 0
2018-07-22 17:26:40 GMT 35.731262 -10.186196 36,000 29 502 0
2018-07-22 17:26:34 GMT 35.719299 -10.194377 36,000 29 502 64
2018-07-22 17:26:29 GMT 35.707752 -10.202325 36,000 29 502 0
2018-07-22 17:26:24 GMT 35.697922 -10.209103 36,000 29 502 0
2018-07-22 17:26:18 GMT 35.685455 -10.217694 36,000 29 503 0
2018-07-22 17:26:13 GMT 35.676224 -10.224037 36,000 29 503 0
2018-07-22 17:26:07 GMT 35.664413 -10.232162 36,000 29 503 0
2018-07-22 17:26:02 GMT 35.653381 -10.239716 36,000 29 502 0
2018-07-22 17:25:56 GMT 35.641525 -10.247841 36,000 29 502 0
2018-07-22 17:25:52 GMT 35.632294 -10.254159 36,000 29 502 0
2018-07-22 17:25:46 GMT 35.618282 -10.263743 36,000 29 502 0
2018-07-22 17:25:41 GMT 35.611176 -10.268612 36,000 29 502 0
2018-07-22 17:25:35 GMT 35.596401 -10.278703 36,000 29 502 0
2018-07-22 17:25:30 GMT 35.588951 -10.283788 36,000 29 502 64
2018-07-22 17:25:23 GMT 35.575012 -10.293331 36,000 29 502 0
2018-07-22 17:25:19 GMT 35.566795 -10.298923 36,000 29 503 0
2018-07-22 17:25:13 GMT 35.553154 -10.308215 36,000 29 504 0
2018-07-22 17:25:09 GMT 35.544727 -10.314000 36,000 29 504 0
2018-07-22 17:25:02 GMT 35.531754 -10.322857 36,000 29 504 0
2018-07-22 17:24:58 GMT 35.523872 -10.328259 36,000 29 504 0
2018-07-22 17:24:52 GMT 35.509277 -10.338249 36,000 29 504 0
2018-07-22 17:24:46 GMT 35.499252 -10.345116 36,000 29 504 0
2018-07-22 17:24:40 GMT 35.487213 -10.353355 36,000 29 504 0
2018-07-22 17:24:36 GMT 35.477783 -10.359764 36,000 29 504 0
2018-07-22 17:24:30 GMT 35.464100 -10.369107 36,000 29 504 0
2018-07-22 17:24:25 GMT 35.456604 -10.374249 36,000 29 504 0
2018-07-22 17:24:19 GMT 35.444183 -10.382710 36,000 29 504 0
2018-07-22 17:24:15 GMT 35.436630 -10.387859 36,000 29 504 0
2018-07-22 17:24:09 GMT 35.421642 -10.398092 36,000 29 504 0
2018-07-22 17:24:04 GMT 35.414196 -10.403176 36,000 29 504 0
2018-07-22 17:23:57 GMT 35.396366 -10.415331 36,000 29 504 0
2018-07-22 17:23:45 GMT 35.375381 -10.429688 36,000 29 504 0
2018-07-22 17:23:41 GMT 35.366135 -10.435982 36,000 29 504 0
2018-07-22 17:23:35 GMT 35.353867 -10.444393 36,000 29 504 0
2018-07-22 17:23:32 GMT 35.348511 -10.448056 36,000 29 504 0
2018-07-22 17:23:20 GMT 35.322906 -10.465529 36,000 29 504 0
2018-07-22 17:23:10 GMT 35.303421 -10.478840 36,000 29 504 0
2018-07-22 17:22:59 GMT 35.280304 -10.494576 36,000 29 504 0
2018-07-22 17:22:49 GMT 35.260433 -10.508131 36,000 29 504 0
2018-07-22 17:22:38 GMT 35.238464 -10.523071 36,000 29 504 0
2018-07-22 17:22:27 GMT 35.215744 -10.538464 36,000 29 504 0
2018-07-22 17:22:15 GMT 35.191303 -10.555058 36,000 29 504 0
2018-07-22 17:22:04 GMT 35.168167 -10.570679 36,000 29 504 -64
2018-07-22 17:21:54 GMT 35.147095 -10.584935 36,000 29 504 0
2018-07-22 17:21:43 GMT 35.125580 -10.599508 36,000 29 504 0
2018-07-22 17:21:33 GMT 35.104576 -10.613708 36,000 29 504 0
2018-07-22 17:21:21 GMT 35.079903 -10.630417 36,000 29 503 0
2018-07-22 17:21:11 GMT 35.060028 -10.643846 36,000 29 503 0
2018-07-22 17:21:01 GMT 35.039169 -10.657940 36,000 29 503 0
2018-07-22 17:20:49 GMT 35.016083 -10.673610 36,000 29 503 0
2018-07-22 17:20:39 GMT 34.994991 -10.687981 36,000 29 503 0
2018-07-22 17:20:28 GMT 34.972183 -10.703430 36,000 29 502 0
2018-07-22 17:20:16 GMT 34.949512 -10.718765 36,000 29 502 0
2018-07-22 17:20:05 GMT 34.925583 -10.734876 36,000 28 501 0
2018-07-22 17:19:53 GMT 34.901047 -10.751467 36,000 29 501 0
2018-07-22 17:19:44 GMT 34.884293 -10.762825 36,000 29 500 0
2018-07-22 17:19:34 GMT 34.862923 -10.777245 36,000 29 500 0
2018-07-22 17:19:23 GMT 34.841091 -10.792007 36,000 29 501 0
2018-07-22 17:19:11 GMT 34.817070 -10.808201 36,000 29 500 0
2018-07-22 17:19:01 GMT 34.796173 -10.822206 36,000 28 500 0
2018-07-22 17:18:48 GMT 34.770657 -10.839329 36,000 28 500 0
2018-07-22 17:18:45 GMT 34.763855 -10.843842 36,000 28 500 0
2018-07-22 17:18:39 GMT 34.751450 -10.852194 36,000 28 500 0
2018-07-22 17:18:28 GMT 34.728516 -10.867552 36,000 28 500 0
2018-07-22 17:18:18 GMT 34.709862 -10.879955 36,000 28 499 0
2018-07-22 17:18:05 GMT 34.682301 -10.898380 36,000 28 500 0
2018-07-22 17:17:59 GMT 34.671432 -10.905668 36,000 28 500 0
2018-07-22 17:17:56 GMT 34.665356 -10.909710 36,000 28 500 0
2018-07-22 17:17:46 GMT 34.643383 -10.924416 36,000 28 500 0
2018-07-22 17:17:35 GMT 34.621353 -10.939132 36,000 28 499 0
2018-07-22 17:17:25 GMT 34.598923 -10.954098 36,000 28 500 0
2018-07-22 17:17:12 GMT 34.576126 -10.969344 36,000 28 500 0
2018-07-22 17:17:03 GMT 34.556580 -10.982348 36,000 28 499 0
2018-07-22 17:16:52 GMT 34.534424 -10.997090 36,000 28 499 0
2018-07-22 17:16:42 GMT 34.502563 -11.018200 36,000 28 499 0
2018-07-22 17:16:25 GMT 34.480728 -11.032562 36,000 28 500 0
2018-07-22 17:16:15 GMT 34.459763 -11.046361 36,000 28 500 0
2018-07-22 17:16:09 GMT 34.446808 -11.054937 36,000 28 500 0
2018-07-22 17:15:47 GMT 34.403221 -11.083832 36,000 28 499 0
2018-07-22 17:15:35 GMT 34.379620 -11.099510 36,000 28 500 -64
2018-07-22 17:15:25 GMT 34.358624 -11.113472 36,000 28 500 0
2018-07-22 17:15:10 GMT 34.327293 -11.134300 36,000 28 499 0
2018-07-22 17:14:53 GMT 34.294006 -11.156336 36,000 28 499 0
2018-07-22 17:14:50 GMT 34.284607 -11.162510 36,000 28 499 0
2018-07-22 17:14:41 GMT 34.270176 -11.172009 36,000 28 498 0
2018-07-22 17:14:31 GMT 34.247971 -11.186600 36,000 28 498 0
2018-07-22 17:14:28 GMT 34.242104 -11.190491 36,000 28 498 0
2018-07-22 17:14:21 GMT 34.229397 -11.198845 36,000 28 498 0
2018-07-22 17:14:15 GMT 34.217422 -11.206727 36,000 28 498 0
2018-07-22 17:14:10 GMT 34.206940 -11.213622 36,000 28 498 0
2018-07-22 17:14:05 GMT 34.195816 -11.220965 36,000 28 498 0
2018-07-22 17:14:00 GMT 34.185822 -11.227570 36,000 28 498 0
2018-07-22 17:13:55 GMT 34.173340 -11.235763 36,000 28 498 0
2018-07-22 17:13:49 GMT 34.164410 -11.241646 36,000 28 498 0
2018-07-22 17:13:43 GMT 34.150768 -11.250629 36,000 28 498 0
2018-07-22 17:13:38 GMT 34.141689 -11.256638 36,000 28 498 0
2018-07-22 17:13:32 GMT 34.129539 -11.264648 36,000 28 498 0
2018-07-22 17:13:27 GMT 34.120239 -11.270739 36,000 28 498 0
2018-07-22 17:13:23 GMT 34.109253 -11.277970 36,000 28 498 0
2018-07-22 17:13:16 GMT 34.097794 -11.285477 36,000 28 498 0
2018-07-22 17:13:11 GMT 34.087051 -11.292544 36,000 28 498 0
2018-07-22 17:13:05 GMT 34.075195 -11.300335 36,000 28 498 0
2018-07-22 17:12:55 GMT 34.053726 -11.314461 36,000 28 498 0
2018-07-22 17:12:43 GMT 34.030991 -11.329422 36,000 28 498 0
2018-07-22 17:12:34 GMT 34.011703 -11.342095 36,000 28 498 0
2018-07-22 17:12:23 GMT 33.990372 -11.356108 36,000 28 498 0
2018-07-22 17:12:13 GMT 33.968719 -11.370289 36,000 28 498 0
2018-07-22 17:12:02 GMT 33.947067 -11.384526 36,000 28 498 0
2018-07-22 17:11:50 GMT 33.923538 -11.399941 36,000 28 498 0
2018-07-22 17:11:39 GMT 33.899944 -11.415424 36,000 28 498 -64
2018-07-22 17:11:31 GMT 33.882442 -11.426926 36,000 28 498 0
2018-07-22 17:11:28 GMT 33.879181 -11.429043 36,000 28 498 0
2018-07-22 17:11:20 GMT 33.859722 -11.441803 36,000 28 498 0
2018-07-22 17:11:08 GMT 33.837891 -11.456162 36,000 28 496 0
2018-07-22 17:10:58 GMT 33.817200 -11.469727 36,000 28 497 0
2018-07-22 17:10:48 GMT 33.795853 -11.483688 36,000 28 497 0
2018-07-22 17:10:37 GMT 33.773987 -11.497977 36,000 28 497 0
2018-07-22 17:10:25 GMT 33.750824 -11.512999 36,000 28 497 0
2018-07-22 17:10:14 GMT 33.729858 -11.526564 36,000 28 496 -64
2018-07-22 17:10:04 GMT 33.708942 -11.540051 36,000 28 496 0
2018-07-22 17:09:54 GMT 33.687805 -11.553783 36,000 28 496 0
2018-07-22 17:09:44 GMT 33.665878 -11.567974 36,000 28 496 0
2018-07-22 17:09:33 GMT 33.645210 -11.581364 36,000 28 496 0
2018-07-22 17:09:21 GMT 33.622120 -11.596298 36,000 28 496 0
2018-07-22 17:09:11 GMT 33.602005 -11.609242 36,000 28 496 0
2018-07-22 17:09:01 GMT 33.581108 -11.622734 36,000 28 497 0
2018-07-22 17:08:51 GMT 33.558929 -11.636932 36,000 28 497 0
2018-07-22 17:08:40 GMT 33.538147 -11.650287 36,000 28 497 0
2018-07-22 17:08:30 GMT 33.516262 -11.664342 36,000 28 496 0
2018-07-22 17:08:19 GMT 33.495255 -11.677863 36,000 28 496 0
2018-07-22 17:08:07 GMT 33.472641 -11.692474 36,000 28 496 0
2018-07-22 17:07:56 GMT 33.449341 -11.707745 36,000 28 496 0
2018-07-22 17:07:46 GMT 33.429016 -11.721094 36,000 28 496 0
2018-07-22 17:07:35 GMT 33.407684 -11.734991 36,000 28 496 0
2018-07-22 17:07:25 GMT 33.386612 -11.748589 36,000 28 496 0
2018-07-22 17:07:15 GMT 33.365200 -11.762546 36,000 28 495 0
2018-07-22 17:07:03 GMT 33.343647 -11.776559 36,000 28 494 0
2018-07-22 17:06:54 GMT 33.322037 -11.790637 36,000 28 494 0
2018-07-22 17:06:42 GMT 33.301163 -11.804260 36,000 28 495 0
2018-07-22 17:06:31 GMT 33.278938 -11.818655 36,000 28 494 0
2018-07-22 17:06:21 GMT 33.258362 -11.831891 36,000 28 494 0
2018-07-22 17:06:11 GMT 33.236156 -11.846120 36,000 28 493 0
2018-07-22 17:05:59 GMT 33.214928 -11.859741 36,000 28 494 0
2018-07-22 17:05:50 GMT 33.195099 -11.872485 36,000 28 494 0
2018-07-22 17:05:43 GMT 33.177155 -11.884021 36,000 28 494 0
2018-07-22 17:05:38 GMT 33.171078 -11.887880 36,000 28 494 0
2018-07-22 17:05:22 GMT 33.138611 -11.908795 36,000 28 493 0
2018-07-22 17:05:02 GMT 33.099152 -11.934123 36,000 28 493 -64
2018-07-22 17:04:52 GMT 33.075577 -11.949225 36,000 28 493 -64
2018-07-22 17:04:41 GMT 33.055813 -11.961813 36,000 28 493 0
2018-07-22 17:04:25 GMT 33.021378 -11.983832 36,000 28 493 0
2018-07-22 17:04:01 GMT 32.974857 -12.013494 36,000 28 492 0
2018-07-22 17:03:49 GMT 32.951752 -12.028217 36,000 28 493 0
2018-07-22 17:01:37 GMT 32.683319 -12.198669 36,000 28 489 0
2018-07-22 17:01:34 GMT 32.678226 -12.201943 36,000 28 489 0
2018-07-22 17:01:21 GMT 32.656082 -12.215973 36,000 28 488 0
2018-07-22 17:01:14 GMT 32.639328 -12.226685 36,000 28 488 0
2018-07-22 17:01:00 GMT 32.612411 -12.243768 36,000 28 488 0
2018-07-22 17:00:52 GMT 32.597740 -12.253119 36,000 28 487 0
2018-07-22 17:00:38 GMT 32.569382 -12.271014 36,000 28 487 0
2018-07-22 17:00:25 GMT 32.543877 -12.287199 36,000 28 486 0
2018-07-22 17:00:20 GMT 32.532440 -12.294415 36,000 28 486 0
2018-07-22 16:59:59 GMT 32.488678 -12.322046 36,000 28 486 0
2018-07-22 16:59:39 GMT 32.450363 -12.346216 36,000 28 485 0
2018-07-22 16:59:08 GMT 32.390675 -12.383834 36,000 28 485 0
2018-07-22 16:58:59 GMT 32.371994 -12.395599 36,000 28 484 0
2018-07-22 16:58:53 GMT 32.360184 -12.403004 36,000 28 484 0
2018-07-22 16:58:45 GMT 32.344986 -12.412518 36,000 27 484 0
2018-07-22 16:58:23 GMT 32.300037 -12.440671 36,000 27 484 0
2018-07-22 16:58:11 GMT 32.276138 -12.455585 36,000 27 484 0
2018-07-22 16:58:02 GMT 32.261166 -12.464942 36,000 27 484 0
2018-07-22 16:57:39 GMT 32.213654 -12.494531 36,000 27 483 0
2018-07-22 16:57:33 GMT 32.199253 -12.503450 36,000 27 484 0
2018-07-22 16:57:19 GMT 32.174671 -12.518753 36,000 27 483 0
2018-07-22 16:56:20 GMT 32.055405 -12.593353 36,000 28 484 0
2018-07-22 16:56:09 GMT 32.034851 -12.606262 36,000 28 484 0
2018-07-22 16:56:06 GMT 32.031849 -12.608157 36,000 28 484 0
2018-07-22 16:55:58 GMT 32.013565 -12.619611 36,000 28 484 0
2018-07-22 16:55:55 GMT 32.010017 -12.621834 36,000 28 484 0
2018-07-22 16:55:47 GMT 31.993677 -12.632091 36,000 28 484 0
2018-07-22 16:55:38 GMT 31.974152 -12.644330 36,000 28 484 0
2018-07-22 16:55:27 GMT 31.954742 -12.656470 36,000 27 485 0
2018-07-22 16:55:17 GMT 31.934090 -12.669254 36,000 27 485 0
2018-07-22 16:55:14 GMT 31.927597 -12.673334 36,000 27 485 0
2018-07-22 16:55:03 GMT 31.906672 -12.686294 36,000 27 486 0
2018-07-22 16:54:56 GMT 31.892029 -12.695416 36,000 27 486 0
2018-07-22 16:54:52 GMT 31.885025 -12.699756 36,000 27 486 0
2018-07-22 16:54:46 GMT 31.871199 -12.708323 36,000 27 487 0
2018-07-22 16:54:31 GMT 31.842102 -12.726372 36,000 27 488 0
2018-07-22 16:54:19 GMT 31.818687 -12.740946 36,000 27 488 0
2018-07-22 16:54:11 GMT 31.802353 -12.751117 36,000 27 488 0
2018-07-22 16:54:02 GMT 31.781771 -12.763927 36,000 28 489 0
2018-07-22 16:53:56 GMT 31.772787 -12.769476 36,000 27 490 0
2018-07-22 16:53:48 GMT 31.756668 -12.779523 36,000 27 490 0
2018-07-22 16:53:44 GMT 31.746437 -12.785834 36,000 27 490 0
2018-07-22 16:53:26 GMT 31.711943 -12.807202 36,000 27 491 0
2018-07-22 16:53:21 GMT 31.699539 -12.814852 36,000 27 491 0
2018-07-22 16:53:16 GMT 31.691925 -12.819562 36,000 27 491 0
2018-07-22 16:52:57 GMT 31.653259 -12.843502 36,000 27 491 0
2018-07-22 16:52:46 GMT 31.631361 -12.856970 36,000 27 491 -64
2018-07-22 16:52:42 GMT 31.623308 -12.861914 36,000 27 491 0
2018-07-22 16:52:39 GMT 31.616364 -12.866175 36,000 27 492 0
2018-07-22 16:52:33 GMT 31.604919 -12.873284 36,000 27 492 0
2018-07-22 16:52:25 GMT 31.589310 -12.882924 36,000 27 492 0
2018-07-22 16:52:22 GMT 31.583738 -12.886359 36,000 27 492 0
2018-07-22 16:52:17 GMT 31.573404 -12.892731 36,000 27 492 0
2018-07-22 16:52:10 GMT 31.556351 -12.903281 36,000 27 492 0
2018-07-22 16:51:55 GMT 31.528885 -12.920245 36,000 27 492 0
2018-07-22 16:51:51 GMT 31.521469 -12.924769 36,000 27 492 0
2018-07-22 16:51:23 GMT 31.462330 -12.961176 36,000 27 492 0
2018-07-22 16:51:11 GMT 31.438705 -12.975715 36,000 27 492 0
2018-07-22 16:51:07 GMT 31.431931 -12.979852 36,000 27 491 64
2018-07-22 16:51:04 GMT 31.426531 -12.983203 36,000 27 491 64
2018-07-22 16:50:58 GMT 31.414673 -12.990471 36,000 27 492 0
2018-07-22 16:50:47 GMT 31.393295 -13.003612 36,000 27 492 0
2018-07-22 16:50:36 GMT 31.370270 -13.017722 36,000 27 492 0
2018-07-22 16:50:30 GMT 31.357122 -13.025775 36,000 27 492 0
2018-07-22 16:50:26 GMT 31.349670 -13.030324 36,000 27 492 0
2018-07-22 16:50:23 GMT 31.342712 -13.034578 36,000 27 492 0
2018-07-22 16:50:15 GMT 31.327887 -13.043628 36,000 27 492 0
2018-07-22 16:50:11 GMT 31.316948 -13.050330 36,000 27 492 -64
2018-07-22 16:50:04 GMT 31.306288 -13.056812 36,000 27 492 0
2018-07-22 16:49:56 GMT 31.290344 -13.066568 36,000 27 492 0
2018-07-22 16:49:41 GMT 31.257315 -13.086694 36,000 27 492 0
2018-07-22 16:49:33 GMT 31.242416 -13.095758 36,000 27 491 0
2018-07-22 16:49:30 GMT 31.235870 -13.099688 36,000 27 491 0
2018-07-22 16:49:20 GMT 31.216162 -13.111633 36,000 27 491 0
2018-07-22 16:49:17 GMT 31.208061 -13.116577 36,000 27 491 0
2018-07-22 16:49:10 GMT 31.196136 -13.123761 36,000 27 491 0
2018-07-22 16:48:58 GMT 31.167328 -13.141296 36,000 27 491 0
2018-07-22 16:48:50 GMT 31.156036 -13.148157 36,000 27 491 0
2018-07-22 16:48:47 GMT 31.147869 -13.153162 36,000 27 491 0
2018-07-22 16:48:39 GMT 31.131134 -13.163398 36,000 27 491 0
2018-07-22 16:48:29 GMT 31.114073 -13.173816 36,000 27 490 0
2018-07-22 16:48:26 GMT 31.107090 -13.178046 36,000 27 490 0
2018-07-22 16:48:22 GMT 31.099594 -13.182605 36,000 27 490 0
2018-07-22 16:48:18 GMT 31.092426 -13.187000 36,000 27 490 0
2018-07-22 16:48:07 GMT 31.069242 -13.201117 36,000 27 489 0
2018-07-22 16:48:01 GMT 31.057663 -13.208205 36,000 27 489 0
2018-07-22 16:47:56 GMT 31.047821 -13.214183 36,000 27 489 0
2018-07-22 16:47:50 GMT 31.034729 -13.222207 36,000 27 489 0
2018-07-22 16:47:43 GMT 31.022366 -13.229791 36,000 27 489 0
2018-07-22 16:47:40 GMT 31.014870 -13.234351 36,000 27 488 0
2018-07-22 16:47:29 GMT 30.993176 -13.247644 36,000 27 488 0
2018-07-22 16:47:24 GMT 30.983074 -13.253796 36,000 27 488 0
2018-07-22 16:47:18 GMT 30.971832 -13.260713 36,000 27 488 0
2018-07-22 16:47:12 GMT 30.959747 -13.268092 36,000 27 488 0
2018-07-22 16:47:07 GMT 30.950115 -13.273956 36,000 27 488 0
2018-07-22 16:47:02 GMT 30.940201 -13.280047 36,000 27 487 0
2018-07-22 16:46:55 GMT 30.925489 -13.289008 36,000 27 487 0
2018-07-22 16:46:52 GMT 30.918739 -13.293127 36,000 27 487 0
2018-07-22 16:46:43 GMT 30.899794 -13.304663 36,000 27 487 0
2018-07-22 16:46:40 GMT 30.894241 -13.308052 36,000 27 487 0
2018-07-22 16:46:34 GMT 30.883667 -13.314406 36,000 27 487 0
2018-07-22 16:46:30 GMT 30.876423 -13.318781 36,000 27 487 0
2018-07-22 16:46:24 GMT 30.863203 -13.326801 36,000 27 486 0
2018-07-22 16:46:18 GMT 30.852585 -13.333202 36,000 27 486 0
2018-07-22 16:46:13 GMT 30.841696 -13.339764 36,000 27 485 0
2018-07-22 16:46:09 GMT 30.833862 -13.344511 36,000 27 485 0
2018-07-22 16:46:02 GMT 30.819490 -13.353168 36,000 27 485 0
2018-07-22 16:45:58 GMT 30.811111 -13.358221 36,000 27 485 -64
2018-07-22 16:45:52 GMT 30.799240 -13.365363 36,000 27 485 0
2018-07-22 16:45:41 GMT 30.777452 -13.378491 36,000 27 485 0
2018-07-22 16:45:33 GMT 30.762695 -13.387390 36,000 27 485 0
2018-07-22 16:45:30 GMT 30.756365 -13.391180 36,000 27 485 0
2018-07-22 16:45:27 GMT 30.749430 -13.395355 36,000 27 485 0
2018-07-22 16:45:20 GMT 30.735947 -13.403428 36,000 27 485 0
2018-07-22 16:45:15 GMT 30.725780 -13.409583 36,000 27 485 0
2018-07-22 16:45:10 GMT 30.714890 -13.416084 36,000 27 485 0
2018-07-22 16:44:59 GMT 30.694311 -13.428479 36,000 28 485 0
2018-07-22 16:44:54 GMT 30.684677 -13.434718 36,000 30 485 0
2018-07-22 16:44:49 GMT 30.673737 -13.442365 36,000 32 486 0
2018-07-22 16:44:43 GMT 30.663208 -13.450335 36,000 34 487 0
2018-07-22 16:44:38 GMT 30.653112 -13.458417 36,000 34 487 0
2018-07-22 16:44:33 GMT 30.644257 -13.465468 36,000 34 487 0
2018-07-22 16:44:30 GMT 30.638672 -13.469885 36,000 34 487 0
2018-07-22 16:44:27 GMT 30.634277 -13.473439 36,000 34 487 0
2018-07-22 16:44:22 GMT 30.624762 -13.480994 36,000 34 487 0
2018-07-22 16:44:14 GMT 30.608049 -13.494397 36,000 34 486 0
2018-07-22 16:44:11 GMT 30.604000 -13.497583 36,000 34 486 0
2018-07-22 16:44:04 GMT 30.588135 -13.510329 36,000 34 486 0
2018-07-22 16:43:58 GMT 30.580307 -13.516576 36,000 34 486 0
2018-07-22 16:43:55 GMT 30.574219 -13.521423 36,000 34 487 0
2018-07-22 16:43:51 GMT 30.566345 -13.527724 36,000 34 486 0
2018-07-22 16:43:41 GMT 30.547207 -13.542957 36,000 34 486 0
2018-07-22 16:43:34 GMT 30.535568 -13.552185 36,000 34 487 0
2018-07-22 16:43:30 GMT 30.526909 -13.558997 36,000 34 486 0
2018-07-22 16:43:25 GMT 30.515442 -13.568008 36,000 34 486 0
2018-07-22 16:43:22 GMT 30.510801 -13.571631 36,000 34 486 0
2018-07-22 16:43:19 GMT 30.507263 -13.574432 36,000 34 486 0
2018-07-22 16:43:13 GMT 30.492645 -13.585887 36,000 34 486 0
2018-07-22 16:43:08 GMT 30.486603 -13.590573 36,000 34 486 0
2018-07-22 16:43:02 GMT 30.475561 -13.599261 36,000 34 486 0
2018-07-22 16:42:58 GMT 30.467789 -13.605275 36,000 34 486 0
2018-07-22 16:42:50 GMT 30.452658 -13.617114 36,000 34 486 0
2018-07-22 16:42:44 GMT 30.441971 -13.625470 36,000 34 486 0
2018-07-22 16:42:41 GMT 30.435806 -13.630243 36,000 34 486 0
2018-07-22 16:42:31 GMT 30.417160 -13.644858 36,000 34 486 0
2018-07-22 16:42:25 GMT 30.405807 -13.653690 36,000 34 486 0
2018-07-22 16:42:21 GMT 30.397121 -13.660510 36,000 34 487 0
2018-07-22 16:42:14 GMT 30.385298 -13.669794 36,000 34 487 0
2018-07-22 16:42:10 GMT 30.375475 -13.677484 36,000 34 487 0
2018-07-22 16:42:02 GMT 30.363693 -13.686703 36,000 34 487 0
2018-07-22 16:41:58 GMT 30.356506 -13.692358 36,000 34 487 0
2018-07-22 16:41:52 GMT 30.344238 -13.701984 36,000 34 487 0
2018-07-22 16:41:48 GMT 30.337023 -13.707642 36,000 34 487 0
2018-07-22 16:41:42 GMT 30.326130 -13.716266 36,000 34 487 0
2018-07-22 16:41:37 GMT 30.317413 -13.723109 36,000 34 487 0
2018-07-22 16:41:28 GMT 30.297918 -13.738458 36,000 34 488 0
2018-07-22 16:41:20 GMT 30.282417 -13.750708 36,000 34 488 0
2018-07-22 16:41:17 GMT 30.277130 -13.754883 36,000 34 488 0
2018-07-22 16:41:10 GMT 30.265915 -13.763661 36,000 34 489 0
2018-07-22 16:41:06 GMT 30.258179 -13.769801 36,000 34 488 0
2018-07-22 16:40:58 GMT 30.242340 -13.782133 36,000 34 489 0
2018-07-22 16:40:55 GMT 30.237442 -13.786011 36,000 34 488 0
2018-07-22 16:40:48 GMT 30.223108 -13.797180 36,000 34 489 0
2018-07-22 16:40:44 GMT 30.216339 -13.802436 36,000 34 489 0
2018-07-22 16:40:37 GMT 30.203697 -13.812341 36,000 34 489 0
2018-07-22 16:40:33 GMT 30.196930 -13.817623 36,000 34 489 0
2018-07-22 16:40:26 GMT 30.181091 -13.830064 36,000 34 490 0
2018-07-22 16:40:23 GMT 30.176277 -13.833820 36,000 34 490 0
2018-07-22 16:40:18 GMT 30.168182 -13.840135 36,000 34 490 0
2018-07-22 16:40:12 GMT 30.156960 -13.848871 36,000 34 490 0
2018-07-22 16:40:07 GMT 30.148407 -13.855483 36,000 34 490 0
2018-07-22 16:40:02 GMT 30.137009 -13.864369 36,000 34 491 0
2018-07-22 16:39:54 GMT 30.122511 -13.875677 36,000 34 491 0
2018-07-22 16:39:51 GMT 30.117371 -13.879664 36,000 34 491 0
2018-07-22 16:39:44 GMT 30.102173 -13.891458 36,000 34 491 0
2018-07-22 16:39:41 GMT 30.096581 -13.895837 36,000 34 491 0
2018-07-22 16:39:34 GMT 30.084337 -13.905341 36,000 34 491 -128
2018-07-22 16:39:29 GMT 30.076796 -13.911218 36,025 34 491 -128
2018-07-22 16:39:23 GMT 30.065048 -13.920324 35,825 34 489 768
2018-07-22 16:39:19 GMT 30.057337 -13.926324 35,950 34 489 704
2018-07-22 16:39:13 GMT 30.045698 -13.935333 35,875 34 489 704
2018-07-22 16:39:09 GMT 30.036760 -13.942200 35,825 34 489 768
2018-07-22 16:39:02 GMT 30.026230 -13.950375 35,700 33 489 832
2018-07-22 16:38:57 GMT 30.017258 -13.957322 35,675 33 489 832
2018-07-22 16:38:51 GMT 30.004919 -13.966919 35,600 34 489 832
2018-07-22 16:38:47 GMT 29.997253 -13.972832 35,525 34 489 832
2018-07-22 16:38:41 GMT 29.986038 -13.981503 35,450 34 489 768
2018-07-22 16:38:36 GMT 29.976379 -13.988989 35,400 33 489 832
2018-07-22 16:38:30 GMT 29.964706 -13.997982 35,300 33 489 832
2018-07-22 16:38:25 GMT 29.956318 -14.004437 35,250 33 489 832
2018-07-22 16:38:19 GMT 29.945564 -14.012732 35,175 33 489 768
2018-07-22 16:38:15 GMT 29.936720 -14.019598 35,100 33 489 832
2018-07-22 16:38:08 GMT 29.925018 -14.028625 35,025 33 488 768
2018-07-22 16:38:04 GMT 29.916458 -14.035196 34,950 33 487 832
2018-07-22 16:38:01 GMT 29.908369 -14.041497 34,900 33 487 832
2018-07-22 16:37:57 GMT 29.902830 -14.045751 34,850 33 487 832
2018-07-22 16:37:54 GMT 29.895569 -14.051352 34,800 33 487 832
2018-07-22 16:37:48 GMT 29.886444 -14.058407 34,750 33 487 832
2018-07-22 16:37:43 GMT 29.876434 -14.066108 34,675 33 487 896
2018-07-22 16:37:37 GMT 29.866699 -14.073698 34,600 33 487 832
2018-07-22 16:37:32 GMT 29.856400 -14.081673 34,525 34 486 832
2018-07-22 16:37:27 GMT 29.847198 -14.088804 34,375 34 486 832
2018-07-22 16:37:21 GMT 29.835754 -14.097677 34,350 34 486 832
2018-07-22 16:37:14 GMT 29.824127 -14.106709 34,275 34 485 768
2018-07-22 16:37:11 GMT 29.817081 -14.112154 34,225 34 485 768
2018-07-22 16:37:05 GMT 29.805956 -14.120771 34,150 33 484 960
2018-07-22 16:37:01 GMT 29.797394 -14.127467 34,075 33 484 960
2018-07-22 16:36:54 GMT 29.786636 -14.135760 33,975 34 485 1088
2018-07-22 16:36:50 GMT 29.777557 -14.142797 33,875 34 485 1088
2018-07-22 16:36:44 GMT 29.767317 -14.150768 33,775 34 485 1088
2018-07-22 16:36:39 GMT 29.757355 -14.158469 33,675 34 485 1088
2018-07-22 16:36:33 GMT 29.746262 -14.167081 33,575 34 485 1216
2018-07-22 16:36:29 GMT 29.738388 -14.173156 33,475 34 486 1280
2018-07-22 16:36:22 GMT 29.726397 -14.182434 33,350 34 486 1216
2018-07-22 16:36:18 GMT 29.718390 -14.188627 33,275 34 486 1152
2018-07-22 16:36:12 GMT 29.707312 -14.197190 33,150 33 487 1280
2018-07-22 16:36:07 GMT 29.698792 -14.203791 33,050 33 487 1216
2018-07-22 16:36:01 GMT 29.687527 -14.212485 32,925 33 487 1280
2018-07-22 16:35:55 GMT 29.672562 -14.224020 32,750 33 488 1280
2018-07-22 16:35:49 GMT 29.664948 -14.229880 32,675 33 488 1344
2018-07-22 16:35:45 GMT 29.657173 -14.235858 32,575 33 489 1344
2018-07-22 16:35:40 GMT 29.648050 -14.242913 32,475 33 489 1280
2018-07-22 16:35:34 GMT 29.636412 -14.251853 32,325 34 489 1216
2018-07-22 16:35:30 GMT 29.627939 -14.258423 32,250 34 489 1216
2018-07-22 16:35:23 GMT 29.616116 -14.267524 32,075 33 490 1216
2018-07-22 16:35:18 GMT 29.605682 -14.275519 32,000 33 490 1152
2018-07-22 16:35:13 GMT 29.596436 -14.282649 31,825 33 490 1152
2018-07-22 16:35:08 GMT 29.587532 -14.289497 31,825 33 490 1152
2018-07-22 16:35:00 GMT 29.570122 -14.302853 31,650 33 489 1152
2018-07-22 16:34:57 GMT 29.566164 -14.305923 31,550 33 489 1152
2018-07-22 16:34:51 GMT 29.556061 -14.313707 31,350 33 489 1152
2018-07-22 16:34:47 GMT 29.547272 -14.320467 31,400 33 489 1152
2018-07-22 16:34:42 GMT 29.536926 -14.328390 31,150 33 489 1024
2018-07-22 16:34:35 GMT 29.524704 -14.337845 31,175 33 489 1216
2018-07-22 16:34:31 GMT 29.516912 -14.343782 31,075 33 488 1280
2018-07-22 16:34:25 GMT 29.506668 -14.351631 30,950 33 488 1344
2018-07-22 16:34:20 GMT 29.496010 -14.359777 30,825 33 489 1472
2018-07-22 16:34:15 GMT 29.487534 -14.366314 30,725 33 489 1088
2018-07-22 16:34:09 GMT 29.476877 -14.374426 30,650 33 488 960
2018-07-22 16:34:04 GMT 29.467346 -14.381737 30,575 33 488 896
2018-07-22 16:33:59 GMT 29.456772 -14.389766 30,475 33 486 896
2018-07-22 16:33:52 GMT 29.445236 -14.398587 30,400 33 485 896
2018-07-22 16:33:48 GMT 29.437588 -14.404476 30,325 33 484 896
2018-07-22 16:33:41 GMT 29.423721 -14.415013 30,200 33 483 960
2018-07-22 16:33:37 GMT 29.416351 -14.420665 30,150 33 483 960
2018-07-22 16:33:32 GMT 29.407515 -14.427418 30,075 33 482 960
2018-07-22 16:33:28 GMT 29.397924 -14.434743 30,000 33 480 960
2018-07-22 16:33:21 GMT 29.387264 -14.442875 29,900 33 480 896
2018-07-22 16:33:17 GMT 29.376984 -14.450719 29,825 33 478 832
2018-07-22 16:33:11 GMT 29.368332 -14.457268 29,750 33 477 896
2018-07-22 16:33:06 GMT 29.358028 -14.465170 29,675 33 475 896
2018-07-22 16:33:00 GMT 29.348373 -14.472533 29,600 33 475 832
2018-07-22 16:32:55 GMT 29.338850 -14.479765 29,525 33 473 896
2018-07-22 16:32:50 GMT 29.329559 -14.486900 29,450 33 472 896
2018-07-22 16:32:44 GMT 29.319204 -14.494790 29,350 33 471 1024
2018-07-22 16:32:39 GMT 29.310242 -14.501583 29,275 33 470 1088
2018-07-22 16:32:34 GMT 29.300072 -14.509331 29,175 33 469 1088
2018-07-22 16:32:28 GMT 29.290649 -14.516531 29,075 33 468 1152
2018-07-22 16:32:24 GMT 29.280899 -14.523979 28,975 33 467 1088
2018-07-22 16:32:18 GMT 29.271561 -14.531162 28,875 33 467 1216
2018-07-22 16:32:13 GMT 29.262314 -14.538187 28,775 33 465 1152
2018-07-22 16:32:08 GMT 29.253147 -14.545198 28,675 33 465 1088
2018-07-22 16:32:03 GMT 29.242811 -14.553061 28,575 33 464 1216
2018-07-22 16:31:56 GMT 29.231873 -14.561409 28,450 33 462 1216
2018-07-22 16:31:52 GMT 29.224705 -14.566902 28,375 33 462 1152
2018-07-22 16:31:45 GMT 29.213516 -14.575424 28,250 33 462 1216
2018-07-22 16:31:42 GMT 29.206083 -14.581065 28,150 33 461 1280
2018-07-22 16:31:35 GMT 29.194258 -14.590059 28,025 33 460 1152
2018-07-22 16:31:31 GMT 29.187515 -14.595231 27,950 33 459 1152
2018-07-22 16:31:24 GMT 29.175705 -14.604158 27,800 33 458 1280
2018-07-22 16:31:21 GMT 29.168472 -14.609651 27,725 33 457 1280
2018-07-22 16:31:14 GMT 29.157482 -14.618064 27,575 33 457 1408
2018-07-22 16:31:09 GMT 29.149288 -14.624257 27,475 33 456 1280
2018-07-22 16:31:00 GMT 29.131413 -14.637828 27,275 33 454 1344
2018-07-22 16:30:52 GMT 29.120148 -14.646391 27,125 33 454 1344
2018-07-22 16:30:48 GMT 29.112606 -14.652100 27,025 33 453 1344
2018-07-22 16:30:42 GMT 29.102005 -14.660146 26,875 33 452 1536
2018-07-22 16:30:38 GMT 29.094172 -14.666102 26,775 33 452 1472
2018-07-22 16:30:31 GMT 29.083191 -14.674407 26,625 33 451 1344
2018-07-22 16:30:27 GMT 29.075729 -14.680058 26,525 33 451 1408
2018-07-22 16:30:21 GMT 29.064796 -14.688344 26,350 33 450 1536
2018-07-22 16:30:16 GMT 29.056835 -14.694375 26,250 33 450 1536
2018-07-22 16:30:10 GMT 29.045425 -14.703035 26,100 33 449 1536
2018-07-22 16:30:07 GMT 29.037050 -14.709401 25,950 33 449 1536
2018-07-22 16:29:59 GMT 29.027252 -14.716820 25,800 33 449 1536
2018-07-22 16:29:55 GMT 29.019470 -14.722736 25,675 33 448 1600
2018-07-22 16:29:49 GMT 29.009445 -14.730342 25,525 33 447 1600
2018-07-22 16:29:45 GMT 29.001389 -14.736416 25,400 33 447 1536
2018-07-22 16:29:39 GMT 28.991776 -14.743705 25,275 33 447 1600
2018-07-22 16:29:33 GMT 28.982725 -14.750600 25,125 33 446 1600
2018-07-22 16:29:28 GMT 28.973509 -14.757547 24,975 33 445 1408
2018-07-22 16:29:23 GMT 28.965128 -14.763902 24,875 33 444 1408
2018-07-22 16:29:17 GMT 28.954142 -14.772195 24,725 33 443 1600
2018-07-22 16:29:13 GMT 28.947113 -14.777527 24,600 33 442 1536
2018-07-22 16:29:06 GMT 28.936081 -14.785820 24,450 33 442 1536
2018-07-22 16:29:03 GMT 28.929377 -14.790883 24,350 33 441 1472
2018-07-22 16:28:56 GMT 28.918016 -14.799500 24,175 33 439 1472
2018-07-22 16:28:51 GMT 28.910706 -14.805028 24,075 33 439 1472
2018-07-22 16:28:45 GMT 28.899857 -14.813215 23,925 33 437 1408
2018-07-22 16:28:42 GMT 28.893082 -14.818338 23,825 33 436 1472
2018-07-22 16:28:34 GMT 28.881638 -14.827053 23,675 33 434 1472
2018-07-22 16:28:30 GMT 28.875376 -14.831651 23,575 32 433 1344
2018-07-22 16:28:24 GMT 28.864151 -14.839202 23,450 29 432 1344
2018-07-22 16:28:20 GMT 28.857330 -14.843533 23,350 28 430 1408
2018-07-22 16:28:13 GMT 28.844837 -14.851254 23,200 28 428 1472
2018-07-22 16:28:09 GMT 28.836643 -14.856370 23,075 28 426 1152
2018-07-22 16:28:02 GMT 28.826496 -14.862617 22,975 28 424 1088
2018-07-22 16:27:58 GMT 28.818787 -14.867407 22,900 28 422 1216
2018-07-22 16:27:51 GMT 28.808029 -14.874009 22,750 28 420 1472
2018-07-22 16:27:47 GMT 28.800426 -14.878720 22,625 28 418 1536
2018-07-22 16:27:41 GMT 28.789673 -14.885313 22,475 28 417 1600
2018-07-22 16:27:37 GMT 28.782318 -14.889867 22,350 28 416 1600
2018-07-22 16:27:30 GMT 28.772308 -14.896007 22,200 28 415 1600
2018-07-22 16:27:26 GMT 28.764721 -14.900692 22,100 28 413 1600
2018-07-22 16:27:20 GMT 28.754700 -14.906863 21,925 28 412 1536
2018-07-22 16:27:15 GMT 28.746241 -14.912109 21,800 28 409 1600
2018-07-22 16:27:09 GMT 28.737022 -14.917818 21,650 28 409 1600
2018-07-22 16:27:04 GMT 28.728365 -14.923203 21,525 28 407 1536
2018-07-22 16:26:59 GMT 28.719223 -14.928835 21,375 28 405 1600
2018-07-22 16:26:54 GMT 28.711372 -14.933705 21,250 28 404 1728
2018-07-22 16:26:48 GMT 28.701508 -14.939822 21,075 28 403 1728
2018-07-22 16:26:43 GMT 28.693863 -14.944575 20,925 28 402 1728
2018-07-22 16:26:37 GMT 28.684204 -14.950544 20,750 28 400 1728
2018-07-22 16:26:33 GMT 28.676651 -14.955245 20,625 28 400 1792
2018-07-22 16:26:27 GMT 28.667725 -14.960844 20,450 28 399 1984
2018-07-22 16:26:23 GMT 28.659622 -14.965914 20,275 28 399 2048
2018-07-22 16:26:18 GMT 28.653229 -14.969895 20,125 28 398 2112
2018-07-22 16:26:15 GMT 28.648315 -14.972939 20,025 28 398 2112
2018-07-22 16:26:12 GMT 28.642639 -14.976478 19,900 28 398 2112
2018-07-22 16:26:08 GMT 28.636330 -14.980451 19,750 28 398 2496
2018-07-22 16:26:05 GMT 28.631535 -14.983467 19,625 29 399 2688
2018-07-22 16:26:02 GMT 28.625015 -14.987570 19,450 29 399 2880
2018-07-22 16:25:54 GMT 28.614166 -14.994384 19,125 28 402 2752
2018-07-22 16:25:51 GMT 28.608444 -14.997975 18,975 28 402 2560
2018-07-22 16:25:44 GMT 28.597046 -15.005106 18,650 28 403 2880
2018-07-22 16:25:40 GMT 28.591049 -15.008803 18,475 28 405 2944
2018-07-22 16:25:33 GMT 28.578745 -15.016426 18,125 28 406 2496
2018-07-22 16:25:30 GMT 28.573837 -15.019420 18,025 28 406 2624
2018-07-22 16:25:22 GMT 28.561111 -15.027131 17,675 28 407 2880
2018-07-22 16:25:19 GMT 28.556168 -15.030159 17,525 28 408 2944
2018-07-22 16:25:14 GMT 28.547602 -15.035329 17,275 28 409 2496
2018-07-22 16:25:11 GMT 28.542114 -15.038646 17,150 28 409 2432
2018-07-22 16:25:08 GMT 28.537825 -15.041253 17,050 28 408 2368
2018-07-22 16:25:01 GMT 28.525269 -15.048893 16,750 28 408 2560
2018-07-22 16:24:58 GMT 28.520096 -15.052009 16,625 28 408 2624
2018-07-22 16:24:52 GMT 28.511765 -15.057027 16,400 28 408 2560
2018-07-22 16:24:49 GMT 28.506681 -15.060102 16,275 27 407 2560
2018-07-22 16:24:40 GMT 28.490854 -15.069634 15,875 28 407 2560
2018-07-22 16:24:29 GMT 28.472672 -15.080742 15,400 28 406 2368
2018-07-22 16:24:18 GMT 28.454962 -15.091714 15,000 28 403 2176
2018-07-22 16:24:10 GMT 28.440948 -15.100550 14,675 29 401 2304
2018-07-22 16:24:07 GMT 28.437012 -15.103032 14,600 28 400 2304
2018-07-22 16:23:59 GMT 28.423691 -15.111325 14,275 28 398 2112
2018-07-22 16:23:55 GMT 28.417603 -15.115075 14,150 28 396 2176
2018-07-22 16:23:49 GMT 28.407013 -15.121657 13,900 28 394 2240
2018-07-22 16:23:45 GMT 28.400682 -15.125535 13,750 28 392 2240
2018-07-22 16:23:38 GMT 28.390116 -15.131944 13,475 27 390 2624
2018-07-22 16:23:35 GMT 28.384342 -15.135390 13,325 27 390 2688
2018-07-22 16:23:27 GMT 28.372925 -15.142224 13,000 28 390 2624
2018-07-22 16:23:24 GMT 28.367157 -15.145710 12,850 28 389 2432
2018-07-22 16:23:14 GMT 28.351011 -15.155586 12,500 28 385 2048
2018-07-22 16:23:03 GMT 28.334206 -15.165926 12,100 28 380 2240
2018-07-22 16:22:53 GMT 28.318424 -15.175727 11,725 28 376 2304
2018-07-22 16:22:42 GMT 28.301743 -15.186116 11,300 28 373 2368
2018-07-22 16:22:34 GMT 28.290167 -15.193284 11,000 28 371 2112
2018-07-22 16:22:31 GMT 28.285812 -15.195993 10,900 28 369 1984
2018-07-22 16:22:21 GMT 28.270197 -15.205671 10,525 28 364 2048
2018-07-22 16:22:13 GMT 28.258163 -15.213054 10,225 28 360 2560
2018-07-22 16:22:10 GMT 28.254272 -15.215431 10,100 28 360 2624
2018-07-22 16:22:02 GMT 28.242874 -15.222350 9,775 28 357 2560
2018-07-22 16:21:59 GMT 28.238525 -15.224991 9,650 28 357 2624
2018-07-22 16:21:55 GMT 28.232536 -15.228613 9,475 28 356 2688
2018-07-22 16:21:49 GMT 28.223225 -15.234213 9,200 28 355 2624
2018-07-22 16:21:41 GMT 28.211960 -15.240945 8,925 27 352 1600
2018-07-22 16:21:38 GMT 28.208176 -15.243213 8,875 27 349 1024
2018-07-22 16:21:31 GMT 28.198380 -15.249076 8,800 28 339 512
2018-07-22 16:21:28 GMT 28.193338 -15.252147 8,750 28 333 640
2018-07-22 16:21:24 GMT 28.188080 -15.255415 8,700 28 329 704
2018-07-22 16:21:20 GMT 28.182632 -15.258771 8,650 28 322 576
2018-07-22 16:21:14 GMT 28.175137 -15.263403 8,600 28 313 704
2018-07-22 16:21:09 GMT 28.169550 -15.266849 8,500 28 306 1408
2018-07-22 16:21:06 GMT 28.165035 -15.269596 8,400 28 304 1600
2018-07-22 16:21:03 GMT 28.161392 -15.271788 8,325 28 301 2112
2018-07-22 16:20:59 GMT 28.155956 -15.275089 8,150 28 299 2432
2018-07-22 16:20:53 GMT 28.148941 -15.279341 7,900 28 298 2688
2018-07-22 16:20:48 GMT 28.143154 -15.282952 7,675 29 298 2560
2018-07-22 16:20:44 GMT 28.138779 -15.285785 7,525 29 296 2816
2018-07-22 16:20:38 GMT 28.130630 -15.290962 7,200 29 296 2944
2018-07-22 16:20:34 GMT 28.125883 -15.293992 7,000 29 295 3008
2018-07-22 16:20:27 GMT 28.118437 -15.298677 6,700 29 295 3072
2018-07-22 16:20:23 GMT 28.113235 -15.302001 6,475 29 295 2752
2018-07-22 16:20:16 GMT 28.104937 -15.307240 6,250 28 291 1664
2018-07-22 16:20:12 GMT 28.100647 -15.309924 6,150 28 288 1024
2018-07-22 16:20:05 GMT 28.092545 -15.314836 6,000 27 279 1216
2018-07-22 16:20:02 GMT 28.088409 -15.317257 5,925 27 274 1344
2018-07-22 16:19:55 GMT 28.080544 -15.321673 5,725 24 265 2112
2018-07-22 16:19:51 GMT 28.076075 -15.323989 5,600 23 265 2176
2018-07-22 16:19:44 GMT 28.068466 -15.327512 5,300 21 262 2880
2018-07-22 16:19:41 GMT 28.064621 -15.329203 5,125 21 261 2560
2018-07-22 16:19:34 GMT 28.056988 -15.332606 4,950 21 255 1408
2018-07-22 16:19:30 GMT 28.052658 -15.334491 4,850 21 251 1536
2018-07-22 16:19:23 GMT 28.045074 -15.337865 4,650 21 244 1600
2018-07-22 16:19:19 GMT 28.041321 -15.339502 4,550 21 242 1600
2018-07-22 16:19:12 GMT 28.033897 -15.342838 4,300 21 236 2240
2018-07-22 16:19:09 GMT 28.030453 -15.344400 4,150 21 235 2816
2018-07-22 16:19:01 GMT 28.022827 -15.347742 3,825 20 234 2944
2018-07-22 16:18:58 GMT 28.019531 -15.349168 3,650 20 235 3136
2018-07-22 16:18:50 GMT 28.011246 -15.352654 3,225 20 237 3392
2018-07-22 16:18:47 GMT 28.008545 -15.353816 3,075 20 236 3520
2018-07-22 16:18:41 GMT 28.001543 -15.356733 2,675 20 239 3392
2018-07-22 16:18:36 GMT 27.996750 -15.358671 2,475 19 238 1536
2018-07-22 16:18:30 GMT 27.990372 -15.361211 2,375 18 232 896
2018-07-22 16:18:25 GMT 27.985474 -15.363059 2,325 18 221 768
2018-07-22 16:18:19 GMT 27.980129 -15.364972 2,250 17 210 768
2018-07-22 16:18:15 GMT 27.975800 -15.366480 2,150 17 200 1280
2018-07-22 16:18:09 GMT 27.970688 -15.368341 1,975 18 193 1792
2018-07-22 16:18:04 GMT 27.966536 -15.369927 1,850 18 188 1408
2018-07-22 16:17:58 GMT 27.961740 -15.371812 1,725 19 178 1088
2018-07-22 16:17:54 GMT 27.958296 -15.373158 1,625 19 171 1536
2018-07-22 16:17:48 GMT 27.953979 -15.374838 1,475 19 163 1600
2018-07-22 16:17:43 GMT 27.950729 -15.376106 1,350 19 155 1216
2018-07-22 16:17:33 GMT 27.943958 -15.378921 950 21 147 3264
2018-07-22 16:17:22 GMT 27.937208 -15.381969 350 21 153 3520
2018-07-22 16:17:11 GMT 27.930038 -15.385138 -25 21 147 128
2018-07-22 16:17:01 GMT 27.923986 -15.387831 25 21 105 -64
2018-07-22 16:16:50 GMT 27.920158 -15.389495 0 19 57
2018-07-22 16:16:36 GMT 27.918537 -15.390226 0 19 0
2018-07-22 16:15:52 GMT 27.918530 -15.390222 0 19 0
2018-07-22 16:15:12 GMT 27.918537 -15.390226 0 19 0
2018-07-22 16:14:53 GMT 27.918530 -15.390222 0 19 0
2018-07-22 16:14:42 GMT 27.918537 -15.390213 0 19 0
2018-07-22 16:14:31 GMT 27.918530 -15.390222 0 19 0
2018-07-22 16:14:21 GMT 27.918484 -15.390235 0 28 4
2018-07-22 16:14:10 GMT 27.918331 -15.390367 0 109 7
2018-07-22 16:14:00 GMT 27.918514 -15.390861 0 109 13
2018-07-22 16:13:49 GMT 27.918762 -15.391582 0 109 16
2018-07-22 16:13:38 GMT 27.919041 -15.392361 0 112 13
2018-07-22 16:13:27 GMT 27.919075 -15.392999 0 75 12
2018-07-22 16:13:16 GMT 27.919075 -15.393543 0 112 8
2018-07-22 16:13:01 GMT 27.919123 -15.393655 0 118 0
2018-07-22 16:12:52 GMT 27.919121 -15.393659 0 118 0
2018-07-22 16:12:42 GMT 27.919123 -15.393655 0 118 0
2018-07-22 16:12:06 GMT 27.919121 -15.393659 0 118 0
2018-07-22 16:11:29 GMT 27.919123 -15.393655 0 118 0
2018-07-22 16:11:19 GMT 27.919121 -15.393659 0 118 0
2018-07-22 16:11:08 GMT 27.919216 -15.393840 0 143 6
2018-07-22 16:10:58 GMT 27.919498 -15.394009 0 185 10
2018-07-22 16:10:47 GMT 27.920151 -15.393789 0 202 18
2018-07-22 16:10:36 GMT 27.920963 -15.393426 0 202 17
2018-07-22 16:10:25 GMT 27.921661 -15.393115 0 202 15
2018-07-22 16:10:15 GMT 27.922291 -15.392843 0 202 13
2018-07-22 16:10:04 GMT 27.922852 -15.392597 0 202 13
2018-07-22 16:09:53 GMT 27.923429 -15.392334 0 202 14
2018-07-22 16:09:43 GMT 27.924007 -15.392079 0 202 15
2018-07-22 16:09:33 GMT 27.924694 -15.391781 0 202 16
2018-07-22 16:09:22 GMT 27.925426 -15.391457 0 202 17
2018-07-22 16:09:12 GMT 27.926199 -15.391106 0 202 19
2018-07-22 16:09:01 GMT 27.927109 -15.390719 0 202 19
2018-07-22 16:08:51 GMT 27.927921 -15.390354 0 202 18
2018-07-22 16:08:40 GMT 27.928734 -15.389993 0 202 18
2018-07-22 16:08:30 GMT 27.929482 -15.389667 0 202 16
2018-07-22 16:08:19 GMT 27.930166 -15.389363 0 202 15
2018-07-22 16:08:08 GMT 27.930817 -15.389073 0 202 14
2018-07-22 16:07:58 GMT 27.931389 -15.388795 0 208 14
2018-07-22 16:07:47 GMT 27.931971 -15.388492 0 202 14
2018-07-22 16:07:36 GMT 27.932634 -15.388201 0 202 13
2018-07-22 16:07:25 GMT 27.933182 -15.387950 0 202 12
2018-07-22 16:07:15 GMT 27.933701 -15.387713 0 194 12
2018-07-22 16:07:04 GMT 27.934181 -15.387804 0 123 10
2018-07-22 16:06:54 GMT 27.934380 -15.388294 0 109 10
2018-07-22 16:06:43 GMT 27.934502 -15.388723 0 73 8
2018-07-22 16:06:33 GMT 27.934307 -15.389034 0 22 7
2018-07-22 16:06:18 GMT 27.934031 -15.389152 0 19 0
2018-07-22 16:05:58 GMT 27.934010 -15.389151 0 19 0
2018-07-22 16:05:38 GMT 27.934008 -15.389152 0 19 0
2018-07-22 16:05:08 GMT 27.934010 -15.389151 0 19 0
2018-07-22 16:04:38 GMT 27.934008 -15.389152 0 19 0
2018-07-22 16:04:04 GMT 27.934010 -15.389151 0 19 0
2018-07-22 16:03:53 GMT 27.934021 -15.389151 0 19 0
2018-07-22 16:03:43 GMT 27.934113 -15.389112 0 19 3
2018-07-22 16:03:32 GMT 27.934195 -15.389086 0 19 2
2018-07-22 16:03:21 GMT 27.934217 -15.389073 0 19 0
2018-07-22 16:03:11 GMT 27.934240 -15.389060 0 19 2
2018-07-22 16:03:01 GMT 27.934357 -15.389007 0 22 3
2018-07-22 16:02:50 GMT 27.934479 -15.388957 0 25 3
2018-07-22 16:02:39 GMT 27.934612 -15.388888 0 22 3

Making use of Plane Finder data

You are free to use the raw flight data, aircraft information and images provided in this report for your own purposes provided the data is correctly attributed to Plane Finder. We ask that you please credit Plane Finder and link to planefinder.net in close proximity to the content.

Optionally one of the following logos (no smaller then 150x24px) can be used and must link to planefinder.net

Embedding the Plane Finder map

You are welcome to embed the Plane Finder playback map on your website to offer visitors a more interactive experience. We suggest using the following HTML code:

<iframe src="//planefinder.net/data/report/FR8177-EI-GJZ-7700-squawk-2018-07-22/map" width="800" height="600" seamless="seamless"></iframe>

Where our data comes from

Plane Finder has a global network of data feeds and antenna radars that receive data broadcast directly from aircraft. The primary technologies used are ADS-B and MLAT. We also show feeds from the FAA and a FLARM glider feed.

Click here to find out more about the Plane Finder network.

How we collect our data